<?xml version="1.0" encoding="UTF-8" standalone="no" ?><gpx xmlns="http://www.topografix.com/GPX/1/1" xmlns:gpxx="http://www.garmin.com/xmlschemas/GpxExtensions/v3" xmlns:wptx1="http://www.garmin.com/xmlschemas/WaypointExtension/v1" xmlns:gpxtpx="http://www.garmin.com/xmlschemas/TrackPointExtension/v1" creator="GuideVTT.com" version="1.1" xmlns:xsi="http://www.w3.org/2001/XMLSchema-instance" xsi:schemaLocation="http://www.topografix.com/GPX/1/1 http://www.topografix.com/GPX/1/1/gpx.xsd http://www.garmin.com/xmlschemas/GpxExtensions/v3 http://www8.garmin.com/xmlschemas/GpxExtensionsv3.xsd http://www.garmin.com/xmlschemas/WaypointExtension/v1 http://www8.garmin.com/xmlschemas/WaypointExtensionv1.xsd http://www.garmin.com/xmlschemas/TrackPointExtension/v1 http://www.garmin.com/xmlschemas/TrackPointExtensionv1.xsd">
<metadata><link href="http://www.garmin.com"><text>Garmin International</text></link><time>2013-06-22T15:13:50Z</time></metadata>
<trk><name>vtt_2017-03-03_58b998ac79a46393bbd55c1b.gpx</name><extensions><gpxx:TrackExtension><gpxx:DisplayColor>Cyan</gpxx:DisplayColor></gpxx:TrackExtension></extensions><trkseg>
<trkpt lat="48.884078979492" lon="2.6306984424591"><ele></ele><time>2025-5-12T7:50:41Z</time></trkpt>
<trkpt lat="48.884113311768" lon="2.6305854320526"><ele></ele><time>2025-5-12T7:50:44Z</time></trkpt>
<trkpt lat="48.884181976318" lon="2.6305289268494"><ele></ele><time>2025-5-12T7:50:47Z</time></trkpt>
<trkpt lat="48.884258270264" lon="2.6304650306702"><ele></ele><time>2025-5-12T7:50:50Z</time></trkpt>
<trkpt lat="48.884346008301" lon="2.630398273468"><ele></ele><time>2025-5-12T7:50:53Z</time></trkpt>
<trkpt lat="48.884429931641" lon="2.6303246021271"><ele></ele><time>2025-5-12T7:50:56Z</time></trkpt>
<trkpt lat="48.884429931641" lon="2.6303246021271"><ele></ele><time>2025-5-12T7:50:59Z</time></trkpt>
<trkpt lat="48.884506225586" lon="2.6302356719971"><ele></ele><time>2025-5-12T7:51:2Z</time></trkpt>
<trkpt lat="48.884582519531" lon="2.6301374435425"><ele></ele><time>2025-5-12T7:51:5Z</time></trkpt>
<trkpt lat="48.884654998779" lon="2.630054473877"><ele></ele><time>2025-5-12T7:51:8Z</time></trkpt>
<trkpt lat="48.884735107422" lon="2.6299638748169"><ele></ele><time>2025-5-12T7:51:11Z</time></trkpt>
<trkpt lat="48.884811401367" lon="2.629864692688"><ele></ele><time>2025-5-12T7:51:14Z</time></trkpt>
<trkpt lat="48.884872436523" lon="2.6297676563263"><ele></ele><time>2025-5-12T7:51:17Z</time></trkpt>
<trkpt lat="48.884941101074" lon="2.6296889781952"><ele></ele><time>2025-5-12T7:51:20Z</time></trkpt>
<trkpt lat="48.885005950928" lon="2.629606962204"><ele></ele><time>2025-5-12T7:51:23Z</time></trkpt>
<trkpt lat="48.885078430176" lon="2.6295230388641"><ele></ele><time>2025-5-12T7:51:26Z</time></trkpt>
<trkpt lat="48.885154724121" lon="2.6294300556183"><ele></ele><time>2025-5-12T7:51:29Z</time></trkpt>
<trkpt lat="48.885215759277" lon="2.6293370723724"><ele></ele><time>2025-5-12T7:51:32Z</time></trkpt>
<trkpt lat="48.885265350342" lon="2.6292424201965"><ele></ele><time>2025-5-12T7:51:35Z</time></trkpt>
<trkpt lat="48.885334014893" lon="2.6291584968567"><ele></ele><time>2025-5-12T7:51:38Z</time></trkpt>
<trkpt lat="48.885334014893" lon="2.6291584968567"><ele></ele><time>2025-5-12T7:51:41Z</time></trkpt>
<trkpt lat="48.885410308838" lon="2.6290786266327"><ele></ele><time>2025-5-12T7:51:44Z</time></trkpt>
<trkpt lat="48.885482788086" lon="2.6290051937103"><ele></ele><time>2025-5-12T7:51:47Z</time></trkpt>
<trkpt lat="48.885555267334" lon="2.6289298534393"><ele></ele><time>2025-5-12T7:51:50Z</time></trkpt>
<trkpt lat="48.885612487793" lon="2.6289157867432"><ele></ele><time>2025-5-12T7:51:53Z</time></trkpt>
<trkpt lat="48.885684967041" lon="2.6289565563202"><ele></ele><time>2025-5-12T7:51:56Z</time></trkpt>
<trkpt lat="48.885761260986" lon="2.6289784908295"><ele></ele><time>2025-5-12T7:51:59Z</time></trkpt>
<trkpt lat="48.885837554932" lon="2.6289465427399"><ele></ele><time>2025-5-12T7:52:2Z</time></trkpt>
<trkpt lat="48.885940551758" lon="2.6288919448853"><ele></ele><time>2025-5-12T7:52:5Z</time></trkpt>
<trkpt lat="48.886032104492" lon="2.6288297176361"><ele></ele><time>2025-5-12T7:52:8Z</time></trkpt>
<trkpt lat="48.886100769043" lon="2.6287598609924"><ele></ele><time>2025-5-12T7:52:11Z</time></trkpt>
<trkpt lat="48.886131286621" lon="2.6286797523499"><ele></ele><time>2025-5-12T7:52:14Z</time></trkpt>
<trkpt lat="48.886131286621" lon="2.6286797523499"><ele></ele><time>2025-5-12T7:52:17Z</time></trkpt>
<trkpt lat="48.886131286621" lon="2.6286797523499"><ele></ele><time>2025-5-12T7:52:20Z</time></trkpt>
<trkpt lat="48.886215209961" lon="2.6285226345062"><ele></ele><time>2025-5-12T7:52:23Z</time></trkpt>
<trkpt lat="48.886276245117" lon="2.6284296512604"><ele></ele><time>2025-5-12T7:52:26Z</time></trkpt>
<trkpt lat="48.886276245117" lon="2.6284296512604"><ele></ele><time>2025-5-12T7:52:29Z</time></trkpt>
<trkpt lat="48.886341094971" lon="2.6283550262451"><ele></ele><time>2025-5-12T7:52:32Z</time></trkpt>
<trkpt lat="48.886642456055" lon="2.6279833316803"><ele></ele><time>2025-5-12T7:52:35Z</time></trkpt>
<trkpt lat="48.886642456055" lon="2.6279833316803"><ele></ele><time>2025-5-12T7:52:38Z</time></trkpt>
<trkpt lat="48.886692047119" lon="2.6278882026672"><ele></ele><time>2025-5-12T7:52:41Z</time></trkpt>
<trkpt lat="48.886810302734" lon="2.627779006958"><ele></ele><time>2025-5-12T7:52:44Z</time></trkpt>
<trkpt lat="48.886810302734" lon="2.627779006958"><ele></ele><time>2025-5-12T7:52:47Z</time></trkpt>
<trkpt lat="48.886966705322" lon="2.627596616745"><ele></ele><time>2025-5-12T7:52:50Z</time></trkpt>
<trkpt lat="48.887054443359" lon="2.6275055408478"><ele></ele><time>2025-5-12T7:52:53Z</time></trkpt>
<trkpt lat="48.887134552002" lon="2.6274321079254"><ele></ele><time>2025-5-12T7:52:56Z</time></trkpt>
<trkpt lat="48.887203216553" lon="2.627349615097"><ele></ele><time>2025-5-12T7:52:59Z</time></trkpt>
<trkpt lat="48.887271881104" lon="2.6272580623627"><ele></ele><time>2025-5-12T7:53:2Z</time></trkpt>
<trkpt lat="48.887336730957" lon="2.6271760463715"><ele></ele><time>2025-5-12T7:53:5Z</time></trkpt>
<trkpt lat="48.887413024902" lon="2.6271131038666"><ele></ele><time>2025-5-12T7:53:8Z</time></trkpt>
<trkpt lat="48.887474060059" lon="2.6270415782928"><ele></ele><time>2025-5-12T7:53:11Z</time></trkpt>
<trkpt lat="48.887535095215" lon="2.626953125"><ele></ele><time>2025-5-12T7:53:14Z</time></trkpt>
<trkpt lat="48.887615203857" lon="2.6268570423126"><ele></ele><time>2025-5-12T7:53:17Z</time></trkpt>
<trkpt lat="48.887672424316" lon="2.6268253326416"><ele></ele><time>2025-5-12T7:53:20Z</time></trkpt>
<trkpt lat="48.887722015381" lon="2.6268999576569"><ele></ele><time>2025-5-12T7:53:23Z</time></trkpt>
<trkpt lat="48.887775421143" lon="2.6270017623901"><ele></ele><time>2025-5-12T7:53:26Z</time></trkpt>
<trkpt lat="48.887832641602" lon="2.6270976066589"><ele></ele><time>2025-5-12T7:53:29Z</time></trkpt>
<trkpt lat="48.887886047363" lon="2.6271553039551"><ele></ele><time>2025-5-12T7:53:32Z</time></trkpt>
<trkpt lat="48.887939453125" lon="2.6272552013397"><ele></ele><time>2025-5-12T7:53:35Z</time></trkpt>
<trkpt lat="48.888000488281" lon="2.6273612976074"><ele></ele><time>2025-5-12T7:53:38Z</time></trkpt>
<trkpt lat="48.888065338135" lon="2.6274590492249"><ele></ele><time>2025-5-12T7:53:41Z</time></trkpt>
<trkpt lat="48.888126373291" lon="2.6275589466095"><ele></ele><time>2025-5-12T7:53:44Z</time></trkpt>
<trkpt lat="48.88818359375" lon="2.6276495456696"><ele></ele><time>2025-5-12T7:53:47Z</time></trkpt>
<trkpt lat="48.888248443604" lon="2.6277639865875"><ele></ele><time>2025-5-12T7:53:50Z</time></trkpt>
<trkpt lat="48.888317108154" lon="2.6278851032257"><ele></ele><time>2025-5-12T7:53:53Z</time></trkpt>
<trkpt lat="48.888385772705" lon="2.6279940605164"><ele></ele><time>2025-5-12T7:53:56Z</time></trkpt>
<trkpt lat="48.888454437256" lon="2.6281154155731"><ele></ele><time>2025-5-12T7:53:59Z</time></trkpt>
<trkpt lat="48.888511657715" lon="2.628219127655"><ele></ele><time>2025-5-12T7:54:2Z</time></trkpt>
<trkpt lat="48.888584136963" lon="2.6283502578735"><ele></ele><time>2025-5-12T7:54:5Z</time></trkpt>
<trkpt lat="48.888664245605" lon="2.6284935474396"><ele></ele><time>2025-5-12T7:54:8Z</time></trkpt>
<trkpt lat="48.888736724854" lon="2.6286361217499"><ele></ele><time>2025-5-12T7:54:11Z</time></trkpt>
<trkpt lat="48.888813018799" lon="2.6287944316864"><ele></ele><time>2025-5-12T7:54:14Z</time></trkpt>
<trkpt lat="48.888900756836" lon="2.6289427280426"><ele></ele><time>2025-5-12T7:54:17Z</time></trkpt>
<trkpt lat="48.888996124268" lon="2.629096031189"><ele></ele><time>2025-5-12T7:54:20Z</time></trkpt>
<trkpt lat="48.88907623291" lon="2.6292428970337"><ele></ele><time>2025-5-12T7:54:23Z</time></trkpt>
<trkpt lat="48.88916015625" lon="2.6293928623199"><ele></ele><time>2025-5-12T7:54:26Z</time></trkpt>
<trkpt lat="48.889240264893" lon="2.6295390129089"><ele></ele><time>2025-5-12T7:54:29Z</time></trkpt>
<trkpt lat="48.889324188232" lon="2.6296932697296"><ele></ele><time>2025-5-12T7:54:32Z</time></trkpt>
<trkpt lat="48.889404296875" lon="2.6298406124115"><ele></ele><time>2025-5-12T7:54:35Z</time></trkpt>
<trkpt lat="48.889488220215" lon="2.6300003528595"><ele></ele><time>2025-5-12T7:54:38Z</time></trkpt>
<trkpt lat="48.88956451416" lon="2.6301484107971"><ele></ele><time>2025-5-12T7:54:41Z</time></trkpt>
<trkpt lat="48.889652252197" lon="2.6303181648254"><ele></ele><time>2025-5-12T7:54:44Z</time></trkpt>
<trkpt lat="48.88973236084" lon="2.630476474762"><ele></ele><time>2025-5-12T7:54:47Z</time></trkpt>
<trkpt lat="48.889820098877" lon="2.6306281089783"><ele></ele><time>2025-5-12T7:54:50Z</time></trkpt>
<trkpt lat="48.889904022217" lon="2.6307766437531"><ele></ele><time>2025-5-12T7:54:53Z</time></trkpt>
<trkpt lat="48.889980316162" lon="2.6309030056"><ele></ele><time>2025-5-12T7:54:56Z</time></trkpt>
<trkpt lat="48.89005279541" lon="2.6310193538666"><ele></ele><time>2025-5-12T7:54:59Z</time></trkpt>
<trkpt lat="48.89013671875" lon="2.6311702728271"><ele></ele><time>2025-5-12T7:55:2Z</time></trkpt>
<trkpt lat="48.890213012695" lon="2.6313011646271"><ele></ele><time>2025-5-12T7:55:5Z</time></trkpt>
<trkpt lat="48.890281677246" lon="2.6314182281494"><ele></ele><time>2025-5-12T7:55:8Z</time></trkpt>
<trkpt lat="48.890342712402" lon="2.6315250396729"><ele></ele><time>2025-5-12T7:55:11Z</time></trkpt>
<trkpt lat="48.890399932861" lon="2.6316380500793"><ele></ele><time>2025-5-12T7:55:14Z</time></trkpt>
<trkpt lat="48.890449523926" lon="2.6317367553711"><ele></ele><time>2025-5-12T7:55:17Z</time></trkpt>
<trkpt lat="48.890491485596" lon="2.6318275928497"><ele></ele><time>2025-5-12T7:55:20Z</time></trkpt>
<trkpt lat="48.890533447266" lon="2.6319444179535"><ele></ele><time>2025-5-12T7:55:23Z</time></trkpt>
<trkpt lat="48.890571594238" lon="2.6320407390594"><ele></ele><time>2025-5-12T7:55:26Z</time></trkpt>
<trkpt lat="48.890571594238" lon="2.6320407390594"><ele></ele><time>2025-5-12T7:55:29Z</time></trkpt>
<trkpt lat="48.890613555908" lon="2.6321258544922"><ele></ele><time>2025-5-12T7:55:32Z</time></trkpt>
<trkpt lat="48.890613555908" lon="2.6321258544922"><ele></ele><time>2025-5-12T7:55:35Z</time></trkpt>
<trkpt lat="48.890693664551" lon="2.6322875022888"><ele></ele><time>2025-5-12T7:55:38Z</time></trkpt>
<trkpt lat="48.890727996826" lon="2.6323697566986"><ele></ele><time>2025-5-12T7:55:41Z</time></trkpt>
<trkpt lat="48.890758514404" lon="2.6324543952942"><ele></ele><time>2025-5-12T7:55:44Z</time></trkpt>
<trkpt lat="48.890758514404" lon="2.6324543952942"><ele></ele><time>2025-5-12T7:55:47Z</time></trkpt>
<trkpt lat="48.890781402588" lon="2.6325924396515"><ele></ele><time>2025-5-12T7:55:50Z</time></trkpt>
<trkpt lat="48.890781402588" lon="2.6325924396515"><ele></ele><time>2025-5-12T7:55:53Z</time></trkpt>
<trkpt lat="48.890789031982" lon="2.6326813697815"><ele></ele><time>2025-5-12T7:55:56Z</time></trkpt>
<trkpt lat="48.890789031982" lon="2.6326813697815"><ele></ele><time>2025-5-12T7:55:59Z</time></trkpt>
<trkpt lat="48.890789031982" lon="2.6326813697815"><ele></ele><time>2025-5-12T7:56:2Z</time></trkpt>
<trkpt lat="48.890804290771" lon="2.632824420929"><ele></ele><time>2025-5-12T7:56:5Z</time></trkpt>
<trkpt lat="48.890811920166" lon="2.6329188346863"><ele></ele><time>2025-5-12T7:56:8Z</time></trkpt>
<trkpt lat="48.890850067139" lon="2.6331079006195"><ele></ele><time>2025-5-12T7:56:11Z</time></trkpt>
<trkpt lat="48.89087677002" lon="2.6332030296326"><ele></ele><time>2025-5-12T7:56:14Z</time></trkpt>
<trkpt lat="48.890918731689" lon="2.6333131790161"><ele></ele><time>2025-5-12T7:56:17Z</time></trkpt>
<trkpt lat="48.890979766846" lon="2.6334466934204"><ele></ele><time>2025-5-12T7:56:20Z</time></trkpt>
<trkpt lat="48.891044616699" lon="2.6335754394531"><ele></ele><time>2025-5-12T7:56:23Z</time></trkpt>
<trkpt lat="48.891109466553" lon="2.6337099075317"><ele></ele><time>2025-5-12T7:56:26Z</time></trkpt>
<trkpt lat="48.891174316406" lon="2.6338353157043"><ele></ele><time>2025-5-12T7:56:29Z</time></trkpt>
<trkpt lat="48.891220092773" lon="2.63396525383"><ele></ele><time>2025-5-12T7:56:32Z</time></trkpt>
<trkpt lat="48.891258239746" lon="2.6340897083282"><ele></ele><time>2025-5-12T7:56:35Z</time></trkpt>
<trkpt lat="48.891315460205" lon="2.6342296600342"><ele></ele><time>2025-5-12T7:56:38Z</time></trkpt>
<trkpt lat="48.891368865967" lon="2.6343834400177"><ele></ele><time>2025-5-12T7:56:41Z</time></trkpt>
<trkpt lat="48.891414642334" lon="2.6345279216766"><ele></ele><time>2025-5-12T7:56:44Z</time></trkpt>
<trkpt lat="48.891468048096" lon="2.6346850395203"><ele></ele><time>2025-5-12T7:56:47Z</time></trkpt>
<trkpt lat="48.891468048096" lon="2.6346850395203"><ele></ele><time>2025-5-12T7:56:50Z</time></trkpt>
<trkpt lat="48.891513824463" lon="2.6348049640656"><ele></ele><time>2025-5-12T7:56:53Z</time></trkpt>
<trkpt lat="48.891563415527" lon="2.6349494457245"><ele></ele><time>2025-5-12T7:56:56Z</time></trkpt>
<trkpt lat="48.891613006592" lon="2.6350717544556"><ele></ele><time>2025-5-12T7:56:59Z</time></trkpt>
<trkpt lat="48.891613006592" lon="2.6350717544556"><ele></ele><time>2025-5-12T7:57:2Z</time></trkpt>
<trkpt lat="48.891666412354" lon="2.6351897716522"><ele></ele><time>2025-5-12T7:57:5Z</time></trkpt>
<trkpt lat="48.891719818115" lon="2.6353254318237"><ele></ele><time>2025-5-12T7:57:8Z</time></trkpt>
<trkpt lat="48.891773223877" lon="2.6354289054871"><ele></ele><time>2025-5-12T7:57:11Z</time></trkpt>
<trkpt lat="48.891773223877" lon="2.6354289054871"><ele></ele><time>2025-5-12T7:57:14Z</time></trkpt>
<trkpt lat="48.891826629639" lon="2.6355218887329"><ele></ele><time>2025-5-12T7:57:17Z</time></trkpt>
<trkpt lat="48.891895294189" lon="2.6356730461121"><ele></ele><time>2025-5-12T7:57:20Z</time></trkpt>
<trkpt lat="48.891956329346" lon="2.6358125209808"><ele></ele><time>2025-5-12T7:57:23Z</time></trkpt>
<trkpt lat="48.891956329346" lon="2.6358125209808"><ele></ele><time>2025-5-12T7:57:26Z</time></trkpt>
<trkpt lat="48.892013549805" lon="2.6359441280365"><ele></ele><time>2025-5-12T7:57:29Z</time></trkpt>
<trkpt lat="48.892066955566" lon="2.6360723972321"><ele></ele><time>2025-5-12T7:57:32Z</time></trkpt>
<trkpt lat="48.892135620117" lon="2.63618683815"><ele></ele><time>2025-5-12T7:57:35Z</time></trkpt>
<trkpt lat="48.892135620117" lon="2.63618683815"><ele></ele><time>2025-5-12T7:57:38Z</time></trkpt>
<trkpt lat="48.892204284668" lon="2.6362950801849"><ele></ele><time>2025-5-12T7:57:41Z</time></trkpt>
<trkpt lat="48.892269134521" lon="2.636435508728"><ele></ele><time>2025-5-12T7:57:44Z</time></trkpt>
<trkpt lat="48.89234161377" lon="2.6365833282471"><ele></ele><time>2025-5-12T7:57:47Z</time></trkpt>
<trkpt lat="48.89234161377" lon="2.6365833282471"><ele></ele><time>2025-5-12T7:57:50Z</time></trkpt>
<trkpt lat="48.892406463623" lon="2.6367015838623"><ele></ele><time>2025-5-12T7:57:53Z</time></trkpt>
<trkpt lat="48.892463684082" lon="2.6367950439453"><ele></ele><time>2025-5-12T7:57:56Z</time></trkpt>
<trkpt lat="48.892505645752" lon="2.6368789672852"><ele></ele><time>2025-5-12T7:57:59Z</time></trkpt>
<trkpt lat="48.892505645752" lon="2.6368789672852"><ele></ele><time>2025-5-12T7:58:2Z</time></trkpt>
<trkpt lat="48.892543792725" lon="2.6369726657867"><ele></ele><time>2025-5-12T7:58:5Z</time></trkpt>
<trkpt lat="48.892589569092" lon="2.6370928287506"><ele></ele><time>2025-5-12T7:58:8Z</time></trkpt>
<trkpt lat="48.892631530762" lon="2.6372175216675"><ele></ele><time>2025-5-12T7:58:11Z</time></trkpt>
<trkpt lat="48.892631530762" lon="2.6372175216675"><ele></ele><time>2025-5-12T7:58:14Z</time></trkpt>
<trkpt lat="48.892669677734" lon="2.6372888088226"><ele></ele><time>2025-5-12T7:58:17Z</time></trkpt>
<trkpt lat="48.892669677734" lon="2.6372888088226"><ele></ele><time>2025-5-12T7:58:20Z</time></trkpt>
<trkpt lat="48.892734527588" lon="2.6372692584991"><ele></ele><time>2025-5-12T7:58:23Z</time></trkpt>
<trkpt lat="48.892734527588" lon="2.6372692584991"><ele></ele><time>2025-5-12T7:58:26Z</time></trkpt>
<trkpt lat="48.892795562744" lon="2.6372807025909"><ele></ele><time>2025-5-12T7:58:29Z</time></trkpt>
<trkpt lat="48.892864227295" lon="2.6373744010925"><ele></ele><time>2025-5-12T7:58:32Z</time></trkpt>
<trkpt lat="48.892929077148" lon="2.6374742984772"><ele></ele><time>2025-5-12T7:58:35Z</time></trkpt>
<trkpt lat="48.892929077148" lon="2.6374742984772"><ele></ele><time>2025-5-12T7:58:38Z</time></trkpt>
<trkpt lat="48.892971038818" lon="2.63756108284"><ele></ele><time>2025-5-12T7:58:41Z</time></trkpt>
<trkpt lat="48.893016815186" lon="2.6376605033875"><ele></ele><time>2025-5-12T7:58:44Z</time></trkpt>
<trkpt lat="48.893062591553" lon="2.6377546787262"><ele></ele><time>2025-5-12T7:58:47Z</time></trkpt>
<trkpt lat="48.893062591553" lon="2.6377546787262"><ele></ele><time>2025-5-12T7:58:50Z</time></trkpt>
<trkpt lat="48.893104553223" lon="2.637852191925"><ele></ele><time>2025-5-12T7:58:53Z</time></trkpt>
<trkpt lat="48.893146514893" lon="2.6379396915436"><ele></ele><time>2025-5-12T7:58:56Z</time></trkpt>
<trkpt lat="48.893184661865" lon="2.6380228996277"><ele></ele><time>2025-5-12T7:58:59Z</time></trkpt>
<trkpt lat="48.893184661865" lon="2.6380228996277"><ele></ele><time>2025-5-12T7:59:2Z</time></trkpt>
<trkpt lat="48.893222808838" lon="2.6381168365479"><ele></ele><time>2025-5-12T7:59:5Z</time></trkpt>
<trkpt lat="48.893260955811" lon="2.6382007598877"><ele></ele><time>2025-5-12T7:59:8Z</time></trkpt>
<trkpt lat="48.89331817627" lon="2.6382298469543"><ele></ele><time>2025-5-12T7:59:11Z</time></trkpt>
<trkpt lat="48.89338684082" lon="2.6382513046265"><ele></ele><time>2025-5-12T7:59:14Z</time></trkpt>
<trkpt lat="48.89342880249" lon="2.6383321285248"><ele></ele><time>2025-5-12T7:59:17Z</time></trkpt>
<trkpt lat="48.89342880249" lon="2.6383321285248"><ele></ele><time>2025-5-12T7:59:20Z</time></trkpt>
<trkpt lat="48.89347076416" lon="2.6384222507477"><ele></ele><time>2025-5-12T7:59:23Z</time></trkpt>
<trkpt lat="48.893501281738" lon="2.6385183334351"><ele></ele><time>2025-5-12T7:59:26Z</time></trkpt>
<trkpt lat="48.893539428711" lon="2.638601064682"><ele></ele><time>2025-5-12T7:59:29Z</time></trkpt>
<trkpt lat="48.893539428711" lon="2.638601064682"><ele></ele><time>2025-5-12T7:59:32Z</time></trkpt>
<trkpt lat="48.893539428711" lon="2.638601064682"><ele></ele><time>2025-5-12T7:59:35Z</time></trkpt>
<trkpt lat="48.893627166748" lon="2.6386277675629"><ele></ele><time>2025-5-12T7:59:38Z</time></trkpt>
<trkpt lat="48.893684387207" lon="2.6386172771454"><ele></ele><time>2025-5-12T7:59:41Z</time></trkpt>
<trkpt lat="48.893684387207" lon="2.6386172771454"><ele></ele><time>2025-5-12T7:59:44Z</time></trkpt>
<trkpt lat="48.893756866455" lon="2.638603925705"><ele></ele><time>2025-5-12T7:59:47Z</time></trkpt>
<trkpt lat="48.893814086914" lon="2.6385903358459"><ele></ele><time>2025-5-12T7:59:50Z</time></trkpt>
<trkpt lat="48.893814086914" lon="2.6385903358459"><ele></ele><time>2025-5-12T7:59:53Z</time></trkpt>
<trkpt lat="48.893936157227" lon="2.6385495662689"><ele></ele><time>2025-5-12T7:59:56Z</time></trkpt>
<trkpt lat="48.894004821777" lon="2.6385312080383"><ele></ele><time>2025-5-12T7:59:59Z</time></trkpt>
<trkpt lat="48.894069671631" lon="2.6385476589203"><ele></ele><time>2025-5-12T8:0:2Z</time></trkpt>
<trkpt lat="48.894069671631" lon="2.6385476589203"><ele></ele><time>2025-5-12T8:0:5Z</time></trkpt>
<trkpt lat="48.894130706787" lon="2.6386141777039"><ele></ele><time>2025-5-12T8:0:8Z</time></trkpt>
<trkpt lat="48.894180297852" lon="2.6387143135071"><ele></ele><time>2025-5-12T8:0:11Z</time></trkpt>
<trkpt lat="48.894237518311" lon="2.6388144493103"><ele></ele><time>2025-5-12T8:0:14Z</time></trkpt>
<trkpt lat="48.894237518311" lon="2.6388144493103"><ele></ele><time>2025-5-12T8:0:17Z</time></trkpt>
<trkpt lat="48.89429473877" lon="2.6389079093933"><ele></ele><time>2025-5-12T8:0:20Z</time></trkpt>
<trkpt lat="48.894340515137" lon="2.6389746665955"><ele></ele><time>2025-5-12T8:0:23Z</time></trkpt>
<trkpt lat="48.894382476807" lon="2.639062166214"><ele></ele><time>2025-5-12T8:0:26Z</time></trkpt>
<trkpt lat="48.894382476807" lon="2.639062166214"><ele></ele><time>2025-5-12T8:0:29Z</time></trkpt>
<trkpt lat="48.894435882568" lon="2.6391706466675"><ele></ele><time>2025-5-12T8:0:32Z</time></trkpt>
<trkpt lat="48.894496917725" lon="2.6393046379089"><ele></ele><time>2025-5-12T8:0:35Z</time></trkpt>
<trkpt lat="48.894565582275" lon="2.6394340991974"><ele></ele><time>2025-5-12T8:0:38Z</time></trkpt>
<trkpt lat="48.894565582275" lon="2.6394340991974"><ele></ele><time>2025-5-12T8:0:41Z</time></trkpt>
<trkpt lat="48.894634246826" lon="2.6395480632782"><ele></ele><time>2025-5-12T8:0:44Z</time></trkpt>
<trkpt lat="48.894691467285" lon="2.6396372318268"><ele></ele><time>2025-5-12T8:0:47Z</time></trkpt>
<trkpt lat="48.894760131836" lon="2.6397337913513"><ele></ele><time>2025-5-12T8:0:50Z</time></trkpt>
<trkpt lat="48.894760131836" lon="2.6397337913513"><ele></ele><time>2025-5-12T8:0:53Z</time></trkpt>
<trkpt lat="48.894805908203" lon="2.6398229598999"><ele></ele><time>2025-5-12T8:0:56Z</time></trkpt>
<trkpt lat="48.89485168457" lon="2.639919757843"><ele></ele><time>2025-5-12T8:0:59Z</time></trkpt>
<trkpt lat="48.894908905029" lon="2.6400246620178"><ele></ele><time>2025-5-12T8:1:2Z</time></trkpt>
<trkpt lat="48.894908905029" lon="2.6400246620178"><ele></ele><time>2025-5-12T8:1:5Z</time></trkpt>
<trkpt lat="48.894966125488" lon="2.6401154994965"><ele></ele><time>2025-5-12T8:1:8Z</time></trkpt>
<trkpt lat="48.895034790039" lon="2.6401979923248"><ele></ele><time>2025-5-12T8:1:11Z</time></trkpt>
<trkpt lat="48.895092010498" lon="2.6402909755707"><ele></ele><time>2025-5-12T8:1:14Z</time></trkpt>
<trkpt lat="48.895092010498" lon="2.6402909755707"><ele></ele><time>2025-5-12T8:1:17Z</time></trkpt>
<trkpt lat="48.895141601562" lon="2.6404001712799"><ele></ele><time>2025-5-12T8:1:20Z</time></trkpt>
<trkpt lat="48.895202636719" lon="2.6405231952667"><ele></ele><time>2025-5-12T8:1:23Z</time></trkpt>
<trkpt lat="48.895252227783" lon="2.6406290531158"><ele></ele><time>2025-5-12T8:1:26Z</time></trkpt>
<trkpt lat="48.895252227783" lon="2.6406290531158"><ele></ele><time>2025-5-12T8:1:29Z</time></trkpt>
<trkpt lat="48.895294189453" lon="2.6407141685486"><ele></ele><time>2025-5-12T8:1:32Z</time></trkpt>
<trkpt lat="48.89533996582" lon="2.6408185958862"><ele></ele><time>2025-5-12T8:1:35Z</time></trkpt>
<trkpt lat="48.895404815674" lon="2.6409401893616"><ele></ele><time>2025-5-12T8:1:38Z</time></trkpt>
<trkpt lat="48.895404815674" lon="2.6409401893616"><ele></ele><time>2025-5-12T8:1:41Z</time></trkpt>
<trkpt lat="48.895473480225" lon="2.6410448551178"><ele></ele><time>2025-5-12T8:1:44Z</time></trkpt>
<trkpt lat="48.895534515381" lon="2.6411275863647"><ele></ele><time>2025-5-12T8:1:47Z</time></trkpt>
<trkpt lat="48.895584106445" lon="2.6412110328674"><ele></ele><time>2025-5-12T8:1:50Z</time></trkpt>
<trkpt lat="48.895584106445" lon="2.6412110328674"><ele></ele><time>2025-5-12T8:1:53Z</time></trkpt>
<trkpt lat="48.895637512207" lon="2.6413123607635"><ele></ele><time>2025-5-12T8:1:56Z</time></trkpt>
<trkpt lat="48.895679473877" lon="2.6413872241974"><ele></ele><time>2025-5-12T8:1:59Z</time></trkpt>
<trkpt lat="48.895732879639" lon="2.6414713859558"><ele></ele><time>2025-5-12T8:2:2Z</time></trkpt>
<trkpt lat="48.895732879639" lon="2.6414713859558"><ele></ele><time>2025-5-12T8:2:5Z</time></trkpt>
<trkpt lat="48.8957862854" lon="2.6415510177612"><ele></ele><time>2025-5-12T8:2:8Z</time></trkpt>
<trkpt lat="48.895851135254" lon="2.6416568756104"><ele></ele><time>2025-5-12T8:2:11Z</time></trkpt>
<trkpt lat="48.895919799805" lon="2.6417601108551"><ele></ele><time>2025-5-12T8:2:14Z</time></trkpt>
<trkpt lat="48.895919799805" lon="2.6417601108551"><ele></ele><time>2025-5-12T8:2:17Z</time></trkpt>
<trkpt lat="48.895973205566" lon="2.6418483257294"><ele></ele><time>2025-5-12T8:2:20Z</time></trkpt>
<trkpt lat="48.896034240723" lon="2.6419930458069"><ele></ele><time>2025-5-12T8:2:23Z</time></trkpt>
<trkpt lat="48.896034240723" lon="2.6419930458069"><ele></ele><time>2025-5-12T8:2:26Z</time></trkpt>
<trkpt lat="48.896278381348" lon="2.6423952579498"><ele></ele><time>2025-5-12T8:2:29Z</time></trkpt>
<trkpt lat="48.896377563477" lon="2.6425468921661"><ele></ele><time>2025-5-12T8:2:32Z</time></trkpt>
<trkpt lat="48.89644241333" lon="2.6426720619202"><ele></ele><time>2025-5-12T8:2:35Z</time></trkpt>
<trkpt lat="48.89644241333" lon="2.6426720619202"><ele></ele><time>2025-5-12T8:2:38Z</time></trkpt>
<trkpt lat="48.896499633789" lon="2.6428005695343"><ele></ele><time>2025-5-12T8:2:41Z</time></trkpt>
<trkpt lat="48.896575927734" lon="2.6429517269135"><ele></ele><time>2025-5-12T8:2:44Z</time></trkpt>
<trkpt lat="48.896633148193" lon="2.6430780887604"><ele></ele><time>2025-5-12T8:2:47Z</time></trkpt>
<trkpt lat="48.896633148193" lon="2.6430780887604"><ele></ele><time>2025-5-12T8:2:50Z</time></trkpt>
<trkpt lat="48.896671295166" lon="2.6431756019592"><ele></ele><time>2025-5-12T8:2:53Z</time></trkpt>
<trkpt lat="48.896671295166" lon="2.6431756019592"><ele></ele><time>2025-5-12T8:2:56Z</time></trkpt>
<trkpt lat="48.896671295166" lon="2.6431756019592"><ele></ele><time>2025-5-12T8:2:59Z</time></trkpt>
<trkpt lat="48.896671295166" lon="2.6431756019592"><ele></ele><time>2025-5-12T8:3:2Z</time></trkpt>
<trkpt lat="48.896659851074" lon="2.6432662010193"><ele></ele><time>2025-5-12T8:3:5Z</time></trkpt>
<trkpt lat="48.896709442139" lon="2.6436307430267"><ele></ele><time>2025-5-12T8:3:8Z</time></trkpt>
<trkpt lat="48.89673614502" lon="2.6437423229218"><ele></ele><time>2025-5-12T8:3:11Z</time></trkpt>
<trkpt lat="48.896781921387" lon="2.6438374519348"><ele></ele><time>2025-5-12T8:3:14Z</time></trkpt>
<trkpt lat="48.896839141846" lon="2.6438999176025"><ele></ele><time>2025-5-12T8:3:17Z</time></trkpt>
<trkpt lat="48.896896362305" lon="2.6439611911774"><ele></ele><time>2025-5-12T8:3:20Z</time></trkpt>
<trkpt lat="48.896968841553" lon="2.644008398056"><ele></ele><time>2025-5-12T8:3:23Z</time></trkpt>
<trkpt lat="48.896968841553" lon="2.644008398056"><ele></ele><time>2025-5-12T8:3:26Z</time></trkpt>
<trkpt lat="48.897029876709" lon="2.6441125869751"><ele></ele><time>2025-5-12T8:3:29Z</time></trkpt>
<trkpt lat="48.897029876709" lon="2.6441125869751"><ele></ele><time>2025-5-12T8:3:32Z</time></trkpt>
<trkpt lat="48.897029876709" lon="2.6441125869751"><ele></ele><time>2025-5-12T8:3:35Z</time></trkpt>
<trkpt lat="48.897090911865" lon="2.6442649364471"><ele></ele><time>2025-5-12T8:3:38Z</time></trkpt>
<trkpt lat="48.897090911865" lon="2.6442649364471"><ele></ele><time>2025-5-12T8:3:41Z</time></trkpt>
<trkpt lat="48.897109985352" lon="2.6444253921509"><ele></ele><time>2025-5-12T8:3:44Z</time></trkpt>
<trkpt lat="48.897109985352" lon="2.6444253921509"><ele></ele><time>2025-5-12T8:3:47Z</time></trkpt>
<trkpt lat="48.897109985352" lon="2.6444253921509"><ele></ele><time>2025-5-12T8:3:50Z</time></trkpt>
<trkpt lat="48.897148132324" lon="2.6445736885071"><ele></ele><time>2025-5-12T8:3:53Z</time></trkpt>
<trkpt lat="48.897148132324" lon="2.6445736885071"><ele></ele><time>2025-5-12T8:3:56Z</time></trkpt>
<trkpt lat="48.897148132324" lon="2.6445736885071"><ele></ele><time>2025-5-12T8:3:59Z</time></trkpt>
<trkpt lat="48.897216796875" lon="2.6446568965912"><ele></ele><time>2025-5-12T8:4:2Z</time></trkpt>
<trkpt lat="48.897270202637" lon="2.6447031497955"><ele></ele><time>2025-5-12T8:4:5Z</time></trkpt>
<trkpt lat="48.897312164307" lon="2.6448073387146"><ele></ele><time>2025-5-12T8:4:8Z</time></trkpt>
<trkpt lat="48.897312164307" lon="2.6448073387146"><ele></ele><time>2025-5-12T8:4:11Z</time></trkpt>
<trkpt lat="48.897323608398" lon="2.64493227005"><ele></ele><time>2025-5-12T8:4:14Z</time></trkpt>
<trkpt lat="48.897319793701" lon="2.6450979709625"><ele></ele><time>2025-5-12T8:4:17Z</time></trkpt>
<trkpt lat="48.897338867188" lon="2.6452627182007"><ele></ele><time>2025-5-12T8:4:20Z</time></trkpt>
<trkpt lat="48.897338867188" lon="2.6452627182007"><ele></ele><time>2025-5-12T8:4:23Z</time></trkpt>
<trkpt lat="48.897361755371" lon="2.6454281806946"><ele></ele><time>2025-5-12T8:4:26Z</time></trkpt>
<trkpt lat="48.897396087646" lon="2.6455914974213"><ele></ele><time>2025-5-12T8:4:29Z</time></trkpt>
<trkpt lat="48.897422790527" lon="2.6456928253174"><ele></ele><time>2025-5-12T8:4:32Z</time></trkpt>
<trkpt lat="48.897422790527" lon="2.6456928253174"><ele></ele><time>2025-5-12T8:4:35Z</time></trkpt>
<trkpt lat="48.897426605225" lon="2.645797252655"><ele></ele><time>2025-5-12T8:4:38Z</time></trkpt>
<trkpt lat="48.897415161133" lon="2.6459121704102"><ele></ele><time>2025-5-12T8:4:41Z</time></trkpt>
<trkpt lat="48.897399902344" lon="2.6460094451904"><ele></ele><time>2025-5-12T8:4:44Z</time></trkpt>
<trkpt lat="48.897399902344" lon="2.6460094451904"><ele></ele><time>2025-5-12T8:4:47Z</time></trkpt>
<trkpt lat="48.897438049316" lon="2.6460897922516"><ele></ele><time>2025-5-12T8:4:50Z</time></trkpt>
<trkpt lat="48.897480010986" lon="2.6461567878723"><ele></ele><time>2025-5-12T8:4:53Z</time></trkpt>
<trkpt lat="48.897480010986" lon="2.6461567878723"><ele></ele><time>2025-5-12T8:4:56Z</time></trkpt>
<trkpt lat="48.897480010986" lon="2.6461567878723"><ele></ele><time>2025-5-12T8:4:59Z</time></trkpt>
<trkpt lat="48.897583007812" lon="2.646240234375"><ele></ele><time>2025-5-12T8:5:2Z</time></trkpt>
<trkpt lat="48.89767074585" lon="2.646338224411"><ele></ele><time>2025-5-12T8:5:5Z</time></trkpt>
<trkpt lat="48.897735595703" lon="2.6464068889618"><ele></ele><time>2025-5-12T8:5:8Z</time></trkpt>
<trkpt lat="48.897735595703" lon="2.6464068889618"><ele></ele><time>2025-5-12T8:5:11Z</time></trkpt>
<trkpt lat="48.897792816162" lon="2.6464607715607"><ele></ele><time>2025-5-12T8:5:14Z</time></trkpt>
<trkpt lat="48.897861480713" lon="2.6465201377869"><ele></ele><time>2025-5-12T8:5:17Z</time></trkpt>
<trkpt lat="48.897941589355" lon="2.6465947628021"><ele></ele><time>2025-5-12T8:5:20Z</time></trkpt>
<trkpt lat="48.897941589355" lon="2.6465947628021"><ele></ele><time>2025-5-12T8:5:23Z</time></trkpt>
<trkpt lat="48.898021697998" lon="2.6466698646545"><ele></ele><time>2025-5-12T8:5:26Z</time></trkpt>
<trkpt lat="48.898097991943" lon="2.6467380523682"><ele></ele><time>2025-5-12T8:5:29Z</time></trkpt>
<trkpt lat="48.898181915283" lon="2.6468200683594"><ele></ele><time>2025-5-12T8:5:32Z</time></trkpt>
<trkpt lat="48.898181915283" lon="2.6468200683594"><ele></ele><time>2025-5-12T8:5:35Z</time></trkpt>
<trkpt lat="48.89826965332" lon="2.6469161510468"><ele></ele><time>2025-5-12T8:5:38Z</time></trkpt>
<trkpt lat="48.898334503174" lon="2.6469919681549"><ele></ele><time>2025-5-12T8:5:41Z</time></trkpt>
<trkpt lat="48.898406982422" lon="2.6470699310303"><ele></ele><time>2025-5-12T8:5:44Z</time></trkpt>
<trkpt lat="48.898406982422" lon="2.6470699310303"><ele></ele><time>2025-5-12T8:5:47Z</time></trkpt>
<trkpt lat="48.898471832275" lon="2.6471364498138"><ele></ele><time>2025-5-12T8:5:50Z</time></trkpt>
<trkpt lat="48.898536682129" lon="2.6471984386444"><ele></ele><time>2025-5-12T8:5:53Z</time></trkpt>
<trkpt lat="48.898601531982" lon="2.647274017334"><ele></ele><time>2025-5-12T8:5:56Z</time></trkpt>
<trkpt lat="48.898601531982" lon="2.647274017334"><ele></ele><time>2025-5-12T8:5:59Z</time></trkpt>
<trkpt lat="48.89867401123" lon="2.6473531723022"><ele></ele><time>2025-5-12T8:6:2Z</time></trkpt>
<trkpt lat="48.898738861084" lon="2.6474277973175"><ele></ele><time>2025-5-12T8:6:5Z</time></trkpt>
<trkpt lat="48.898803710938" lon="2.6475052833557"><ele></ele><time>2025-5-12T8:6:8Z</time></trkpt>
<trkpt lat="48.898803710938" lon="2.6475052833557"><ele></ele><time>2025-5-12T8:6:11Z</time></trkpt>
<trkpt lat="48.898876190186" lon="2.6475818157196"><ele></ele><time>2025-5-12T8:6:14Z</time></trkpt>
<trkpt lat="48.898944854736" lon="2.6476547718048"><ele></ele><time>2025-5-12T8:6:17Z</time></trkpt>
<trkpt lat="48.89900970459" lon="2.6477212905884"><ele></ele><time>2025-5-12T8:6:20Z</time></trkpt>
<trkpt lat="48.89900970459" lon="2.6477212905884"><ele></ele><time>2025-5-12T8:6:23Z</time></trkpt>
<trkpt lat="48.899074554443" lon="2.6477935314178"><ele></ele><time>2025-5-12T8:6:26Z</time></trkpt>
<trkpt lat="48.899147033691" lon="2.6478617191315"><ele></ele><time>2025-5-12T8:6:29Z</time></trkpt>
<trkpt lat="48.899211883545" lon="2.6479313373566"><ele></ele><time>2025-5-12T8:6:32Z</time></trkpt>
<trkpt lat="48.899280548096" lon="2.6479835510254"><ele></ele><time>2025-5-12T8:6:35Z</time></trkpt>
<trkpt lat="48.899349212646" lon="2.6480231285095"><ele></ele><time>2025-5-12T8:6:38Z</time></trkpt>
<trkpt lat="48.899429321289" lon="2.6480579376221"><ele></ele><time>2025-5-12T8:6:41Z</time></trkpt>
<trkpt lat="48.899429321289" lon="2.6480579376221"><ele></ele><time>2025-5-12T8:6:44Z</time></trkpt>
<trkpt lat="48.899509429932" lon="2.6480758190155"><ele></ele><time>2025-5-12T8:6:47Z</time></trkpt>
<trkpt lat="48.89958190918" lon="2.6480958461761"><ele></ele><time>2025-5-12T8:6:50Z</time></trkpt>
<trkpt lat="48.899639129639" lon="2.6481072902679"><ele></ele><time>2025-5-12T8:6:53Z</time></trkpt>
<trkpt lat="48.899639129639" lon="2.6481072902679"><ele></ele><time>2025-5-12T8:6:56Z</time></trkpt>
<trkpt lat="48.899700164795" lon="2.6481153964996"><ele></ele><time>2025-5-12T8:6:59Z</time></trkpt>
<trkpt lat="48.899784088135" lon="2.6481292247772"><ele></ele><time>2025-5-12T8:7:2Z</time></trkpt>
<trkpt lat="48.899845123291" lon="2.6481382846832"><ele></ele><time>2025-5-12T8:7:5Z</time></trkpt>
<trkpt lat="48.899845123291" lon="2.6481382846832"><ele></ele><time>2025-5-12T8:7:8Z</time></trkpt>
<trkpt lat="48.899906158447" lon="2.6481459140778"><ele></ele><time>2025-5-12T8:7:11Z</time></trkpt>
<trkpt lat="48.899971008301" lon="2.6481499671936"><ele></ele><time>2025-5-12T8:7:14Z</time></trkpt>
<trkpt lat="48.900047302246" lon="2.6481654644012"><ele></ele><time>2025-5-12T8:7:17Z</time></trkpt>
<trkpt lat="48.900047302246" lon="2.6481654644012"><ele></ele><time>2025-5-12T8:7:20Z</time></trkpt>
<trkpt lat="48.9001121521" lon="2.6481833457947"><ele></ele><time>2025-5-12T8:7:23Z</time></trkpt>
<trkpt lat="48.900177001953" lon="2.6481966972351"><ele></ele><time>2025-5-12T8:7:26Z</time></trkpt>
<trkpt lat="48.900245666504" lon="2.648205280304"><ele></ele><time>2025-5-12T8:7:29Z</time></trkpt>
<trkpt lat="48.900245666504" lon="2.648205280304"><ele></ele><time>2025-5-12T8:7:32Z</time></trkpt>
<trkpt lat="48.90030670166" lon="2.6482155323029"><ele></ele><time>2025-5-12T8:7:35Z</time></trkpt>
<trkpt lat="48.900398254395" lon="2.6482355594635"><ele></ele><time>2025-5-12T8:7:38Z</time></trkpt>
<trkpt lat="48.900482177734" lon="2.6482391357422"><ele></ele><time>2025-5-12T8:7:41Z</time></trkpt>
<trkpt lat="48.900482177734" lon="2.6482391357422"><ele></ele><time>2025-5-12T8:7:44Z</time></trkpt>
<trkpt lat="48.90055847168" lon="2.6482484340668"><ele></ele><time>2025-5-12T8:7:47Z</time></trkpt>
<trkpt lat="48.900634765625" lon="2.6482555866241"><ele></ele><time>2025-5-12T8:7:50Z</time></trkpt>
<trkpt lat="48.900695800781" lon="2.6482779979706"><ele></ele><time>2025-5-12T8:7:53Z</time></trkpt>
<trkpt lat="48.900695800781" lon="2.6482779979706"><ele></ele><time>2025-5-12T8:7:56Z</time></trkpt>
<trkpt lat="48.900772094727" lon="2.6483018398285"><ele></ele><time>2025-5-12T8:7:59Z</time></trkpt>
<trkpt lat="48.900882720947" lon="2.6483721733093"><ele></ele><time>2025-5-12T8:8:2Z</time></trkpt>
<trkpt lat="48.900970458984" lon="2.6484289169312"><ele></ele><time>2025-5-12T8:8:5Z</time></trkpt>
<trkpt lat="48.900970458984" lon="2.6484289169312"><ele></ele><time>2025-5-12T8:8:8Z</time></trkpt>
<trkpt lat="48.901058197021" lon="2.6484785079956"><ele></ele><time>2025-5-12T8:8:11Z</time></trkpt>
<trkpt lat="48.90113067627" lon="2.6485278606415"><ele></ele><time>2025-5-12T8:8:14Z</time></trkpt>
<trkpt lat="48.901206970215" lon="2.6485800743103"><ele></ele><time>2025-5-12T8:8:17Z</time></trkpt>
<trkpt lat="48.901206970215" lon="2.6485800743103"><ele></ele><time>2025-5-12T8:8:20Z</time></trkpt>
<trkpt lat="48.901268005371" lon="2.6486279964447"><ele></ele><time>2025-5-12T8:8:23Z</time></trkpt>
<trkpt lat="48.901329040527" lon="2.6486806869507"><ele></ele><time>2025-5-12T8:8:26Z</time></trkpt>
<trkpt lat="48.901401519775" lon="2.6487429141998"><ele></ele><time>2025-5-12T8:8:29Z</time></trkpt>
<trkpt lat="48.901401519775" lon="2.6487429141998"><ele></ele><time>2025-5-12T8:8:32Z</time></trkpt>
<trkpt lat="48.90145111084" lon="2.6488080024719"><ele></ele><time>2025-5-12T8:8:35Z</time></trkpt>
<trkpt lat="48.90145111084" lon="2.6488080024719"><ele></ele><time>2025-5-12T8:8:38Z</time></trkpt>
<trkpt lat="48.90145111084" lon="2.6488080024719"><ele></ele><time>2025-5-12T8:8:41Z</time></trkpt>
<trkpt lat="48.90145111084" lon="2.6488080024719"><ele></ele><time>2025-5-12T8:8:44Z</time></trkpt>
<trkpt lat="48.90145111084" lon="2.6488080024719"><ele></ele><time>2025-5-12T8:8:47Z</time></trkpt>
<trkpt lat="48.90145111084" lon="2.6488080024719"><ele></ele><time>2025-5-12T8:8:50Z</time></trkpt>
<trkpt lat="48.901508331299" lon="2.6488316059113"><ele></ele><time>2025-5-12T8:8:53Z</time></trkpt>
<trkpt lat="48.901508331299" lon="2.6488316059113"><ele></ele><time>2025-5-12T8:8:56Z</time></trkpt>
<trkpt lat="48.901626586914" lon="2.6489245891571"><ele></ele><time>2025-5-12T8:8:59Z</time></trkpt>
<trkpt lat="48.901699066162" lon="2.6489803791046"><ele></ele><time>2025-5-12T8:9:2Z</time></trkpt>
<trkpt lat="48.901699066162" lon="2.6489803791046"><ele></ele><time>2025-5-12T8:9:5Z</time></trkpt>
<trkpt lat="48.901760101318" lon="2.6490252017975"><ele></ele><time>2025-5-12T8:9:8Z</time></trkpt>
<trkpt lat="48.901809692383" lon="2.6490800380707"><ele></ele><time>2025-5-12T8:9:11Z</time></trkpt>
<trkpt lat="48.901809692383" lon="2.6490800380707"><ele></ele><time>2025-5-12T8:9:14Z</time></trkpt>
<trkpt lat="48.901847839355" lon="2.6491482257843"><ele></ele><time>2025-5-12T8:9:17Z</time></trkpt>
<trkpt lat="48.901847839355" lon="2.6491482257843"><ele></ele><time>2025-5-12T8:9:20Z</time></trkpt>
<trkpt lat="48.901943206787" lon="2.6492638587952"><ele></ele><time>2025-5-12T8:9:23Z</time></trkpt>
<trkpt lat="48.901996612549" lon="2.6493358612061"><ele></ele><time>2025-5-12T8:9:26Z</time></trkpt>
<trkpt lat="48.902046203613" lon="2.6494007110596"><ele></ele><time>2025-5-12T8:9:29Z</time></trkpt>
<trkpt lat="48.902099609375" lon="2.6494538784027"><ele></ele><time>2025-5-12T8:9:32Z</time></trkpt>
<trkpt lat="48.902099609375" lon="2.6494538784027"><ele></ele><time>2025-5-12T8:9:35Z</time></trkpt>
<trkpt lat="48.902156829834" lon="2.6495170593262"><ele></ele><time>2025-5-12T8:9:38Z</time></trkpt>
<trkpt lat="48.902210235596" lon="2.6495747566223"><ele></ele><time>2025-5-12T8:9:41Z</time></trkpt>
<trkpt lat="48.902210235596" lon="2.6495747566223"><ele></ele><time>2025-5-12T8:9:44Z</time></trkpt>
<trkpt lat="48.902313232422" lon="2.6496851444244"><ele></ele><time>2025-5-12T8:9:47Z</time></trkpt>
<trkpt lat="48.902374267578" lon="2.6497404575348"><ele></ele><time>2025-5-12T8:9:50Z</time></trkpt>
<trkpt lat="48.902450561523" lon="2.6498157978058"><ele></ele><time>2025-5-12T8:9:53Z</time></trkpt>
<trkpt lat="48.902515411377" lon="2.6498923301697"><ele></ele><time>2025-5-12T8:9:56Z</time></trkpt>
<trkpt lat="48.902576446533" lon="2.6499752998352"><ele></ele><time>2025-5-12T8:9:59Z</time></trkpt>
<trkpt lat="48.902641296387" lon="2.6500649452209"><ele></ele><time>2025-5-12T8:10:2Z</time></trkpt>
<trkpt lat="48.90270614624" lon="2.6501526832581"><ele></ele><time>2025-5-12T8:10:5Z</time></trkpt>
<trkpt lat="48.902767181396" lon="2.6502468585968"><ele></ele><time>2025-5-12T8:10:8Z</time></trkpt>
<trkpt lat="48.902767181396" lon="2.6502468585968"><ele></ele><time>2025-5-12T8:10:11Z</time></trkpt>
<trkpt lat="48.902828216553" lon="2.6503412723541"><ele></ele><time>2025-5-12T8:10:14Z</time></trkpt>
<trkpt lat="48.902893066406" lon="2.6504578590393"><ele></ele><time>2025-5-12T8:10:17Z</time></trkpt>
<trkpt lat="48.902961730957" lon="2.6505761146545"><ele></ele><time>2025-5-12T8:10:20Z</time></trkpt>
<trkpt lat="48.903026580811" lon="2.6507022380829"><ele></ele><time>2025-5-12T8:10:23Z</time></trkpt>
<trkpt lat="48.903114318848" lon="2.6508896350861"><ele></ele><time>2025-5-12T8:10:26Z</time></trkpt>
<trkpt lat="48.903182983398" lon="2.6510574817657"><ele></ele><time>2025-5-12T8:10:29Z</time></trkpt>
<trkpt lat="48.903247833252" lon="2.651223897934"><ele></ele><time>2025-5-12T8:10:32Z</time></trkpt>
<trkpt lat="48.903339385986" lon="2.651383638382"><ele></ele><time>2025-5-12T8:10:35Z</time></trkpt>
<trkpt lat="48.903430938721" lon="2.6515572071075"><ele></ele><time>2025-5-12T8:10:38Z</time></trkpt>
<trkpt lat="48.903518676758" lon="2.6517219543457"><ele></ele><time>2025-5-12T8:10:41Z</time></trkpt>
<trkpt lat="48.903614044189" lon="2.6518771648407"><ele></ele><time>2025-5-12T8:10:44Z</time></trkpt>
<trkpt lat="48.90372467041" lon="2.6520204544067"><ele></ele><time>2025-5-12T8:10:47Z</time></trkpt>
<trkpt lat="48.903846740723" lon="2.6521508693695"><ele></ele><time>2025-5-12T8:10:50Z</time></trkpt>
<trkpt lat="48.903980255127" lon="2.6522696018219"><ele></ele><time>2025-5-12T8:10:53Z</time></trkpt>
<trkpt lat="48.904113769531" lon="2.6523809432983"><ele></ele><time>2025-5-12T8:10:56Z</time></trkpt>
<trkpt lat="48.904251098633" lon="2.6524901390076"><ele></ele><time>2025-5-12T8:10:59Z</time></trkpt>
<trkpt lat="48.904373168945" lon="2.6525857448578"><ele></ele><time>2025-5-12T8:11:2Z</time></trkpt>
<trkpt lat="48.904479980469" lon="2.6526780128479"><ele></ele><time>2025-5-12T8:11:5Z</time></trkpt>
<trkpt lat="48.9045753479" lon="2.6527659893036"><ele></ele><time>2025-5-12T8:11:8Z</time></trkpt>
<trkpt lat="48.90465927124" lon="2.6528341770172"><ele></ele><time>2025-5-12T8:11:11Z</time></trkpt>
<trkpt lat="48.90465927124" lon="2.6528341770172"><ele></ele><time>2025-5-12T8:11:14Z</time></trkpt>
<trkpt lat="48.904766082764" lon="2.6529135704041"><ele></ele><time>2025-5-12T8:11:17Z</time></trkpt>
<trkpt lat="48.904865264893" lon="2.6529850959778"><ele></ele><time>2025-5-12T8:11:20Z</time></trkpt>
<trkpt lat="48.904964447021" lon="2.653062582016"><ele></ele><time>2025-5-12T8:11:23Z</time></trkpt>
<trkpt lat="48.90503692627" lon="2.6531238555908"><ele></ele><time>2025-5-12T8:11:26Z</time></trkpt>
<trkpt lat="48.905097961426" lon="2.6531798839569"><ele></ele><time>2025-5-12T8:11:29Z</time></trkpt>
<trkpt lat="48.905162811279" lon="2.6532473564148"><ele></ele><time>2025-5-12T8:11:32Z</time></trkpt>
<trkpt lat="48.90523147583" lon="2.6533186435699"><ele></ele><time>2025-5-12T8:11:35Z</time></trkpt>
<trkpt lat="48.905300140381" lon="2.6533885002136"><ele></ele><time>2025-5-12T8:11:38Z</time></trkpt>
<trkpt lat="48.905364990234" lon="2.6534633636475"><ele></ele><time>2025-5-12T8:11:41Z</time></trkpt>
<trkpt lat="48.905437469482" lon="2.653538942337"><ele></ele><time>2025-5-12T8:11:44Z</time></trkpt>
<trkpt lat="48.905498504639" lon="2.6536040306091"><ele></ele><time>2025-5-12T8:11:47Z</time></trkpt>
<trkpt lat="48.905559539795" lon="2.6536684036255"><ele></ele><time>2025-5-12T8:11:50Z</time></trkpt>
<trkpt lat="48.905628204346" lon="2.6537356376648"><ele></ele><time>2025-5-12T8:11:53Z</time></trkpt>
<trkpt lat="48.905685424805" lon="2.6537983417511"><ele></ele><time>2025-5-12T8:11:56Z</time></trkpt>
<trkpt lat="48.905738830566" lon="2.653858423233"><ele></ele><time>2025-5-12T8:11:59Z</time></trkpt>
<trkpt lat="48.905807495117" lon="2.6539261341095"><ele></ele><time>2025-5-12T8:12:2Z</time></trkpt>
<trkpt lat="48.905876159668" lon="2.6539905071259"><ele></ele><time>2025-5-12T8:12:5Z</time></trkpt>
<trkpt lat="48.905941009521" lon="2.6540560722351"><ele></ele><time>2025-5-12T8:12:8Z</time></trkpt>
<trkpt lat="48.905994415283" lon="2.6541135311127"><ele></ele><time>2025-5-12T8:12:11Z</time></trkpt>
<trkpt lat="48.906055450439" lon="2.6541771888733"><ele></ele><time>2025-5-12T8:12:14Z</time></trkpt>
<trkpt lat="48.906112670898" lon="2.654239654541"><ele></ele><time>2025-5-12T8:12:17Z</time></trkpt>
<trkpt lat="48.906185150146" lon="2.6543157100677"><ele></ele><time>2025-5-12T8:12:20Z</time></trkpt>
<trkpt lat="48.90625" lon="2.6543881893158"><ele></ele><time>2025-5-12T8:12:23Z</time></trkpt>
<trkpt lat="48.906314849854" lon="2.6544549465179"><ele></ele><time>2025-5-12T8:12:26Z</time></trkpt>
<trkpt lat="48.906379699707" lon="2.6545195579529"><ele></ele><time>2025-5-12T8:12:29Z</time></trkpt>
<trkpt lat="48.906379699707" lon="2.6545195579529"><ele></ele><time>2025-5-12T8:12:32Z</time></trkpt>
<trkpt lat="48.906463623047" lon="2.6546225547791"><ele></ele><time>2025-5-12T8:12:35Z</time></trkpt>
<trkpt lat="48.906524658203" lon="2.654684305191"><ele></ele><time>2025-5-12T8:12:38Z</time></trkpt>
<trkpt lat="48.906600952148" lon="2.6547555923462"><ele></ele><time>2025-5-12T8:12:41Z</time></trkpt>
<trkpt lat="48.906665802002" lon="2.6548159122467"><ele></ele><time>2025-5-12T8:12:44Z</time></trkpt>
<trkpt lat="48.906730651855" lon="2.6548697948456"><ele></ele><time>2025-5-12T8:12:47Z</time></trkpt>
<trkpt lat="48.906791687012" lon="2.6549198627472"><ele></ele><time>2025-5-12T8:12:50Z</time></trkpt>
<trkpt lat="48.906871795654" lon="2.6549768447876"><ele></ele><time>2025-5-12T8:12:53Z</time></trkpt>
<trkpt lat="48.906940460205" lon="2.6550118923187"><ele></ele><time>2025-5-12T8:12:56Z</time></trkpt>
<trkpt lat="48.907001495361" lon="2.6550483703613"><ele></ele><time>2025-5-12T8:12:59Z</time></trkpt>
<trkpt lat="48.907066345215" lon="2.6551003456116"><ele></ele><time>2025-5-12T8:13:2Z</time></trkpt>
<trkpt lat="48.90714263916" lon="2.6551606655121"><ele></ele><time>2025-5-12T8:13:5Z</time></trkpt>
<trkpt lat="48.907218933105" lon="2.6552164554596"><ele></ele><time>2025-5-12T8:13:8Z</time></trkpt>
<trkpt lat="48.907287597656" lon="2.6552622318268"><ele></ele><time>2025-5-12T8:13:11Z</time></trkpt>
<trkpt lat="48.907344818115" lon="2.6553018093109"><ele></ele><time>2025-5-12T8:13:14Z</time></trkpt>
<trkpt lat="48.907424926758" lon="2.655341386795"><ele></ele><time>2025-5-12T8:13:17Z</time></trkpt>
<trkpt lat="48.907485961914" lon="2.6553738117218"><ele></ele><time>2025-5-12T8:13:20Z</time></trkpt>
<trkpt lat="48.90754699707" lon="2.6554124355316"><ele></ele><time>2025-5-12T8:13:23Z</time></trkpt>
<trkpt lat="48.90754699707" lon="2.6554124355316"><ele></ele><time>2025-5-12T8:13:26Z</time></trkpt>
<trkpt lat="48.907649993896" lon="2.6554594039917"><ele></ele><time>2025-5-12T8:13:29Z</time></trkpt>
<trkpt lat="48.907649993896" lon="2.6554594039917"><ele></ele><time>2025-5-12T8:13:32Z</time></trkpt>
<trkpt lat="48.907737731934" lon="2.6555013656616"><ele></ele><time>2025-5-12T8:13:35Z</time></trkpt>
<trkpt lat="48.907737731934" lon="2.6555013656616"><ele></ele><time>2025-5-12T8:13:38Z</time></trkpt>
<trkpt lat="48.907821655273" lon="2.6555593013763"><ele></ele><time>2025-5-12T8:13:41Z</time></trkpt>
<trkpt lat="48.907821655273" lon="2.6555593013763"><ele></ele><time>2025-5-12T8:13:44Z</time></trkpt>
<trkpt lat="48.90788269043" lon="2.6555790901184"><ele></ele><time>2025-5-12T8:13:47Z</time></trkpt>
<trkpt lat="48.90788269043" lon="2.6555790901184"><ele></ele><time>2025-5-12T8:13:50Z</time></trkpt>
<trkpt lat="48.907978057861" lon="2.6556191444397"><ele></ele><time>2025-5-12T8:13:53Z</time></trkpt>
<trkpt lat="48.908050537109" lon="2.6556506156921"><ele></ele><time>2025-5-12T8:13:56Z</time></trkpt>
<trkpt lat="48.908130645752" lon="2.6556870937347"><ele></ele><time>2025-5-12T8:13:59Z</time></trkpt>
<trkpt lat="48.908218383789" lon="2.6557281017303"><ele></ele><time>2025-5-12T8:14:2Z</time></trkpt>
<trkpt lat="48.908290863037" lon="2.6557674407959"><ele></ele><time>2025-5-12T8:14:5Z</time></trkpt>
<trkpt lat="48.908374786377" lon="2.6558074951172"><ele></ele><time>2025-5-12T8:14:8Z</time></trkpt>
<trkpt lat="48.908466339111" lon="2.6558451652527"><ele></ele><time>2025-5-12T8:14:11Z</time></trkpt>
<trkpt lat="48.908546447754" lon="2.655882358551"><ele></ele><time>2025-5-12T8:14:14Z</time></trkpt>
<trkpt lat="48.908603668213" lon="2.655912399292"><ele></ele><time>2025-5-12T8:14:17Z</time></trkpt>
<trkpt lat="48.908676147461" lon="2.6559479236603"><ele></ele><time>2025-5-12T8:14:20Z</time></trkpt>
<trkpt lat="48.908744812012" lon="2.6559820175171"><ele></ele><time>2025-5-12T8:14:23Z</time></trkpt>
<trkpt lat="48.908813476562" lon="2.656019449234"><ele></ele><time>2025-5-12T8:14:26Z</time></trkpt>
<trkpt lat="48.908885955811" lon="2.6560528278351"><ele></ele><time>2025-5-12T8:14:29Z</time></trkpt>
<trkpt lat="48.908966064453" lon="2.6560955047607"><ele></ele><time>2025-5-12T8:14:32Z</time></trkpt>
<trkpt lat="48.909030914307" lon="2.6561291217804"><ele></ele><time>2025-5-12T8:14:35Z</time></trkpt>
<trkpt lat="48.90909576416" lon="2.6561617851257"><ele></ele><time>2025-5-12T8:14:38Z</time></trkpt>
<trkpt lat="48.909152984619" lon="2.6561894416809"><ele></ele><time>2025-5-12T8:14:41Z</time></trkpt>
<trkpt lat="48.909214019775" lon="2.6562194824219"><ele></ele><time>2025-5-12T8:14:44Z</time></trkpt>
<trkpt lat="48.909271240234" lon="2.6562519073486"><ele></ele><time>2025-5-12T8:14:47Z</time></trkpt>
<trkpt lat="48.909328460693" lon="2.6562874317169"><ele></ele><time>2025-5-12T8:14:50Z</time></trkpt>
<trkpt lat="48.909328460693" lon="2.6562874317169"><ele></ele><time>2025-5-12T8:14:53Z</time></trkpt>
<trkpt lat="48.90938949585" lon="2.656322479248"><ele></ele><time>2025-5-12T8:14:56Z</time></trkpt>
<trkpt lat="48.9094581604" lon="2.6563582420349"><ele></ele><time>2025-5-12T8:14:59Z</time></trkpt>
<trkpt lat="48.909519195557" lon="2.6563980579376"><ele></ele><time>2025-5-12T8:15:2Z</time></trkpt>
<trkpt lat="48.909519195557" lon="2.6563980579376"><ele></ele><time>2025-5-12T8:15:5Z</time></trkpt>
<trkpt lat="48.909572601318" lon="2.6564416885376"><ele></ele><time>2025-5-12T8:15:8Z</time></trkpt>
<trkpt lat="48.909572601318" lon="2.6564416885376"><ele></ele><time>2025-5-12T8:15:11Z</time></trkpt>
<trkpt lat="48.909675598145" lon="2.6565294265747"><ele></ele><time>2025-5-12T8:15:14Z</time></trkpt>
<trkpt lat="48.909675598145" lon="2.6565294265747"><ele></ele><time>2025-5-12T8:15:17Z</time></trkpt>
<trkpt lat="48.909732818604" lon="2.6565804481506"><ele></ele><time>2025-5-12T8:15:20Z</time></trkpt>
<trkpt lat="48.909778594971" lon="2.6566305160522"><ele></ele><time>2025-5-12T8:15:23Z</time></trkpt>
<trkpt lat="48.909832000732" lon="2.6566817760468"><ele></ele><time>2025-5-12T8:15:26Z</time></trkpt>
<trkpt lat="48.909832000732" lon="2.6566817760468"><ele></ele><time>2025-5-12T8:15:29Z</time></trkpt>
<trkpt lat="48.909889221191" lon="2.6567401885986"><ele></ele><time>2025-5-12T8:15:32Z</time></trkpt>
<trkpt lat="48.909976959229" lon="2.6568338871002"><ele></ele><time>2025-5-12T8:15:35Z</time></trkpt>
<trkpt lat="48.909976959229" lon="2.6568338871002"><ele></ele><time>2025-5-12T8:15:38Z</time></trkpt>
<trkpt lat="48.91003036499" lon="2.6568865776062"><ele></ele><time>2025-5-12T8:15:41Z</time></trkpt>
<trkpt lat="48.910091400146" lon="2.6569402217865"><ele></ele><time>2025-5-12T8:15:44Z</time></trkpt>
<trkpt lat="48.91015625" lon="2.6569983959198"><ele></ele><time>2025-5-12T8:15:47Z</time></trkpt>
<trkpt lat="48.91015625" lon="2.6569983959198"><ele></ele><time>2025-5-12T8:15:50Z</time></trkpt>
<trkpt lat="48.910217285156" lon="2.6570544242859"><ele></ele><time>2025-5-12T8:15:53Z</time></trkpt>
<trkpt lat="48.910316467285" lon="2.6571564674377"><ele></ele><time>2025-5-12T8:15:56Z</time></trkpt>
<trkpt lat="48.910316467285" lon="2.6571564674377"><ele></ele><time>2025-5-12T8:15:59Z</time></trkpt>
<trkpt lat="48.910377502441" lon="2.6572194099426"><ele></ele><time>2025-5-12T8:16:2Z</time></trkpt>
<trkpt lat="48.910442352295" lon="2.6572835445404"><ele></ele><time>2025-5-12T8:16:5Z</time></trkpt>
<trkpt lat="48.910511016846" lon="2.6573450565338"><ele></ele><time>2025-5-12T8:16:8Z</time></trkpt>
<trkpt lat="48.910511016846" lon="2.6573450565338"><ele></ele><time>2025-5-12T8:16:11Z</time></trkpt>
<trkpt lat="48.910579681396" lon="2.657408952713"><ele></ele><time>2025-5-12T8:16:14Z</time></trkpt>
<trkpt lat="48.910648345947" lon="2.657478094101"><ele></ele><time>2025-5-12T8:16:17Z</time></trkpt>
<trkpt lat="48.910709381104" lon="2.6575453281403"><ele></ele><time>2025-5-12T8:16:20Z</time></trkpt>
<trkpt lat="48.910709381104" lon="2.6575453281403"><ele></ele><time>2025-5-12T8:16:23Z</time></trkpt>
<trkpt lat="48.91077041626" lon="2.6576130390167"><ele></ele><time>2025-5-12T8:16:26Z</time></trkpt>
<trkpt lat="48.910842895508" lon="2.6576766967773"><ele></ele><time>2025-5-12T8:16:29Z</time></trkpt>
<trkpt lat="48.910903930664" lon="2.657731294632"><ele></ele><time>2025-5-12T8:16:32Z</time></trkpt>
<trkpt lat="48.910903930664" lon="2.657731294632"><ele></ele><time>2025-5-12T8:16:35Z</time></trkpt>
<trkpt lat="48.91096496582" lon="2.6577885150909"><ele></ele><time>2025-5-12T8:16:38Z</time></trkpt>
<trkpt lat="48.911033630371" lon="2.6578552722931"><ele></ele><time>2025-5-12T8:16:41Z</time></trkpt>
<trkpt lat="48.911098480225" lon="2.6579084396362"><ele></ele><time>2025-5-12T8:16:44Z</time></trkpt>
<trkpt lat="48.911098480225" lon="2.6579084396362"><ele></ele><time>2025-5-12T8:16:47Z</time></trkpt>
<trkpt lat="48.911159515381" lon="2.6579465866089"><ele></ele><time>2025-5-12T8:16:50Z</time></trkpt>
<trkpt lat="48.911231994629" lon="2.6579780578613"><ele></ele><time>2025-5-12T8:16:53Z</time></trkpt>
<trkpt lat="48.911304473877" lon="2.657995223999"><ele></ele><time>2025-5-12T8:16:56Z</time></trkpt>
<trkpt lat="48.91138458252" lon="2.6580038070679"><ele></ele><time>2025-5-12T8:16:59Z</time></trkpt>
<trkpt lat="48.911457061768" lon="2.6580102443695"><ele></ele><time>2025-5-12T8:17:2Z</time></trkpt>
<trkpt lat="48.911533355713" lon="2.6580023765564"><ele></ele><time>2025-5-12T8:17:5Z</time></trkpt>
<trkpt lat="48.911533355713" lon="2.6580023765564"><ele></ele><time>2025-5-12T8:17:8Z</time></trkpt>
<trkpt lat="48.911605834961" lon="2.6579914093018"><ele></ele><time>2025-5-12T8:17:11Z</time></trkpt>
<trkpt lat="48.911678314209" lon="2.6579878330231"><ele></ele><time>2025-5-12T8:17:14Z</time></trkpt>
<trkpt lat="48.911762237549" lon="2.6579775810242"><ele></ele><time>2025-5-12T8:17:17Z</time></trkpt>
<trkpt lat="48.911762237549" lon="2.6579775810242"><ele></ele><time>2025-5-12T8:17:20Z</time></trkpt>
<trkpt lat="48.9118309021" lon="2.6579701900482"><ele></ele><time>2025-5-12T8:17:23Z</time></trkpt>
<trkpt lat="48.911895751953" lon="2.6579673290253"><ele></ele><time>2025-5-12T8:17:26Z</time></trkpt>
<trkpt lat="48.911968231201" lon="2.6579720973969"><ele></ele><time>2025-5-12T8:17:29Z</time></trkpt>
<trkpt lat="48.911968231201" lon="2.6579720973969"><ele></ele><time>2025-5-12T8:17:32Z</time></trkpt>
<trkpt lat="48.912044525146" lon="2.6579813957214"><ele></ele><time>2025-5-12T8:17:35Z</time></trkpt>
<trkpt lat="48.912113189697" lon="2.6580073833466"><ele></ele><time>2025-5-12T8:17:38Z</time></trkpt>
<trkpt lat="48.912181854248" lon="2.6580307483673"><ele></ele><time>2025-5-12T8:17:41Z</time></trkpt>
<trkpt lat="48.912181854248" lon="2.6580307483673"><ele></ele><time>2025-5-12T8:17:44Z</time></trkpt>
<trkpt lat="48.912246704102" lon="2.6580476760864"><ele></ele><time>2025-5-12T8:17:47Z</time></trkpt>
<trkpt lat="48.912315368652" lon="2.6580712795258"><ele></ele><time>2025-5-12T8:17:50Z</time></trkpt>
<trkpt lat="48.912391662598" lon="2.658100605011"><ele></ele><time>2025-5-12T8:17:53Z</time></trkpt>
<trkpt lat="48.912391662598" lon="2.658100605011"><ele></ele><time>2025-5-12T8:17:56Z</time></trkpt>
<trkpt lat="48.912460327148" lon="2.6581284999847"><ele></ele><time>2025-5-12T8:17:59Z</time></trkpt>
<trkpt lat="48.912460327148" lon="2.6581284999847"><ele></ele><time>2025-5-12T8:18:2Z</time></trkpt>
<trkpt lat="48.912559509277" lon="2.6581635475159"><ele></ele><time>2025-5-12T8:18:5Z</time></trkpt>
<trkpt lat="48.912559509277" lon="2.6581635475159"><ele></ele><time>2025-5-12T8:18:8Z</time></trkpt>
<trkpt lat="48.912616729736" lon="2.6581823825836"><ele></ele><time>2025-5-12T8:18:11Z</time></trkpt>
<trkpt lat="48.912673950195" lon="2.6582009792328"><ele></ele><time>2025-5-12T8:18:14Z</time></trkpt>
<trkpt lat="48.912731170654" lon="2.658216714859"><ele></ele><time>2025-5-12T8:18:17Z</time></trkpt>
<trkpt lat="48.912731170654" lon="2.658216714859"><ele></ele><time>2025-5-12T8:18:20Z</time></trkpt>
<trkpt lat="48.912788391113" lon="2.6582360267639"><ele></ele><time>2025-5-12T8:18:23Z</time></trkpt>
<trkpt lat="48.912845611572" lon="2.6582579612732"><ele></ele><time>2025-5-12T8:18:26Z</time></trkpt>
<trkpt lat="48.91291809082" lon="2.6582841873169"><ele></ele><time>2025-5-12T8:18:29Z</time></trkpt>
<trkpt lat="48.91291809082" lon="2.6582841873169"><ele></ele><time>2025-5-12T8:18:32Z</time></trkpt>
<trkpt lat="48.912979125977" lon="2.6583082675934"><ele></ele><time>2025-5-12T8:18:35Z</time></trkpt>
<trkpt lat="48.912979125977" lon="2.6583082675934"><ele></ele><time>2025-5-12T8:18:38Z</time></trkpt>
<trkpt lat="48.913089752197" lon="2.6583528518677"><ele></ele><time>2025-5-12T8:18:41Z</time></trkpt>
<trkpt lat="48.913089752197" lon="2.6583528518677"><ele></ele><time>2025-5-12T8:18:44Z</time></trkpt>
<trkpt lat="48.913150787354" lon="2.6583790779114"><ele></ele><time>2025-5-12T8:18:47Z</time></trkpt>
<trkpt lat="48.913208007812" lon="2.658397436142"><ele></ele><time>2025-5-12T8:18:50Z</time></trkpt>
<trkpt lat="48.913208007812" lon="2.658397436142"><ele></ele><time>2025-5-12T8:18:53Z</time></trkpt>
<trkpt lat="48.913208007812" lon="2.658397436142"><ele></ele><time>2025-5-12T8:18:56Z</time></trkpt>
<trkpt lat="48.913311004639" lon="2.6584255695343"><ele></ele><time>2025-5-12T8:18:59Z</time></trkpt>
<trkpt lat="48.913311004639" lon="2.6584255695343"><ele></ele><time>2025-5-12T8:19:2Z</time></trkpt>
<trkpt lat="48.913394927979" lon="2.6584439277649"><ele></ele><time>2025-5-12T8:19:5Z</time></trkpt>
<trkpt lat="48.913394927979" lon="2.6584439277649"><ele></ele><time>2025-5-12T8:19:8Z</time></trkpt>
<trkpt lat="48.913394927979" lon="2.6584439277649"><ele></ele><time>2025-5-12T8:19:11Z</time></trkpt>
<trkpt lat="48.913482666016" lon="2.6584711074829"><ele></ele><time>2025-5-12T8:19:14Z</time></trkpt>
<trkpt lat="48.913482666016" lon="2.6584711074829"><ele></ele><time>2025-5-12T8:19:17Z</time></trkpt>
<trkpt lat="48.913482666016" lon="2.6584711074829"><ele></ele><time>2025-5-12T8:19:20Z</time></trkpt>
<trkpt lat="48.91353225708" lon="2.6584801673889"><ele></ele><time>2025-5-12T8:19:23Z</time></trkpt>
<trkpt lat="48.91357421875" lon="2.6584920883179"><ele></ele><time>2025-5-12T8:19:26Z</time></trkpt>
<trkpt lat="48.913623809814" lon="2.6585104465485"><ele></ele><time>2025-5-12T8:19:29Z</time></trkpt>
<trkpt lat="48.913623809814" lon="2.6585104465485"><ele></ele><time>2025-5-12T8:19:32Z</time></trkpt>
<trkpt lat="48.913677215576" lon="2.658539056778"><ele></ele><time>2025-5-12T8:19:35Z</time></trkpt>
<trkpt lat="48.913734436035" lon="2.6585793495178"><ele></ele><time>2025-5-12T8:19:38Z</time></trkpt>
<trkpt lat="48.91382598877" lon="2.6587224006653"><ele></ele><time>2025-5-12T8:19:41Z</time></trkpt>
<trkpt lat="48.91382598877" lon="2.6587224006653"><ele></ele><time>2025-5-12T8:19:44Z</time></trkpt>
<trkpt lat="48.913841247559" lon="2.6588571071625"><ele></ele><time>2025-5-12T8:19:47Z</time></trkpt>
<trkpt lat="48.913833618164" lon="2.6590139865875"><ele></ele><time>2025-5-12T8:19:50Z</time></trkpt>
<trkpt lat="48.913822174072" lon="2.6591627597809"><ele></ele><time>2025-5-12T8:19:53Z</time></trkpt>
<trkpt lat="48.913822174072" lon="2.6591627597809"><ele></ele><time>2025-5-12T8:19:56Z</time></trkpt>
<trkpt lat="48.91381072998" lon="2.65931391716"><ele></ele><time>2025-5-12T8:19:59Z</time></trkpt>
<trkpt lat="48.913799285889" lon="2.6594722270966"><ele></ele><time>2025-5-12T8:20:2Z</time></trkpt>
<trkpt lat="48.913787841797" lon="2.6596264839172"><ele></ele><time>2025-5-12T8:20:5Z</time></trkpt>
<trkpt lat="48.913787841797" lon="2.6596264839172"><ele></ele><time>2025-5-12T8:20:8Z</time></trkpt>
<trkpt lat="48.913764953613" lon="2.659779548645"><ele></ele><time>2025-5-12T8:20:11Z</time></trkpt>
<trkpt lat="48.913745880127" lon="2.6599447727203"><ele></ele><time>2025-5-12T8:20:14Z</time></trkpt>
<trkpt lat="48.913715362549" lon="2.6601049900055"><ele></ele><time>2025-5-12T8:20:17Z</time></trkpt>
<trkpt lat="48.913715362549" lon="2.6601049900055"><ele></ele><time>2025-5-12T8:20:20Z</time></trkpt>
<trkpt lat="48.913681030273" lon="2.6602499485016"><ele></ele><time>2025-5-12T8:20:23Z</time></trkpt>
<trkpt lat="48.913642883301" lon="2.6603837013245"><ele></ele><time>2025-5-12T8:20:26Z</time></trkpt>
<trkpt lat="48.913619995117" lon="2.6605048179626"><ele></ele><time>2025-5-12T8:20:29Z</time></trkpt>
<trkpt lat="48.913619995117" lon="2.6605048179626"><ele></ele><time>2025-5-12T8:20:32Z</time></trkpt>
<trkpt lat="48.91361618042" lon="2.660605430603"><ele></ele><time>2025-5-12T8:20:35Z</time></trkpt>
<trkpt lat="48.91361618042" lon="2.6606979370117"><ele></ele><time>2025-5-12T8:20:38Z</time></trkpt>
<trkpt lat="48.913631439209" lon="2.6607961654663"><ele></ele><time>2025-5-12T8:20:41Z</time></trkpt>
<trkpt lat="48.913631439209" lon="2.6607961654663"><ele></ele><time>2025-5-12T8:20:44Z</time></trkpt>
<trkpt lat="48.913646697998" lon="2.6608810424805"><ele></ele><time>2025-5-12T8:20:47Z</time></trkpt>
<trkpt lat="48.913646697998" lon="2.6608810424805"><ele></ele><time>2025-5-12T8:20:50Z</time></trkpt>
<trkpt lat="48.913642883301" lon="2.6610476970673"><ele></ele><time>2025-5-12T8:20:53Z</time></trkpt>
<trkpt lat="48.913642883301" lon="2.6610476970673"><ele></ele><time>2025-5-12T8:20:56Z</time></trkpt>
<trkpt lat="48.913654327393" lon="2.661155462265"><ele></ele><time>2025-5-12T8:20:59Z</time></trkpt>
<trkpt lat="48.913654327393" lon="2.661155462265"><ele></ele><time>2025-5-12T8:21:2Z</time></trkpt>
<trkpt lat="48.913661956787" lon="2.6612658500671"><ele></ele><time>2025-5-12T8:21:5Z</time></trkpt>
<trkpt lat="48.913661956787" lon="2.6612658500671"><ele></ele><time>2025-5-12T8:21:8Z</time></trkpt>
<trkpt lat="48.913661956787" lon="2.6612658500671"><ele></ele><time>2025-5-12T8:21:11Z</time></trkpt>
<trkpt lat="48.913661956787" lon="2.6612658500671"><ele></ele><time>2025-5-12T8:21:14Z</time></trkpt>
<trkpt lat="48.913661956787" lon="2.6612658500671"><ele></ele><time>2025-5-12T8:21:17Z</time></trkpt>
<trkpt lat="48.91370010376" lon="2.6614348888397"><ele></ele><time>2025-5-12T8:21:20Z</time></trkpt>
<trkpt lat="48.913703918457" lon="2.6615374088287"><ele></ele><time>2025-5-12T8:21:23Z</time></trkpt>
<trkpt lat="48.913703918457" lon="2.6615374088287"><ele></ele><time>2025-5-12T8:21:26Z</time></trkpt>
<trkpt lat="48.913707733154" lon="2.6616520881653"><ele></ele><time>2025-5-12T8:21:29Z</time></trkpt>
<trkpt lat="48.913707733154" lon="2.6616520881653"><ele></ele><time>2025-5-12T8:21:32Z</time></trkpt>
<trkpt lat="48.913696289062" lon="2.6617739200592"><ele></ele><time>2025-5-12T8:21:35Z</time></trkpt>
<trkpt lat="48.913684844971" lon="2.6618728637695"><ele></ele><time>2025-5-12T8:21:38Z</time></trkpt>
<trkpt lat="48.913684844971" lon="2.6618728637695"><ele></ele><time>2025-5-12T8:21:41Z</time></trkpt>
<trkpt lat="48.913677215576" lon="2.6619644165039"><ele></ele><time>2025-5-12T8:21:44Z</time></trkpt>
<trkpt lat="48.913677215576" lon="2.6619644165039"><ele></ele><time>2025-5-12T8:21:47Z</time></trkpt>
<trkpt lat="48.913677215576" lon="2.6619644165039"><ele></ele><time>2025-5-12T8:21:50Z</time></trkpt>
<trkpt lat="48.913677215576" lon="2.6620826721191"><ele></ele><time>2025-5-12T8:21:53Z</time></trkpt>
<trkpt lat="48.913677215576" lon="2.6620826721191"><ele></ele><time>2025-5-12T8:21:56Z</time></trkpt>
<trkpt lat="48.913681030273" lon="2.662207365036"><ele></ele><time>2025-5-12T8:21:59Z</time></trkpt>
<trkpt lat="48.913681030273" lon="2.662207365036"><ele></ele><time>2025-5-12T8:22:2Z</time></trkpt>
<trkpt lat="48.913681030273" lon="2.662207365036"><ele></ele><time>2025-5-12T8:22:5Z</time></trkpt>
<trkpt lat="48.913703918457" lon="2.6623013019562"><ele></ele><time>2025-5-12T8:22:8Z</time></trkpt>
<trkpt lat="48.913703918457" lon="2.6623013019562"><ele></ele><time>2025-5-12T8:22:11Z</time></trkpt>
<trkpt lat="48.913703918457" lon="2.6623013019562"><ele></ele><time>2025-5-12T8:22:14Z</time></trkpt>
<trkpt lat="48.913703918457" lon="2.6623013019562"><ele></ele><time>2025-5-12T8:22:17Z</time></trkpt>
<trkpt lat="48.913726806641" lon="2.6623990535736"><ele></ele><time>2025-5-12T8:22:20Z</time></trkpt>
<trkpt lat="48.913726806641" lon="2.6623990535736"><ele></ele><time>2025-5-12T8:22:23Z</time></trkpt>
<trkpt lat="48.913726806641" lon="2.6623990535736"><ele></ele><time>2025-5-12T8:22:26Z</time></trkpt>
<trkpt lat="48.913726806641" lon="2.6623990535736"><ele></ele><time>2025-5-12T8:22:29Z</time></trkpt>
<trkpt lat="48.913753509521" lon="2.662496805191"><ele></ele><time>2025-5-12T8:22:32Z</time></trkpt>
<trkpt lat="48.913753509521" lon="2.662496805191"><ele></ele><time>2025-5-12T8:22:35Z</time></trkpt>
<trkpt lat="48.913753509521" lon="2.662496805191"><ele></ele><time>2025-5-12T8:22:38Z</time></trkpt>
<trkpt lat="48.913696289062" lon="2.6623320579529"><ele></ele><time>2025-5-12T8:22:41Z</time></trkpt>
<trkpt lat="48.913696289062" lon="2.6623320579529"><ele></ele><time>2025-5-12T8:22:44Z</time></trkpt>
<trkpt lat="48.913646697998" lon="2.6622757911682"><ele></ele><time>2025-5-12T8:22:47Z</time></trkpt>
<trkpt lat="48.913646697998" lon="2.6622757911682"><ele></ele><time>2025-5-12T8:22:50Z</time></trkpt>
<trkpt lat="48.913566589355" lon="2.6623549461365"><ele></ele><time>2025-5-12T8:22:53Z</time></trkpt>
<trkpt lat="48.913566589355" lon="2.6623549461365"><ele></ele><time>2025-5-12T8:22:56Z</time></trkpt>
<trkpt lat="48.913497924805" lon="2.6624066829681"><ele></ele><time>2025-5-12T8:22:59Z</time></trkpt>
<trkpt lat="48.913429260254" lon="2.6624450683594"><ele></ele><time>2025-5-12T8:23:2Z</time></trkpt>
<trkpt lat="48.913379669189" lon="2.6624903678894"><ele></ele><time>2025-5-12T8:23:5Z</time></trkpt>
<trkpt lat="48.913299560547" lon="2.6625804901123"><ele></ele><time>2025-5-12T8:23:8Z</time></trkpt>
<trkpt lat="48.913223266602" lon="2.6626439094543"><ele></ele><time>2025-5-12T8:23:11Z</time></trkpt>
<trkpt lat="48.913223266602" lon="2.6626439094543"><ele></ele><time>2025-5-12T8:23:14Z</time></trkpt>
<trkpt lat="48.913150787354" lon="2.662693977356"><ele></ele><time>2025-5-12T8:23:17Z</time></trkpt>
<trkpt lat="48.913150787354" lon="2.662693977356"><ele></ele><time>2025-5-12T8:23:20Z</time></trkpt>
<trkpt lat="48.913097381592" lon="2.6627449989319"><ele></ele><time>2025-5-12T8:23:23Z</time></trkpt>
<trkpt lat="48.913097381592" lon="2.6627449989319"><ele></ele><time>2025-5-12T8:23:26Z</time></trkpt>
<trkpt lat="48.913097381592" lon="2.6627449989319"><ele></ele><time>2025-5-12T8:23:29Z</time></trkpt>
<trkpt lat="48.91304397583" lon="2.662807226181"><ele></ele><time>2025-5-12T8:23:32Z</time></trkpt>
<trkpt lat="48.91304397583" lon="2.662807226181"><ele></ele><time>2025-5-12T8:23:35Z</time></trkpt>
<trkpt lat="48.912990570068" lon="2.6628727912903"><ele></ele><time>2025-5-12T8:23:38Z</time></trkpt>
<trkpt lat="48.912990570068" lon="2.6628727912903"><ele></ele><time>2025-5-12T8:23:41Z</time></trkpt>
<trkpt lat="48.912940979004" lon="2.6629281044006"><ele></ele><time>2025-5-12T8:23:44Z</time></trkpt>
<trkpt lat="48.912940979004" lon="2.6629281044006"><ele></ele><time>2025-5-12T8:23:47Z</time></trkpt>
<trkpt lat="48.912883758545" lon="2.6629946231842"><ele></ele><time>2025-5-12T8:23:50Z</time></trkpt>
<trkpt lat="48.91284942627" lon="2.6630728244781"><ele></ele><time>2025-5-12T8:23:53Z</time></trkpt>
<trkpt lat="48.91284942627" lon="2.6630728244781"><ele></ele><time>2025-5-12T8:23:56Z</time></trkpt>
<trkpt lat="48.91284942627" lon="2.6630728244781"><ele></ele><time>2025-5-12T8:23:59Z</time></trkpt>
<trkpt lat="48.912818908691" lon="2.6631996631622"><ele></ele><time>2025-5-12T8:24:2Z</time></trkpt>
<trkpt lat="48.912818908691" lon="2.6631996631622"><ele></ele><time>2025-5-12T8:24:5Z</time></trkpt>
<trkpt lat="48.912780761719" lon="2.6633076667786"><ele></ele><time>2025-5-12T8:24:8Z</time></trkpt>
<trkpt lat="48.912780761719" lon="2.6633076667786"><ele></ele><time>2025-5-12T8:24:11Z</time></trkpt>
<trkpt lat="48.912754058838" lon="2.6633961200714"><ele></ele><time>2025-5-12T8:24:14Z</time></trkpt>
<trkpt lat="48.912754058838" lon="2.6633961200714"><ele></ele><time>2025-5-12T8:24:17Z</time></trkpt>
<trkpt lat="48.912754058838" lon="2.6633961200714"><ele></ele><time>2025-5-12T8:24:20Z</time></trkpt>
<trkpt lat="48.912754058838" lon="2.6633961200714"><ele></ele><time>2025-5-12T8:24:23Z</time></trkpt>
<trkpt lat="48.91272354126" lon="2.6634745597839"><ele></ele><time>2025-5-12T8:24:26Z</time></trkpt>
<trkpt lat="48.91272354126" lon="2.6634745597839"><ele></ele><time>2025-5-12T8:24:29Z</time></trkpt>
<trkpt lat="48.91272354126" lon="2.6634745597839"><ele></ele><time>2025-5-12T8:24:32Z</time></trkpt>
<trkpt lat="48.912693023682" lon="2.6635699272156"><ele></ele><time>2025-5-12T8:24:35Z</time></trkpt>
<trkpt lat="48.912693023682" lon="2.6635699272156"><ele></ele><time>2025-5-12T8:24:38Z</time></trkpt>
<trkpt lat="48.912693023682" lon="2.6635699272156"><ele></ele><time>2025-5-12T8:24:41Z</time></trkpt>
<trkpt lat="48.912670135498" lon="2.6636595726013"><ele></ele><time>2025-5-12T8:24:44Z</time></trkpt>
<trkpt lat="48.912670135498" lon="2.6636595726013"><ele></ele><time>2025-5-12T8:24:47Z</time></trkpt>
<trkpt lat="48.912620544434" lon="2.6637606620789"><ele></ele><time>2025-5-12T8:24:50Z</time></trkpt>
<trkpt lat="48.912620544434" lon="2.6637606620789"><ele></ele><time>2025-5-12T8:24:53Z</time></trkpt>
<trkpt lat="48.912620544434" lon="2.6637606620789"><ele></ele><time>2025-5-12T8:24:56Z</time></trkpt>
<trkpt lat="48.912612915039" lon="2.6638026237488"><ele></ele><time>2025-5-12T8:24:59Z</time></trkpt>
<trkpt lat="48.912605285645" lon="2.6638429164886"><ele></ele><time>2025-5-12T8:25:2Z</time></trkpt>
<trkpt lat="48.912605285645" lon="2.6638429164886"><ele></ele><time>2025-5-12T8:25:5Z</time></trkpt>
<trkpt lat="48.912590026855" lon="2.6639025211334"><ele></ele><time>2025-5-12T8:25:8Z</time></trkpt>
<trkpt lat="48.912582397461" lon="2.6639499664307"><ele></ele><time>2025-5-12T8:25:11Z</time></trkpt>
<trkpt lat="48.912582397461" lon="2.6639499664307"><ele></ele><time>2025-5-12T8:25:14Z</time></trkpt>
<trkpt lat="48.912574768066" lon="2.6640014648438"><ele></ele><time>2025-5-12T8:25:17Z</time></trkpt>
<trkpt lat="48.912578582764" lon="2.6640472412109"><ele></ele><time>2025-5-12T8:25:20Z</time></trkpt>
<trkpt lat="48.912578582764" lon="2.6640472412109"><ele></ele><time>2025-5-12T8:25:23Z</time></trkpt>
<trkpt lat="48.912586212158" lon="2.6641004085541"><ele></ele><time>2025-5-12T8:25:26Z</time></trkpt>
<trkpt lat="48.912586212158" lon="2.6641004085541"><ele></ele><time>2025-5-12T8:25:29Z</time></trkpt>
<trkpt lat="48.912593841553" lon="2.6641480922699"><ele></ele><time>2025-5-12T8:25:32Z</time></trkpt>
<trkpt lat="48.91259765625" lon="2.6641948223114"><ele></ele><time>2025-5-12T8:25:35Z</time></trkpt>
<trkpt lat="48.91259765625" lon="2.6641948223114"><ele></ele><time>2025-5-12T8:25:38Z</time></trkpt>
<trkpt lat="48.91259765625" lon="2.6641948223114"><ele></ele><time>2025-5-12T8:25:41Z</time></trkpt>
<trkpt lat="48.912601470947" lon="2.6642425060272"><ele></ele><time>2025-5-12T8:25:44Z</time></trkpt>
<trkpt lat="48.912601470947" lon="2.6642425060272"><ele></ele><time>2025-5-12T8:25:47Z</time></trkpt>
<trkpt lat="48.912605285645" lon="2.6642961502075"><ele></ele><time>2025-5-12T8:25:50Z</time></trkpt>
<trkpt lat="48.912605285645" lon="2.6642961502075"><ele></ele><time>2025-5-12T8:25:53Z</time></trkpt>
<trkpt lat="48.912612915039" lon="2.6643421649933"><ele></ele><time>2025-5-12T8:25:56Z</time></trkpt>
<trkpt lat="48.912620544434" lon="2.6643850803375"><ele></ele><time>2025-5-12T8:25:59Z</time></trkpt>
<trkpt lat="48.912620544434" lon="2.6643850803375"><ele></ele><time>2025-5-12T8:26:2Z</time></trkpt>
<trkpt lat="48.912624359131" lon="2.6644315719604"><ele></ele><time>2025-5-12T8:26:5Z</time></trkpt>
<trkpt lat="48.912624359131" lon="2.6644315719604"><ele></ele><time>2025-5-12T8:26:8Z</time></trkpt>
<trkpt lat="48.912628173828" lon="2.664484500885"><ele></ele><time>2025-5-12T8:26:11Z</time></trkpt>
<trkpt lat="48.912628173828" lon="2.664484500885"><ele></ele><time>2025-5-12T8:26:14Z</time></trkpt>
<trkpt lat="48.912628173828" lon="2.664484500885"><ele></ele><time>2025-5-12T8:26:17Z</time></trkpt>
<trkpt lat="48.912635803223" lon="2.664538860321"><ele></ele><time>2025-5-12T8:26:20Z</time></trkpt>
<trkpt lat="48.91263961792" lon="2.664585351944"><ele></ele><time>2025-5-12T8:26:23Z</time></trkpt>
<trkpt lat="48.91263961792" lon="2.664585351944"><ele></ele><time>2025-5-12T8:26:26Z</time></trkpt>
<trkpt lat="48.91263961792" lon="2.664585351944"><ele></ele><time>2025-5-12T8:26:29Z</time></trkpt>
<trkpt lat="48.91263961792" lon="2.664585351944"><ele></ele><time>2025-5-12T8:26:32Z</time></trkpt>
<trkpt lat="48.912582397461" lon="2.6644234657288"><ele></ele><time>2025-5-12T8:26:35Z</time></trkpt>
<trkpt lat="48.912582397461" lon="2.6642284393311"><ele></ele><time>2025-5-12T8:26:38Z</time></trkpt>
<trkpt lat="48.912582397461" lon="2.6640865802765"><ele></ele><time>2025-5-12T8:26:41Z</time></trkpt>
<trkpt lat="48.912609100342" lon="2.6639370918274"><ele></ele><time>2025-5-12T8:26:44Z</time></trkpt>
<trkpt lat="48.91263961792" lon="2.6637654304504"><ele></ele><time>2025-5-12T8:26:47Z</time></trkpt>
<trkpt lat="48.91268157959" lon="2.6635751724243"><ele></ele><time>2025-5-12T8:26:50Z</time></trkpt>
<trkpt lat="48.912742614746" lon="2.663357257843"><ele></ele><time>2025-5-12T8:26:53Z</time></trkpt>
<trkpt lat="48.912811279297" lon="2.6631553173065"><ele></ele><time>2025-5-12T8:26:56Z</time></trkpt>
<trkpt lat="48.91287612915" lon="2.6629712581635"><ele></ele><time>2025-5-12T8:26:59Z</time></trkpt>
<trkpt lat="48.912967681885" lon="2.6628568172455"><ele></ele><time>2025-5-12T8:27:2Z</time></trkpt>
<trkpt lat="48.913063049316" lon="2.6627581119537"><ele></ele><time>2025-5-12T8:27:5Z</time></trkpt>
<trkpt lat="48.913143157959" lon="2.662674665451"><ele></ele><time>2025-5-12T8:27:8Z</time></trkpt>
<trkpt lat="48.913234710693" lon="2.6625797748566"><ele></ele><time>2025-5-12T8:27:11Z</time></trkpt>
<trkpt lat="48.913349151611" lon="2.6624755859375"><ele></ele><time>2025-5-12T8:27:14Z</time></trkpt>
<trkpt lat="48.913444519043" lon="2.6623828411102"><ele></ele><time>2025-5-12T8:27:17Z</time></trkpt>
<trkpt lat="48.913539886475" lon="2.662303686142"><ele></ele><time>2025-5-12T8:27:20Z</time></trkpt>
<trkpt lat="48.913612365723" lon="2.6622176170349"><ele></ele><time>2025-5-12T8:27:23Z</time></trkpt>
<trkpt lat="48.91365814209" lon="2.6621315479279"><ele></ele><time>2025-5-12T8:27:26Z</time></trkpt>
<trkpt lat="48.913684844971" lon="2.6620180606842"><ele></ele><time>2025-5-12T8:27:29Z</time></trkpt>
<trkpt lat="48.913696289062" lon="2.6619007587433"><ele></ele><time>2025-5-12T8:27:32Z</time></trkpt>
<trkpt lat="48.913696289062" lon="2.6617980003357"><ele></ele><time>2025-5-12T8:27:35Z</time></trkpt>
<trkpt lat="48.91370010376" lon="2.6616952419281"><ele></ele><time>2025-5-12T8:27:38Z</time></trkpt>
<trkpt lat="48.91370010376" lon="2.6615979671478"><ele></ele><time>2025-5-12T8:27:41Z</time></trkpt>
<trkpt lat="48.91370010376" lon="2.6615979671478"><ele></ele><time>2025-5-12T8:27:44Z</time></trkpt>
<trkpt lat="48.913688659668" lon="2.6614487171173"><ele></ele><time>2025-5-12T8:27:47Z</time></trkpt>
<trkpt lat="48.913688659668" lon="2.6614487171173"><ele></ele><time>2025-5-12T8:27:50Z</time></trkpt>
<trkpt lat="48.913677215576" lon="2.6613345146179"><ele></ele><time>2025-5-12T8:27:53Z</time></trkpt>
<trkpt lat="48.913669586182" lon="2.6610910892487"><ele></ele><time>2025-5-12T8:27:56Z</time></trkpt>
<trkpt lat="48.913654327393" lon="2.6609132289886"><ele></ele><time>2025-5-12T8:27:59Z</time></trkpt>
<trkpt lat="48.913627624512" lon="2.66077709198"><ele></ele><time>2025-5-12T8:28:2Z</time></trkpt>
<trkpt lat="48.913627624512" lon="2.66077709198"><ele></ele><time>2025-5-12T8:28:5Z</time></trkpt>
<trkpt lat="48.913612365723" lon="2.6606492996216"><ele></ele><time>2025-5-12T8:28:8Z</time></trkpt>
<trkpt lat="48.913608551025" lon="2.6605224609375"><ele></ele><time>2025-5-12T8:28:11Z</time></trkpt>
<trkpt lat="48.913604736328" lon="2.660368680954"><ele></ele><time>2025-5-12T8:28:14Z</time></trkpt>
<trkpt lat="48.913604736328" lon="2.660368680954"><ele></ele><time>2025-5-12T8:28:17Z</time></trkpt>
<trkpt lat="48.913631439209" lon="2.6602263450623"><ele></ele><time>2025-5-12T8:28:20Z</time></trkpt>
<trkpt lat="48.91365814209" lon="2.6601133346558"><ele></ele><time>2025-5-12T8:28:23Z</time></trkpt>
<trkpt lat="48.913688659668" lon="2.6600012779236"><ele></ele><time>2025-5-12T8:28:26Z</time></trkpt>
<trkpt lat="48.913688659668" lon="2.6600012779236"><ele></ele><time>2025-5-12T8:28:29Z</time></trkpt>
<trkpt lat="48.913715362549" lon="2.6599020957947"><ele></ele><time>2025-5-12T8:28:32Z</time></trkpt>
<trkpt lat="48.913749694824" lon="2.6598343849182"><ele></ele><time>2025-5-12T8:28:35Z</time></trkpt>
<trkpt lat="48.913749694824" lon="2.6598343849182"><ele></ele><time>2025-5-12T8:28:38Z</time></trkpt>
<trkpt lat="48.913749694824" lon="2.6598343849182"><ele></ele><time>2025-5-12T8:28:41Z</time></trkpt>
<trkpt lat="48.913749694824" lon="2.6598343849182"><ele></ele><time>2025-5-12T8:28:44Z</time></trkpt>
<trkpt lat="48.913703918457" lon="2.6599721908569"><ele></ele><time>2025-5-12T8:28:47Z</time></trkpt>
<trkpt lat="48.913703918457" lon="2.6599721908569"><ele></ele><time>2025-5-12T8:28:50Z</time></trkpt>
<trkpt lat="48.913688659668" lon="2.6600787639618"><ele></ele><time>2025-5-12T8:28:53Z</time></trkpt>
<trkpt lat="48.913669586182" lon="2.6601738929749"><ele></ele><time>2025-5-12T8:28:56Z</time></trkpt>
<trkpt lat="48.913654327393" lon="2.6602799892426"><ele></ele><time>2025-5-12T8:28:59Z</time></trkpt>
<trkpt lat="48.913654327393" lon="2.6602799892426"><ele></ele><time>2025-5-12T8:29:2Z</time></trkpt>
<trkpt lat="48.913627624512" lon="2.6603915691376"><ele></ele><time>2025-5-12T8:29:5Z</time></trkpt>
<trkpt lat="48.913570404053" lon="2.6604731082916"><ele></ele><time>2025-5-12T8:29:8Z</time></trkpt>
<trkpt lat="48.913497924805" lon="2.6605517864227"><ele></ele><time>2025-5-12T8:29:11Z</time></trkpt>
<trkpt lat="48.913497924805" lon="2.6605517864227"><ele></ele><time>2025-5-12T8:29:14Z</time></trkpt>
<trkpt lat="48.913421630859" lon="2.6606156826019"><ele></ele><time>2025-5-12T8:29:17Z</time></trkpt>
<trkpt lat="48.91329574585" lon="2.6606993675232"><ele></ele><time>2025-5-12T8:29:20Z</time></trkpt>
<trkpt lat="48.913185119629" lon="2.6607298851013"><ele></ele><time>2025-5-12T8:29:23Z</time></trkpt>
<trkpt lat="48.913185119629" lon="2.6607298851013"><ele></ele><time>2025-5-12T8:29:26Z</time></trkpt>
<trkpt lat="48.913055419922" lon="2.660742521286"><ele></ele><time>2025-5-12T8:29:29Z</time></trkpt>
<trkpt lat="48.912937164307" lon="2.6607608795166"><ele></ele><time>2025-5-12T8:29:32Z</time></trkpt>
<trkpt lat="48.912811279297" lon="2.6607854366302"><ele></ele><time>2025-5-12T8:29:35Z</time></trkpt>
<trkpt lat="48.912811279297" lon="2.6607854366302"><ele></ele><time>2025-5-12T8:29:38Z</time></trkpt>
<trkpt lat="48.912673950195" lon="2.6608180999756"><ele></ele><time>2025-5-12T8:29:41Z</time></trkpt>
<trkpt lat="48.912532806396" lon="2.6608560085297"><ele></ele><time>2025-5-12T8:29:44Z</time></trkpt>
<trkpt lat="48.912406921387" lon="2.6608870029449"><ele></ele><time>2025-5-12T8:29:47Z</time></trkpt>
<trkpt lat="48.912406921387" lon="2.6608870029449"><ele></ele><time>2025-5-12T8:29:50Z</time></trkpt>
<trkpt lat="48.912284851074" lon="2.6609244346619"><ele></ele><time>2025-5-12T8:29:53Z</time></trkpt>
<trkpt lat="48.912178039551" lon="2.6609740257263"><ele></ele><time>2025-5-12T8:29:56Z</time></trkpt>
<trkpt lat="48.912078857422" lon="2.6610016822815"><ele></ele><time>2025-5-12T8:29:59Z</time></trkpt>
<trkpt lat="48.912078857422" lon="2.6610016822815"><ele></ele><time>2025-5-12T8:30:2Z</time></trkpt>
<trkpt lat="48.911994934082" lon="2.6610035896301"><ele></ele><time>2025-5-12T8:30:5Z</time></trkpt>
<trkpt lat="48.911926269531" lon="2.6610133647919"><ele></ele><time>2025-5-12T8:30:8Z</time></trkpt>
<trkpt lat="48.91185760498" lon="2.6610221862793"><ele></ele><time>2025-5-12T8:30:11Z</time></trkpt>
<trkpt lat="48.91185760498" lon="2.6610221862793"><ele></ele><time>2025-5-12T8:30:14Z</time></trkpt>
<trkpt lat="48.911796569824" lon="2.6610136032104"><ele></ele><time>2025-5-12T8:30:17Z</time></trkpt>
<trkpt lat="48.911739349365" lon="2.6610009670258"><ele></ele><time>2025-5-12T8:30:20Z</time></trkpt>
<trkpt lat="48.91166305542" lon="2.6609792709351"><ele></ele><time>2025-5-12T8:30:23Z</time></trkpt>
<trkpt lat="48.91166305542" lon="2.6609792709351"><ele></ele><time>2025-5-12T8:30:26Z</time></trkpt>
<trkpt lat="48.911590576172" lon="2.6609528064728"><ele></ele><time>2025-5-12T8:30:29Z</time></trkpt>
<trkpt lat="48.911521911621" lon="2.6609270572662"><ele></ele><time>2025-5-12T8:30:32Z</time></trkpt>
<trkpt lat="48.911457061768" lon="2.6609032154083"><ele></ele><time>2025-5-12T8:30:35Z</time></trkpt>
<trkpt lat="48.911457061768" lon="2.6609032154083"><ele></ele><time>2025-5-12T8:30:38Z</time></trkpt>
<trkpt lat="48.911392211914" lon="2.6608858108521"><ele></ele><time>2025-5-12T8:30:41Z</time></trkpt>
<trkpt lat="48.911327362061" lon="2.6608734130859"><ele></ele><time>2025-5-12T8:30:44Z</time></trkpt>
<trkpt lat="48.911327362061" lon="2.6608734130859"><ele></ele><time>2025-5-12T8:30:47Z</time></trkpt>
<trkpt lat="48.911327362061" lon="2.6608734130859"><ele></ele><time>2025-5-12T8:30:50Z</time></trkpt>
<trkpt lat="48.911254882812" lon="2.6609182357788"><ele></ele><time>2025-5-12T8:30:53Z</time></trkpt>
<trkpt lat="48.911254882812" lon="2.6609182357788"><ele></ele><time>2025-5-12T8:30:56Z</time></trkpt>
<trkpt lat="48.91121673584" lon="2.66099858284"><ele></ele><time>2025-5-12T8:30:59Z</time></trkpt>
<trkpt lat="48.91121673584" lon="2.66099858284"><ele></ele><time>2025-5-12T8:31:2Z</time></trkpt>
<trkpt lat="48.91121673584" lon="2.66099858284"><ele></ele><time>2025-5-12T8:31:5Z</time></trkpt>
<trkpt lat="48.911201477051" lon="2.6610968112946"><ele></ele><time>2025-5-12T8:31:8Z</time></trkpt>
<trkpt lat="48.911201477051" lon="2.6610968112946"><ele></ele><time>2025-5-12T8:31:11Z</time></trkpt>
<trkpt lat="48.911201477051" lon="2.6610968112946"><ele></ele><time>2025-5-12T8:31:14Z</time></trkpt>
<trkpt lat="48.911190032959" lon="2.6611936092377"><ele></ele><time>2025-5-12T8:31:17Z</time></trkpt>
<trkpt lat="48.911190032959" lon="2.6611936092377"><ele></ele><time>2025-5-12T8:31:20Z</time></trkpt>
<trkpt lat="48.911190032959" lon="2.6611936092377"><ele></ele><time>2025-5-12T8:31:23Z</time></trkpt>
<trkpt lat="48.911190032959" lon="2.6611936092377"><ele></ele><time>2025-5-12T8:31:26Z</time></trkpt>
<trkpt lat="48.911190032959" lon="2.6611936092377"><ele></ele><time>2025-5-12T8:31:29Z</time></trkpt>
<trkpt lat="48.911186218262" lon="2.6613130569458"><ele></ele><time>2025-5-12T8:31:32Z</time></trkpt>
<trkpt lat="48.911186218262" lon="2.6613130569458"><ele></ele><time>2025-5-12T8:31:35Z</time></trkpt>
<trkpt lat="48.911167144775" lon="2.6614263057709"><ele></ele><time>2025-5-12T8:31:38Z</time></trkpt>
<trkpt lat="48.911167144775" lon="2.6614263057709"><ele></ele><time>2025-5-12T8:31:41Z</time></trkpt>
<trkpt lat="48.911167144775" lon="2.6614263057709"><ele></ele><time>2025-5-12T8:31:44Z</time></trkpt>
<trkpt lat="48.911159515381" lon="2.6615428924561"><ele></ele><time>2025-5-12T8:31:47Z</time></trkpt>
<trkpt lat="48.911159515381" lon="2.6615428924561"><ele></ele><time>2025-5-12T8:31:50Z</time></trkpt>
<trkpt lat="48.911159515381" lon="2.6615428924561"><ele></ele><time>2025-5-12T8:31:53Z</time></trkpt>
<trkpt lat="48.911159515381" lon="2.6615428924561"><ele></ele><time>2025-5-12T8:31:56Z</time></trkpt>
<trkpt lat="48.911148071289" lon="2.66166472435"><ele></ele><time>2025-5-12T8:31:59Z</time></trkpt>
<trkpt lat="48.911144256592" lon="2.6617622375488"><ele></ele><time>2025-5-12T8:32:2Z</time></trkpt>
<trkpt lat="48.911144256592" lon="2.6617622375488"><ele></ele><time>2025-5-12T8:32:5Z</time></trkpt>
<trkpt lat="48.911144256592" lon="2.6617622375488"><ele></ele><time>2025-5-12T8:32:8Z</time></trkpt>
<trkpt lat="48.911136627197" lon="2.6618838310242"><ele></ele><time>2025-5-12T8:32:11Z</time></trkpt>
<trkpt lat="48.911136627197" lon="2.6618838310242"><ele></ele><time>2025-5-12T8:32:14Z</time></trkpt>
<trkpt lat="48.911136627197" lon="2.6618838310242"><ele></ele><time>2025-5-12T8:32:17Z</time></trkpt>
<trkpt lat="48.911136627197" lon="2.6618838310242"><ele></ele><time>2025-5-12T8:32:20Z</time></trkpt>
<trkpt lat="48.911121368408" lon="2.6619973182678"><ele></ele><time>2025-5-12T8:32:23Z</time></trkpt>
<trkpt lat="48.911121368408" lon="2.6619973182678"><ele></ele><time>2025-5-12T8:32:26Z</time></trkpt>
<trkpt lat="48.911102294922" lon="2.6620934009552"><ele></ele><time>2025-5-12T8:32:29Z</time></trkpt>
<trkpt lat="48.911102294922" lon="2.6620934009552"><ele></ele><time>2025-5-12T8:32:32Z</time></trkpt>
<trkpt lat="48.911102294922" lon="2.6620934009552"><ele></ele><time>2025-5-12T8:32:35Z</time></trkpt>
<trkpt lat="48.911079406738" lon="2.6621949672699"><ele></ele><time>2025-5-12T8:32:38Z</time></trkpt>
<trkpt lat="48.911079406738" lon="2.6621949672699"><ele></ele><time>2025-5-12T8:32:41Z</time></trkpt>
<trkpt lat="48.911064147949" lon="2.6622831821442"><ele></ele><time>2025-5-12T8:32:44Z</time></trkpt>
<trkpt lat="48.911064147949" lon="2.6622831821442"><ele></ele><time>2025-5-12T8:32:47Z</time></trkpt>
<trkpt lat="48.911026000977" lon="2.6623730659485"><ele></ele><time>2025-5-12T8:32:50Z</time></trkpt>
<trkpt lat="48.911026000977" lon="2.6623730659485"><ele></ele><time>2025-5-12T8:32:53Z</time></trkpt>
<trkpt lat="48.910980224609" lon="2.6624293327332"><ele></ele><time>2025-5-12T8:32:56Z</time></trkpt>
<trkpt lat="48.910980224609" lon="2.6624293327332"><ele></ele><time>2025-5-12T8:32:59Z</time></trkpt>
<trkpt lat="48.910980224609" lon="2.6624293327332"><ele></ele><time>2025-5-12T8:33:2Z</time></trkpt>
<trkpt lat="48.910919189453" lon="2.6624886989594"><ele></ele><time>2025-5-12T8:33:5Z</time></trkpt>
<trkpt lat="48.910919189453" lon="2.6624886989594"><ele></ele><time>2025-5-12T8:33:8Z</time></trkpt>
<trkpt lat="48.910858154297" lon="2.6625440120697"><ele></ele><time>2025-5-12T8:33:11Z</time></trkpt>
<trkpt lat="48.910858154297" lon="2.6625440120697"><ele></ele><time>2025-5-12T8:33:14Z</time></trkpt>
<trkpt lat="48.910823822021" lon="2.6625747680664"><ele></ele><time>2025-5-12T8:33:17Z</time></trkpt>
<trkpt lat="48.910797119141" lon="2.6625998020172"><ele></ele><time>2025-5-12T8:33:20Z</time></trkpt>
<trkpt lat="48.91077041626" lon="2.6626281738281"><ele></ele><time>2025-5-12T8:33:23Z</time></trkpt>
<trkpt lat="48.910751342773" lon="2.6626648902893"><ele></ele><time>2025-5-12T8:33:26Z</time></trkpt>
<trkpt lat="48.910751342773" lon="2.6626648902893"><ele></ele><time>2025-5-12T8:33:29Z</time></trkpt>
<trkpt lat="48.910736083984" lon="2.662718296051"><ele></ele><time>2025-5-12T8:33:32Z</time></trkpt>
<trkpt lat="48.910717010498" lon="2.6627752780914"><ele></ele><time>2025-5-12T8:33:35Z</time></trkpt>
<trkpt lat="48.910705566406" lon="2.6628217697144"><ele></ele><time>2025-5-12T8:33:38Z</time></trkpt>
<trkpt lat="48.910705566406" lon="2.6628217697144"><ele></ele><time>2025-5-12T8:33:41Z</time></trkpt>
<trkpt lat="48.910701751709" lon="2.6628732681274"><ele></ele><time>2025-5-12T8:33:44Z</time></trkpt>
<trkpt lat="48.910701751709" lon="2.6629183292389"><ele></ele><time>2025-5-12T8:33:47Z</time></trkpt>
<trkpt lat="48.910697937012" lon="2.6629617214203"><ele></ele><time>2025-5-12T8:33:50Z</time></trkpt>
<trkpt lat="48.910690307617" lon="2.6630063056946"><ele></ele><time>2025-5-12T8:33:53Z</time></trkpt>
<trkpt lat="48.910690307617" lon="2.6630063056946"><ele></ele><time>2025-5-12T8:33:56Z</time></trkpt>
<trkpt lat="48.910682678223" lon="2.6630654335022"><ele></ele><time>2025-5-12T8:33:59Z</time></trkpt>
<trkpt lat="48.910678863525" lon="2.6631195545197"><ele></ele><time>2025-5-12T8:34:2Z</time></trkpt>
<trkpt lat="48.910682678223" lon="2.6631646156311"><ele></ele><time>2025-5-12T8:34:5Z</time></trkpt>
<trkpt lat="48.910682678223" lon="2.6632127761841"><ele></ele><time>2025-5-12T8:34:8Z</time></trkpt>
<trkpt lat="48.910682678223" lon="2.6632657051086"><ele></ele><time>2025-5-12T8:34:11Z</time></trkpt>
<trkpt lat="48.910682678223" lon="2.6633749008179"><ele></ele><time>2025-5-12T8:34:14Z</time></trkpt>
<trkpt lat="48.910682678223" lon="2.6633749008179"><ele></ele><time>2025-5-12T8:34:17Z</time></trkpt>
<trkpt lat="48.910663604736" lon="2.6634984016418"><ele></ele><time>2025-5-12T8:34:20Z</time></trkpt>
<trkpt lat="48.910621643066" lon="2.6636047363281"><ele></ele><time>2025-5-12T8:34:23Z</time></trkpt>
<trkpt lat="48.910621643066" lon="2.6636047363281"><ele></ele><time>2025-5-12T8:34:26Z</time></trkpt>
<trkpt lat="48.910579681396" lon="2.6636867523193"><ele></ele><time>2025-5-12T8:34:29Z</time></trkpt>
<trkpt lat="48.910579681396" lon="2.6636867523193"><ele></ele><time>2025-5-12T8:34:32Z</time></trkpt>
<trkpt lat="48.910514831543" lon="2.663761138916"><ele></ele><time>2025-5-12T8:34:35Z</time></trkpt>
<trkpt lat="48.910427093506" lon="2.6638298034668"><ele></ele><time>2025-5-12T8:34:38Z</time></trkpt>
<trkpt lat="48.910369873047" lon="2.6638522148132"><ele></ele><time>2025-5-12T8:34:41Z</time></trkpt>
<trkpt lat="48.91028213501" lon="2.6638994216919"><ele></ele><time>2025-5-12T8:34:44Z</time></trkpt>
<trkpt lat="48.91028213501" lon="2.6638994216919"><ele></ele><time>2025-5-12T8:34:47Z</time></trkpt>
<trkpt lat="48.910202026367" lon="2.6639838218689"><ele></ele><time>2025-5-12T8:34:50Z</time></trkpt>
<trkpt lat="48.910202026367" lon="2.6639838218689"><ele></ele><time>2025-5-12T8:34:53Z</time></trkpt>
<trkpt lat="48.910129547119" lon="2.6640841960907"><ele></ele><time>2025-5-12T8:34:56Z</time></trkpt>
<trkpt lat="48.910068511963" lon="2.6641833782196"><ele></ele><time>2025-5-12T8:34:59Z</time></trkpt>
<trkpt lat="48.910068511963" lon="2.6641833782196"><ele></ele><time>2025-5-12T8:35:2Z</time></trkpt>
<trkpt lat="48.910015106201" lon="2.6642782688141"><ele></ele><time>2025-5-12T8:35:5Z</time></trkpt>
<trkpt lat="48.910015106201" lon="2.6642782688141"><ele></ele><time>2025-5-12T8:35:8Z</time></trkpt>
<trkpt lat="48.910015106201" lon="2.6642782688141"><ele></ele><time>2025-5-12T8:35:11Z</time></trkpt>
<trkpt lat="48.909954071045" lon="2.6643681526184"><ele></ele><time>2025-5-12T8:35:14Z</time></trkpt>
<trkpt lat="48.909954071045" lon="2.6643681526184"><ele></ele><time>2025-5-12T8:35:17Z</time></trkpt>
<trkpt lat="48.909954071045" lon="2.6643681526184"><ele></ele><time>2025-5-12T8:35:20Z</time></trkpt>
<trkpt lat="48.909893035889" lon="2.6644651889801"><ele></ele><time>2025-5-12T8:35:23Z</time></trkpt>
<trkpt lat="48.909893035889" lon="2.6644651889801"><ele></ele><time>2025-5-12T8:35:26Z</time></trkpt>
<trkpt lat="48.909843444824" lon="2.664558172226"><ele></ele><time>2025-5-12T8:35:29Z</time></trkpt>
<trkpt lat="48.909843444824" lon="2.664558172226"><ele></ele><time>2025-5-12T8:35:32Z</time></trkpt>
<trkpt lat="48.909843444824" lon="2.664558172226"><ele></ele><time>2025-5-12T8:35:35Z</time></trkpt>
<trkpt lat="48.909801483154" lon="2.6646552085876"><ele></ele><time>2025-5-12T8:35:38Z</time></trkpt>
<trkpt lat="48.909801483154" lon="2.6646552085876"><ele></ele><time>2025-5-12T8:35:41Z</time></trkpt>
<trkpt lat="48.909801483154" lon="2.6646552085876"><ele></ele><time>2025-5-12T8:35:44Z</time></trkpt>
<trkpt lat="48.909755706787" lon="2.6647088527679"><ele></ele><time>2025-5-12T8:35:47Z</time></trkpt>
<trkpt lat="48.909755706787" lon="2.6647088527679"><ele></ele><time>2025-5-12T8:35:50Z</time></trkpt>
<trkpt lat="48.909702301025" lon="2.6647622585297"><ele></ele><time>2025-5-12T8:35:53Z</time></trkpt>
<trkpt lat="48.909702301025" lon="2.6647622585297"><ele></ele><time>2025-5-12T8:35:56Z</time></trkpt>
<trkpt lat="48.909637451172" lon="2.6648688316345"><ele></ele><time>2025-5-12T8:35:59Z</time></trkpt>
<trkpt lat="48.909637451172" lon="2.6648688316345"><ele></ele><time>2025-5-12T8:36:2Z</time></trkpt>
<trkpt lat="48.909599304199" lon="2.6649742126465"><ele></ele><time>2025-5-12T8:36:5Z</time></trkpt>
<trkpt lat="48.909599304199" lon="2.6649742126465"><ele></ele><time>2025-5-12T8:36:8Z</time></trkpt>
<trkpt lat="48.909553527832" lon="2.6650924682617"><ele></ele><time>2025-5-12T8:36:11Z</time></trkpt>
<trkpt lat="48.909515380859" lon="2.6652011871338"><ele></ele><time>2025-5-12T8:36:14Z</time></trkpt>
<trkpt lat="48.909515380859" lon="2.6652011871338"><ele></ele><time>2025-5-12T8:36:17Z</time></trkpt>
<trkpt lat="48.909515380859" lon="2.6652011871338"><ele></ele><time>2025-5-12T8:36:20Z</time></trkpt>
<trkpt lat="48.909477233887" lon="2.6652834415436"><ele></ele><time>2025-5-12T8:36:23Z</time></trkpt>
<trkpt lat="48.909477233887" lon="2.6652834415436"><ele></ele><time>2025-5-12T8:36:26Z</time></trkpt>
<trkpt lat="48.909477233887" lon="2.6652834415436"><ele></ele><time>2025-5-12T8:36:29Z</time></trkpt>
<trkpt lat="48.909423828125" lon="2.6653761863708"><ele></ele><time>2025-5-12T8:36:32Z</time></trkpt>
<trkpt lat="48.909370422363" lon="2.6654591560364"><ele></ele><time>2025-5-12T8:36:35Z</time></trkpt>
<trkpt lat="48.909370422363" lon="2.6654591560364"><ele></ele><time>2025-5-12T8:36:38Z</time></trkpt>
<trkpt lat="48.909370422363" lon="2.6654591560364"><ele></ele><time>2025-5-12T8:36:41Z</time></trkpt>
<trkpt lat="48.90930557251" lon="2.6655488014221"><ele></ele><time>2025-5-12T8:36:44Z</time></trkpt>
<trkpt lat="48.90930557251" lon="2.6655488014221"><ele></ele><time>2025-5-12T8:36:47Z</time></trkpt>
<trkpt lat="48.909240722656" lon="2.6656177043915"><ele></ele><time>2025-5-12T8:36:50Z</time></trkpt>
<trkpt lat="48.909240722656" lon="2.6656177043915"><ele></ele><time>2025-5-12T8:36:53Z</time></trkpt>
<trkpt lat="48.909240722656" lon="2.6656177043915"><ele></ele><time>2025-5-12T8:36:56Z</time></trkpt>
<trkpt lat="48.909187316895" lon="2.6656947135925"><ele></ele><time>2025-5-12T8:36:59Z</time></trkpt>
<trkpt lat="48.909187316895" lon="2.6656947135925"><ele></ele><time>2025-5-12T8:37:2Z</time></trkpt>
<trkpt lat="48.909187316895" lon="2.6656947135925"><ele></ele><time>2025-5-12T8:37:5Z</time></trkpt>
<trkpt lat="48.909133911133" lon="2.6657934188843"><ele></ele><time>2025-5-12T8:37:8Z</time></trkpt>
<trkpt lat="48.909084320068" lon="2.6658763885498"><ele></ele><time>2025-5-12T8:37:11Z</time></trkpt>
<trkpt lat="48.909084320068" lon="2.6658763885498"><ele></ele><time>2025-5-12T8:37:14Z</time></trkpt>
<trkpt lat="48.909084320068" lon="2.6658763885498"><ele></ele><time>2025-5-12T8:37:17Z</time></trkpt>
<trkpt lat="48.909034729004" lon="2.6659576892853"><ele></ele><time>2025-5-12T8:37:20Z</time></trkpt>
<trkpt lat="48.909034729004" lon="2.6659576892853"><ele></ele><time>2025-5-12T8:37:23Z</time></trkpt>
<trkpt lat="48.909008026123" lon="2.6659982204437"><ele></ele><time>2025-5-12T8:37:26Z</time></trkpt>
<trkpt lat="48.908985137939" lon="2.6660394668579"><ele></ele><time>2025-5-12T8:37:29Z</time></trkpt>
<trkpt lat="48.90896987915" lon="2.6660778522491"><ele></ele><time>2025-5-12T8:37:32Z</time></trkpt>
<trkpt lat="48.90896987915" lon="2.6660778522491"><ele></ele><time>2025-5-12T8:37:35Z</time></trkpt>
<trkpt lat="48.908954620361" lon="2.6661157608032"><ele></ele><time>2025-5-12T8:37:38Z</time></trkpt>
<trkpt lat="48.908939361572" lon="2.6661531925201"><ele></ele><time>2025-5-12T8:37:41Z</time></trkpt>
<trkpt lat="48.908912658691" lon="2.6662323474884"><ele></ele><time>2025-5-12T8:37:44Z</time></trkpt>
<trkpt lat="48.908912658691" lon="2.6662323474884"><ele></ele><time>2025-5-12T8:37:47Z</time></trkpt>
<trkpt lat="48.908889770508" lon="2.6663115024567"><ele></ele><time>2025-5-12T8:37:50Z</time></trkpt>
<trkpt lat="48.908889770508" lon="2.6663115024567"><ele></ele><time>2025-5-12T8:37:53Z</time></trkpt>
<trkpt lat="48.908889770508" lon="2.6663115024567"><ele></ele><time>2025-5-12T8:37:56Z</time></trkpt>
<trkpt lat="48.908889770508" lon="2.6663115024567"><ele></ele><time>2025-5-12T8:37:59Z</time></trkpt>
<trkpt lat="48.908882141113" lon="2.666403055191"><ele></ele><time>2025-5-12T8:38:2Z</time></trkpt>
<trkpt lat="48.908882141113" lon="2.666403055191"><ele></ele><time>2025-5-12T8:38:5Z</time></trkpt>
<trkpt lat="48.908882141113" lon="2.666403055191"><ele></ele><time>2025-5-12T8:38:8Z</time></trkpt>
<trkpt lat="48.908882141113" lon="2.666403055191"><ele></ele><time>2025-5-12T8:38:11Z</time></trkpt>
<trkpt lat="48.908939361572" lon="2.6664516925812"><ele></ele><time>2025-5-12T8:38:14Z</time></trkpt>
<trkpt lat="48.908939361572" lon="2.6664516925812"><ele></ele><time>2025-5-12T8:38:17Z</time></trkpt>
<trkpt lat="48.908939361572" lon="2.6664516925812"><ele></ele><time>2025-5-12T8:38:20Z</time></trkpt>
<trkpt lat="48.908939361572" lon="2.6664516925812"><ele></ele><time>2025-5-12T8:38:23Z</time></trkpt>
<trkpt lat="48.909019470215" lon="2.6665091514587"><ele></ele><time>2025-5-12T8:38:26Z</time></trkpt>
<trkpt lat="48.909019470215" lon="2.6665091514587"><ele></ele><time>2025-5-12T8:38:29Z</time></trkpt>
<trkpt lat="48.909019470215" lon="2.6665091514587"><ele></ele><time>2025-5-12T8:38:32Z</time></trkpt>
<trkpt lat="48.909080505371" lon="2.6665410995483"><ele></ele><time>2025-5-12T8:38:35Z</time></trkpt>
<trkpt lat="48.909080505371" lon="2.6665410995483"><ele></ele><time>2025-5-12T8:38:38Z</time></trkpt>
<trkpt lat="48.909080505371" lon="2.6665410995483"><ele></ele><time>2025-5-12T8:38:41Z</time></trkpt>
<trkpt lat="48.909080505371" lon="2.6665410995483"><ele></ele><time>2025-5-12T8:38:44Z</time></trkpt>
<trkpt lat="48.90913772583" lon="2.6666038036346"><ele></ele><time>2025-5-12T8:38:47Z</time></trkpt>
<trkpt lat="48.90913772583" lon="2.6666038036346"><ele></ele><time>2025-5-12T8:38:50Z</time></trkpt>
<trkpt lat="48.90913772583" lon="2.6666038036346"><ele></ele><time>2025-5-12T8:38:53Z</time></trkpt>
<trkpt lat="48.909198760986" lon="2.6666660308838"><ele></ele><time>2025-5-12T8:38:56Z</time></trkpt>
<trkpt lat="48.909198760986" lon="2.6666660308838"><ele></ele><time>2025-5-12T8:38:59Z</time></trkpt>
<trkpt lat="48.909198760986" lon="2.6666660308838"><ele></ele><time>2025-5-12T8:39:2Z</time></trkpt>
<trkpt lat="48.909198760986" lon="2.6666660308838"><ele></ele><time>2025-5-12T8:39:5Z</time></trkpt>
<trkpt lat="48.909267425537" lon="2.6667063236237"><ele></ele><time>2025-5-12T8:39:8Z</time></trkpt>
<trkpt lat="48.909267425537" lon="2.6667063236237"><ele></ele><time>2025-5-12T8:39:11Z</time></trkpt>
<trkpt lat="48.909267425537" lon="2.6667063236237"><ele></ele><time>2025-5-12T8:39:14Z</time></trkpt>
<trkpt lat="48.909328460693" lon="2.6667428016663"><ele></ele><time>2025-5-12T8:39:17Z</time></trkpt>
<trkpt lat="48.909328460693" lon="2.6667428016663"><ele></ele><time>2025-5-12T8:39:20Z</time></trkpt>
<trkpt lat="48.909408569336" lon="2.6667475700378"><ele></ele><time>2025-5-12T8:39:23Z</time></trkpt>
<trkpt lat="48.909481048584" lon="2.6667094230652"><ele></ele><time>2025-5-12T8:39:26Z</time></trkpt>
<trkpt lat="48.909481048584" lon="2.6667094230652"><ele></ele><time>2025-5-12T8:39:29Z</time></trkpt>
<trkpt lat="48.909545898438" lon="2.666713476181"><ele></ele><time>2025-5-12T8:39:32Z</time></trkpt>
<trkpt lat="48.909545898438" lon="2.666713476181"><ele></ele><time>2025-5-12T8:39:35Z</time></trkpt>
<trkpt lat="48.909618377686" lon="2.6667034626007"><ele></ele><time>2025-5-12T8:39:38Z</time></trkpt>
<trkpt lat="48.909706115723" lon="2.6666564941406"><ele></ele><time>2025-5-12T8:39:41Z</time></trkpt>
<trkpt lat="48.909706115723" lon="2.6666564941406"><ele></ele><time>2025-5-12T8:39:44Z</time></trkpt>
<trkpt lat="48.909706115723" lon="2.6666564941406"><ele></ele><time>2025-5-12T8:39:47Z</time></trkpt>
<trkpt lat="48.909797668457" lon="2.6666181087494"><ele></ele><time>2025-5-12T8:39:50Z</time></trkpt>
<trkpt lat="48.909797668457" lon="2.6666181087494"><ele></ele><time>2025-5-12T8:39:53Z</time></trkpt>
<trkpt lat="48.909873962402" lon="2.6665866374969"><ele></ele><time>2025-5-12T8:39:56Z</time></trkpt>
<trkpt lat="48.909976959229" lon="2.6665749549866"><ele></ele><time>2025-5-12T8:39:59Z</time></trkpt>
<trkpt lat="48.910076141357" lon="2.6666114330292"><ele></ele><time>2025-5-12T8:40:2Z</time></trkpt>
<trkpt lat="48.910133361816" lon="2.6666474342346"><ele></ele><time>2025-5-12T8:40:5Z</time></trkpt>
<trkpt lat="48.910190582275" lon="2.6666893959045"><ele></ele><time>2025-5-12T8:40:8Z</time></trkpt>
<trkpt lat="48.910243988037" lon="2.6667311191559"><ele></ele><time>2025-5-12T8:40:11Z</time></trkpt>
<trkpt lat="48.910243988037" lon="2.6667311191559"><ele></ele><time>2025-5-12T8:40:14Z</time></trkpt>
<trkpt lat="48.910301208496" lon="2.6667790412903"><ele></ele><time>2025-5-12T8:40:17Z</time></trkpt>
<trkpt lat="48.910358428955" lon="2.6668221950531"><ele></ele><time>2025-5-12T8:40:20Z</time></trkpt>
<trkpt lat="48.910419464111" lon="2.6668672561646"><ele></ele><time>2025-5-12T8:40:23Z</time></trkpt>
<trkpt lat="48.910480499268" lon="2.6669063568115"><ele></ele><time>2025-5-12T8:40:26Z</time></trkpt>
<trkpt lat="48.910575866699" lon="2.666951417923"><ele></ele><time>2025-5-12T8:40:29Z</time></trkpt>
<trkpt lat="48.91068649292" lon="2.6669905185699"><ele></ele><time>2025-5-12T8:40:32Z</time></trkpt>
<trkpt lat="48.910747528076" lon="2.6670050621033"><ele></ele><time>2025-5-12T8:40:35Z</time></trkpt>
<trkpt lat="48.910858154297" lon="2.6670389175415"><ele></ele><time>2025-5-12T8:40:38Z</time></trkpt>
<trkpt lat="48.910858154297" lon="2.6670389175415"><ele></ele><time>2025-5-12T8:40:41Z</time></trkpt>
<trkpt lat="48.910953521729" lon="2.6670749187469"><ele></ele><time>2025-5-12T8:40:44Z</time></trkpt>
<trkpt lat="48.910953521729" lon="2.6670749187469"><ele></ele><time>2025-5-12T8:40:47Z</time></trkpt>
<trkpt lat="48.911003112793" lon="2.6670987606049"><ele></ele><time>2025-5-12T8:40:50Z</time></trkpt>
<trkpt lat="48.91104888916" lon="2.6671340465546"><ele></ele><time>2025-5-12T8:40:53Z</time></trkpt>
<trkpt lat="48.911098480225" lon="2.6671788692474"><ele></ele><time>2025-5-12T8:40:56Z</time></trkpt>
<trkpt lat="48.911151885986" lon="2.6672008037567"><ele></ele><time>2025-5-12T8:40:59Z</time></trkpt>
<trkpt lat="48.911205291748" lon="2.6671872138977"><ele></ele><time>2025-5-12T8:41:2Z</time></trkpt>
<trkpt lat="48.911289215088" lon="2.6671028137207"><ele></ele><time>2025-5-12T8:41:5Z</time></trkpt>
<trkpt lat="48.911319732666" lon="2.6670231819153"><ele></ele><time>2025-5-12T8:41:8Z</time></trkpt>
<trkpt lat="48.911319732666" lon="2.6670231819153"><ele></ele><time>2025-5-12T8:41:11Z</time></trkpt>
<trkpt lat="48.9114112854" lon="2.6669178009033"><ele></ele><time>2025-5-12T8:41:14Z</time></trkpt>
<trkpt lat="48.911460876465" lon="2.6668827533722"><ele></ele><time>2025-5-12T8:41:17Z</time></trkpt>
<trkpt lat="48.911552429199" lon="2.6667866706848"><ele></ele><time>2025-5-12T8:41:20Z</time></trkpt>
<trkpt lat="48.911602020264" lon="2.6667425632477"><ele></ele><time>2025-5-12T8:41:23Z</time></trkpt>
<trkpt lat="48.91166305542" lon="2.6667063236237"><ele></ele><time>2025-5-12T8:41:26Z</time></trkpt>
<trkpt lat="48.911731719971" lon="2.6666874885559"><ele></ele><time>2025-5-12T8:41:29Z</time></trkpt>
<trkpt lat="48.911815643311" lon="2.6666638851166"><ele></ele><time>2025-5-12T8:41:32Z</time></trkpt>
<trkpt lat="48.911880493164" lon="2.666642665863"><ele></ele><time>2025-5-12T8:41:35Z</time></trkpt>
<trkpt lat="48.911952972412" lon="2.6666266918182"><ele></ele><time>2025-5-12T8:41:38Z</time></trkpt>
<trkpt lat="48.912021636963" lon="2.6666133403778"><ele></ele><time>2025-5-12T8:41:41Z</time></trkpt>
<trkpt lat="48.912094116211" lon="2.66659116745"><ele></ele><time>2025-5-12T8:41:44Z</time></trkpt>
<trkpt lat="48.91215133667" lon="2.6665730476379"><ele></ele><time>2025-5-12T8:41:47Z</time></trkpt>
<trkpt lat="48.912220001221" lon="2.6665487289429"><ele></ele><time>2025-5-12T8:41:50Z</time></trkpt>
<trkpt lat="48.912292480469" lon="2.666524887085"><ele></ele><time>2025-5-12T8:41:53Z</time></trkpt>
<trkpt lat="48.91236114502" lon="2.666496515274"><ele></ele><time>2025-5-12T8:41:56Z</time></trkpt>
<trkpt lat="48.91242980957" lon="2.6664671897888"><ele></ele><time>2025-5-12T8:41:59Z</time></trkpt>
<trkpt lat="48.912509918213" lon="2.6664361953735"><ele></ele><time>2025-5-12T8:42:2Z</time></trkpt>
<trkpt lat="48.912586212158" lon="2.6664080619812"><ele></ele><time>2025-5-12T8:42:5Z</time></trkpt>
<trkpt lat="48.912666320801" lon="2.6663732528687"><ele></ele><time>2025-5-12T8:42:8Z</time></trkpt>
<trkpt lat="48.912750244141" lon="2.6663465499878"><ele></ele><time>2025-5-12T8:42:11Z</time></trkpt>
<trkpt lat="48.912837982178" lon="2.6663081645966"><ele></ele><time>2025-5-12T8:42:14Z</time></trkpt>
<trkpt lat="48.912925720215" lon="2.6662726402283"><ele></ele><time>2025-5-12T8:42:17Z</time></trkpt>
<trkpt lat="48.913005828857" lon="2.6662502288818"><ele></ele><time>2025-5-12T8:42:20Z</time></trkpt>
<trkpt lat="48.913082122803" lon="2.6662182807922"><ele></ele><time>2025-5-12T8:42:23Z</time></trkpt>
<trkpt lat="48.91316986084" lon="2.6661746501923"><ele></ele><time>2025-5-12T8:42:26Z</time></trkpt>
<trkpt lat="48.913257598877" lon="2.6661269664764"><ele></ele><time>2025-5-12T8:42:29Z</time></trkpt>
<trkpt lat="48.91333770752" lon="2.666074514389"><ele></ele><time>2025-5-12T8:42:32Z</time></trkpt>
<trkpt lat="48.913421630859" lon="2.6660196781158"><ele></ele><time>2025-5-12T8:42:35Z</time></trkpt>
<trkpt lat="48.913509368896" lon="2.665965795517"><ele></ele><time>2025-5-12T8:42:38Z</time></trkpt>
<trkpt lat="48.913600921631" lon="2.6659095287323"><ele></ele><time>2025-5-12T8:42:41Z</time></trkpt>
<trkpt lat="48.913703918457" lon="2.6658511161804"><ele></ele><time>2025-5-12T8:42:44Z</time></trkpt>
<trkpt lat="48.913791656494" lon="2.6658003330231"><ele></ele><time>2025-5-12T8:42:47Z</time></trkpt>
<trkpt lat="48.913875579834" lon="2.6657497882843"><ele></ele><time>2025-5-12T8:42:50Z</time></trkpt>
<trkpt lat="48.913963317871" lon="2.6656923294067"><ele></ele><time>2025-5-12T8:42:53Z</time></trkpt>
<trkpt lat="48.914058685303" lon="2.6656212806702"><ele></ele><time>2025-5-12T8:42:56Z</time></trkpt>
<trkpt lat="48.914127349854" lon="2.6655745506287"><ele></ele><time>2025-5-12T8:42:59Z</time></trkpt>
<trkpt lat="48.914184570312" lon="2.665531873703"><ele></ele><time>2025-5-12T8:43:2Z</time></trkpt>
<trkpt lat="48.914184570312" lon="2.665531873703"><ele></ele><time>2025-5-12T8:43:5Z</time></trkpt>
<trkpt lat="48.914249420166" lon="2.6654019355774"><ele></ele><time>2025-5-12T8:43:8Z</time></trkpt>
<trkpt lat="48.914234161377" lon="2.6653060913086"><ele></ele><time>2025-5-12T8:43:11Z</time></trkpt>
<trkpt lat="48.914196014404" lon="2.6652011871338"><ele></ele><time>2025-5-12T8:43:14Z</time></trkpt>
<trkpt lat="48.914157867432" lon="2.6650855541229"><ele></ele><time>2025-5-12T8:43:17Z</time></trkpt>
<trkpt lat="48.914123535156" lon="2.6649734973907"><ele></ele><time>2025-5-12T8:43:20Z</time></trkpt>
<trkpt lat="48.914093017578" lon="2.6648659706116"><ele></ele><time>2025-5-12T8:43:23Z</time></trkpt>
<trkpt lat="48.914066314697" lon="2.6647644042969"><ele></ele><time>2025-5-12T8:43:26Z</time></trkpt>
<trkpt lat="48.914066314697" lon="2.6647644042969"><ele></ele><time>2025-5-12T8:43:29Z</time></trkpt>
<trkpt lat="48.91402053833" lon="2.6646077632904"><ele></ele><time>2025-5-12T8:43:32Z</time></trkpt>
<trkpt lat="48.913990020752" lon="2.6644976139069"><ele></ele><time>2025-5-12T8:43:35Z</time></trkpt>
<trkpt lat="48.913890838623" lon="2.6640577316284"><ele></ele><time>2025-5-12T8:43:38Z</time></trkpt>
<trkpt lat="48.913833618164" lon="2.663783788681"><ele></ele><time>2025-5-12T8:43:41Z</time></trkpt>
<trkpt lat="48.913780212402" lon="2.6635296344757"><ele></ele><time>2025-5-12T8:43:44Z</time></trkpt>
<trkpt lat="48.913745880127" lon="2.6633088588715"><ele></ele><time>2025-5-12T8:43:47Z</time></trkpt>
<trkpt lat="48.913722991943" lon="2.6631350517273"><ele></ele><time>2025-5-12T8:43:50Z</time></trkpt>
<trkpt lat="48.913707733154" lon="2.6629636287689"><ele></ele><time>2025-5-12T8:43:53Z</time></trkpt>
<trkpt lat="48.913711547852" lon="2.6627757549286"><ele></ele><time>2025-5-12T8:43:56Z</time></trkpt>
<trkpt lat="48.913719177246" lon="2.6625778675079"><ele></ele><time>2025-5-12T8:43:59Z</time></trkpt>
<trkpt lat="48.913703918457" lon="2.6624257564545"><ele></ele><time>2025-5-12T8:44:2Z</time></trkpt>
<trkpt lat="48.913669586182" lon="2.6622443199158"><ele></ele><time>2025-5-12T8:44:5Z</time></trkpt>
<trkpt lat="48.913669586182" lon="2.6622443199158"><ele></ele><time>2025-5-12T8:44:8Z</time></trkpt>
<trkpt lat="48.913650512695" lon="2.6620645523071"><ele></ele><time>2025-5-12T8:44:11Z</time></trkpt>
<trkpt lat="48.913669586182" lon="2.6618692874908"><ele></ele><time>2025-5-12T8:44:14Z</time></trkpt>
<trkpt lat="48.913677215576" lon="2.6616885662079"><ele></ele><time>2025-5-12T8:44:17Z</time></trkpt>
<trkpt lat="48.913681030273" lon="2.6615245342255"><ele></ele><time>2025-5-12T8:44:20Z</time></trkpt>
<trkpt lat="48.913681030273" lon="2.6613790988922"><ele></ele><time>2025-5-12T8:44:23Z</time></trkpt>
<trkpt lat="48.913681030273" lon="2.6613790988922"><ele></ele><time>2025-5-12T8:44:26Z</time></trkpt>
<trkpt lat="48.913681030273" lon="2.6613790988922"><ele></ele><time>2025-5-12T8:44:29Z</time></trkpt>
<trkpt lat="48.913681030273" lon="2.6610569953918"><ele></ele><time>2025-5-12T8:44:32Z</time></trkpt>
<trkpt lat="48.913661956787" lon="2.6608889102936"><ele></ele><time>2025-5-12T8:44:35Z</time></trkpt>
<trkpt lat="48.913646697998" lon="2.6607592105865"><ele></ele><time>2025-5-12T8:44:38Z</time></trkpt>
<trkpt lat="48.913646697998" lon="2.6607592105865"><ele></ele><time>2025-5-12T8:44:41Z</time></trkpt>
<trkpt lat="48.913627624512" lon="2.660623550415"><ele></ele><time>2025-5-12T8:44:44Z</time></trkpt>
<trkpt lat="48.91361618042" lon="2.6604676246643"><ele></ele><time>2025-5-12T8:44:47Z</time></trkpt>
<trkpt lat="48.913627624512" lon="2.6603026390076"><ele></ele><time>2025-5-12T8:44:50Z</time></trkpt>
<trkpt lat="48.913627624512" lon="2.6603026390076"><ele></ele><time>2025-5-12T8:44:53Z</time></trkpt>
<trkpt lat="48.913650512695" lon="2.6601495742798"><ele></ele><time>2025-5-12T8:44:56Z</time></trkpt>
<trkpt lat="48.913677215576" lon="2.6599998474121"><ele></ele><time>2025-5-12T8:44:59Z</time></trkpt>
<trkpt lat="48.913703918457" lon="2.6598551273346"><ele></ele><time>2025-5-12T8:45:2Z</time></trkpt>
<trkpt lat="48.913703918457" lon="2.6598551273346"><ele></ele><time>2025-5-12T8:45:5Z</time></trkpt>
<trkpt lat="48.913730621338" lon="2.6597247123718"><ele></ele><time>2025-5-12T8:45:8Z</time></trkpt>
<trkpt lat="48.913753509521" lon="2.659600019455"><ele></ele><time>2025-5-12T8:45:11Z</time></trkpt>
<trkpt lat="48.913772583008" lon="2.6595003604889"><ele></ele><time>2025-5-12T8:45:14Z</time></trkpt>
<trkpt lat="48.913772583008" lon="2.6595003604889"><ele></ele><time>2025-5-12T8:45:17Z</time></trkpt>
<trkpt lat="48.913787841797" lon="2.6594038009644"><ele></ele><time>2025-5-12T8:45:20Z</time></trkpt>
<trkpt lat="48.913787841797" lon="2.6594038009644"><ele></ele><time>2025-5-12T8:45:23Z</time></trkpt>
<trkpt lat="48.913803100586" lon="2.6592288017273"><ele></ele><time>2025-5-12T8:45:26Z</time></trkpt>
<trkpt lat="48.913803100586" lon="2.6592288017273"><ele></ele><time>2025-5-12T8:45:29Z</time></trkpt>
<trkpt lat="48.91381072998" lon="2.659113407135"><ele></ele><time>2025-5-12T8:45:32Z</time></trkpt>
<trkpt lat="48.913818359375" lon="2.6589992046356"><ele></ele><time>2025-5-12T8:45:35Z</time></trkpt>
<trkpt lat="48.913829803467" lon="2.6589105129242"><ele></ele><time>2025-5-12T8:45:38Z</time></trkpt>
<trkpt lat="48.913833618164" lon="2.6588101387024"><ele></ele><time>2025-5-12T8:45:41Z</time></trkpt>
<trkpt lat="48.91382598877" lon="2.6587195396423"><ele></ele><time>2025-5-12T8:45:44Z</time></trkpt>
<trkpt lat="48.91382598877" lon="2.6587195396423"><ele></ele><time>2025-5-12T8:45:47Z</time></trkpt>
<trkpt lat="48.913745880127" lon="2.6585595607758"><ele></ele><time>2025-5-12T8:45:50Z</time></trkpt>
<trkpt lat="48.913677215576" lon="2.6584944725037"><ele></ele><time>2025-5-12T8:45:53Z</time></trkpt>
<trkpt lat="48.913627624512" lon="2.6584370136261"><ele></ele><time>2025-5-12T8:45:56Z</time></trkpt>
<trkpt lat="48.913551330566" lon="2.6584131717682"><ele></ele><time>2025-5-12T8:45:59Z</time></trkpt>
<trkpt lat="48.913459777832" lon="2.6584060192108"><ele></ele><time>2025-5-12T8:46:2Z</time></trkpt>
<trkpt lat="48.91333770752" lon="2.6583948135376"><ele></ele><time>2025-5-12T8:46:5Z</time></trkpt>
<trkpt lat="48.913185119629" lon="2.6583681106567"><ele></ele><time>2025-5-12T8:46:8Z</time></trkpt>
<trkpt lat="48.913040161133" lon="2.6583364009857"><ele></ele><time>2025-5-12T8:46:11Z</time></trkpt>
<trkpt lat="48.912887573242" lon="2.6582958698273"><ele></ele><time>2025-5-12T8:46:14Z</time></trkpt>
<trkpt lat="48.912750244141" lon="2.6582486629486"><ele></ele><time>2025-5-12T8:46:17Z</time></trkpt>
<trkpt lat="48.912601470947" lon="2.6581916809082"><ele></ele><time>2025-5-12T8:46:20Z</time></trkpt>
<trkpt lat="48.912433624268" lon="2.6581346988678"><ele></ele><time>2025-5-12T8:46:23Z</time></trkpt>
<trkpt lat="48.912250518799" lon="2.6580684185028"><ele></ele><time>2025-5-12T8:46:26Z</time></trkpt>
<trkpt lat="48.912075042725" lon="2.6579992771149"><ele></ele><time>2025-5-12T8:46:29Z</time></trkpt>
<trkpt lat="48.911903381348" lon="2.6579432487488"><ele></ele><time>2025-5-12T8:46:32Z</time></trkpt>
<trkpt lat="48.911743164062" lon="2.657913684845"><ele></ele><time>2025-5-12T8:46:35Z</time></trkpt>
<trkpt lat="48.911563873291" lon="2.6579110622406"><ele></ele><time>2025-5-12T8:46:38Z</time></trkpt>
<trkpt lat="48.911399841309" lon="2.6579167842865"><ele></ele><time>2025-5-12T8:46:41Z</time></trkpt>
<trkpt lat="48.911235809326" lon="2.6579155921936"><ele></ele><time>2025-5-12T8:46:44Z</time></trkpt>
<trkpt lat="48.91109085083" lon="2.657886505127"><ele></ele><time>2025-5-12T8:46:47Z</time></trkpt>
<trkpt lat="48.910953521729" lon="2.657790184021"><ele></ele><time>2025-5-12T8:46:50Z</time></trkpt>
<trkpt lat="48.910820007324" lon="2.657678604126"><ele></ele><time>2025-5-12T8:46:53Z</time></trkpt>
<trkpt lat="48.910694122314" lon="2.6575584411621"><ele></ele><time>2025-5-12T8:46:56Z</time></trkpt>
<trkpt lat="48.910568237305" lon="2.6574347019196"><ele></ele><time>2025-5-12T8:46:59Z</time></trkpt>
<trkpt lat="48.910442352295" lon="2.6573061943054"><ele></ele><time>2025-5-12T8:47:2Z</time></trkpt>
<trkpt lat="48.910308837891" lon="2.6571695804596"><ele></ele><time>2025-5-12T8:47:5Z</time></trkpt>
<trkpt lat="48.910182952881" lon="2.657041311264"><ele></ele><time>2025-5-12T8:47:8Z</time></trkpt>
<trkpt lat="48.910057067871" lon="2.6569130420685"><ele></ele><time>2025-5-12T8:47:11Z</time></trkpt>
<trkpt lat="48.909954071045" lon="2.6568119525909"><ele></ele><time>2025-5-12T8:47:14Z</time></trkpt>
<trkpt lat="48.909843444824" lon="2.6567013263702"><ele></ele><time>2025-5-12T8:47:17Z</time></trkpt>
<trkpt lat="48.909721374512" lon="2.6565825939178"><ele></ele><time>2025-5-12T8:47:20Z</time></trkpt>
<trkpt lat="48.909595489502" lon="2.656448841095"><ele></ele><time>2025-5-12T8:47:23Z</time></trkpt>
<trkpt lat="48.909473419189" lon="2.6563301086426"><ele></ele><time>2025-5-12T8:47:26Z</time></trkpt>
<trkpt lat="48.90934753418" lon="2.6562268733978"><ele></ele><time>2025-5-12T8:47:29Z</time></trkpt>
<trkpt lat="48.909210205078" lon="2.6561300754547"><ele></ele><time>2025-5-12T8:47:32Z</time></trkpt>
<trkpt lat="48.909061431885" lon="2.6560366153717"><ele></ele><time>2025-5-12T8:47:35Z</time></trkpt>
<trkpt lat="48.908893585205" lon="2.6559433937073"><ele></ele><time>2025-5-12T8:47:38Z</time></trkpt>
<trkpt lat="48.908729553223" lon="2.6558749675751"><ele></ele><time>2025-5-12T8:47:41Z</time></trkpt>
<trkpt lat="48.908550262451" lon="2.6557924747467"><ele></ele><time>2025-5-12T8:47:44Z</time></trkpt>
<trkpt lat="48.908363342285" lon="2.6557140350342"><ele></ele><time>2025-5-12T8:47:47Z</time></trkpt>
<trkpt lat="48.908184051514" lon="2.6556422710419"><ele></ele><time>2025-5-12T8:47:50Z</time></trkpt>
<trkpt lat="48.90799331665" lon="2.6555626392365"><ele></ele><time>2025-5-12T8:47:53Z</time></trkpt>
<trkpt lat="48.907806396484" lon="2.6554837226868"><ele></ele><time>2025-5-12T8:47:56Z</time></trkpt>
<trkpt lat="48.907623291016" lon="2.6554083824158"><ele></ele><time>2025-5-12T8:47:59Z</time></trkpt>
<trkpt lat="48.907428741455" lon="2.6553249359131"><ele></ele><time>2025-5-12T8:48:2Z</time></trkpt>
<trkpt lat="48.907257080078" lon="2.6552412509918"><ele></ele><time>2025-5-12T8:48:5Z</time></trkpt>
<trkpt lat="48.907093048096" lon="2.6551470756531"><ele></ele><time>2025-5-12T8:48:8Z</time></trkpt>
<trkpt lat="48.906936645508" lon="2.6550402641296"><ele></ele><time>2025-5-12T8:48:11Z</time></trkpt>
<trkpt lat="48.906795501709" lon="2.6549396514893"><ele></ele><time>2025-5-12T8:48:14Z</time></trkpt>
<trkpt lat="48.90665435791" lon="2.6548335552216"><ele></ele><time>2025-5-12T8:48:17Z</time></trkpt>
<trkpt lat="48.9065284729" lon="2.6547210216522"><ele></ele><time>2025-5-12T8:48:20Z</time></trkpt>
<trkpt lat="48.906394958496" lon="2.6545939445496"><ele></ele><time>2025-5-12T8:48:23Z</time></trkpt>
<trkpt lat="48.906272888184" lon="2.6544671058655"><ele></ele><time>2025-5-12T8:48:26Z</time></trkpt>
<trkpt lat="48.906147003174" lon="2.6543276309967"><ele></ele><time>2025-5-12T8:48:29Z</time></trkpt>
<trkpt lat="48.906036376953" lon="2.6541941165924"><ele></ele><time>2025-5-12T8:48:32Z</time></trkpt>
<trkpt lat="48.905921936035" lon="2.6540503501892"><ele></ele><time>2025-5-12T8:48:35Z</time></trkpt>
<trkpt lat="48.905811309814" lon="2.653920173645"><ele></ele><time>2025-5-12T8:48:38Z</time></trkpt>
<trkpt lat="48.905696868896" lon="2.6537992954254"><ele></ele><time>2025-5-12T8:48:41Z</time></trkpt>
<trkpt lat="48.905586242676" lon="2.6536877155304"><ele></ele><time>2025-5-12T8:48:44Z</time></trkpt>
<trkpt lat="48.90548324585" lon="2.6535789966583"><ele></ele><time>2025-5-12T8:48:47Z</time></trkpt>
<trkpt lat="48.905380249023" lon="2.6534774303436"><ele></ele><time>2025-5-12T8:48:50Z</time></trkpt>
<trkpt lat="48.905292510986" lon="2.653391122818"><ele></ele><time>2025-5-12T8:48:53Z</time></trkpt>
<trkpt lat="48.905185699463" lon="2.6532950401306"><ele></ele><time>2025-5-12T8:48:56Z</time></trkpt>
<trkpt lat="48.905086517334" lon="2.6532018184662"><ele></ele><time>2025-5-12T8:48:59Z</time></trkpt>
<trkpt lat="48.9049949646" lon="2.6531074047089"><ele></ele><time>2025-5-12T8:49:2Z</time></trkpt>
<trkpt lat="48.9049949646" lon="2.6531074047089"><ele></ele><time>2025-5-12T8:49:5Z</time></trkpt>
<trkpt lat="48.904899597168" lon="2.6530160903931"><ele></ele><time>2025-5-12T8:49:8Z</time></trkpt>
<trkpt lat="48.904800415039" lon="2.6529173851013"><ele></ele><time>2025-5-12T8:49:11Z</time></trkpt>
<trkpt lat="48.904693603516" lon="2.6528103351593"><ele></ele><time>2025-5-12T8:49:14Z</time></trkpt>
<trkpt lat="48.904590606689" lon="2.652713060379"><ele></ele><time>2025-5-12T8:49:17Z</time></trkpt>
<trkpt lat="48.904487609863" lon="2.652615070343"><ele></ele><time>2025-5-12T8:49:20Z</time></trkpt>
<trkpt lat="48.904399871826" lon="2.6525359153748"><ele></ele><time>2025-5-12T8:49:23Z</time></trkpt>
<trkpt lat="48.904300689697" lon="2.6524469852448"><ele></ele><time>2025-5-12T8:49:26Z</time></trkpt>
<trkpt lat="48.904193878174" lon="2.6523635387421"><ele></ele><time>2025-5-12T8:49:29Z</time></trkpt>
<trkpt lat="48.904090881348" lon="2.6522834300995"><ele></ele><time>2025-5-12T8:49:32Z</time></trkpt>
<trkpt lat="48.903980255127" lon="2.6522014141083"><ele></ele><time>2025-5-12T8:49:35Z</time></trkpt>
<trkpt lat="48.903877258301" lon="2.6521232128143"><ele></ele><time>2025-5-12T8:49:38Z</time></trkpt>
<trkpt lat="48.903778076172" lon="2.6520445346832"><ele></ele><time>2025-5-12T8:49:41Z</time></trkpt>
<trkpt lat="48.90368270874" lon="2.6519572734833"><ele></ele><time>2025-5-12T8:49:44Z</time></trkpt>
<trkpt lat="48.903591156006" lon="2.6518669128418"><ele></ele><time>2025-5-12T8:49:47Z</time></trkpt>
<trkpt lat="48.903591156006" lon="2.6518669128418"><ele></ele><time>2025-5-12T8:49:50Z</time></trkpt>
<trkpt lat="48.903511047363" lon="2.6517617702484"><ele></ele><time>2025-5-12T8:49:53Z</time></trkpt>
<trkpt lat="48.903438568115" lon="2.6516444683075"><ele></ele><time>2025-5-12T8:49:56Z</time></trkpt>
<trkpt lat="48.903366088867" lon="2.6515145301819"><ele></ele><time>2025-5-12T8:49:59Z</time></trkpt>
<trkpt lat="48.903366088867" lon="2.6515145301819"><ele></ele><time>2025-5-12T8:50:2Z</time></trkpt>
<trkpt lat="48.903305053711" lon="2.6513864994049"><ele></ele><time>2025-5-12T8:50:5Z</time></trkpt>
<trkpt lat="48.903247833252" lon="2.651270866394"><ele></ele><time>2025-5-12T8:50:8Z</time></trkpt>
<trkpt lat="48.903190612793" lon="2.6511421203613"><ele></ele><time>2025-5-12T8:50:11Z</time></trkpt>
<trkpt lat="48.903141021729" lon="2.6510248184204"><ele></ele><time>2025-5-12T8:50:14Z</time></trkpt>
<trkpt lat="48.90308380127" lon="2.6508958339691"><ele></ele><time>2025-5-12T8:50:17Z</time></trkpt>
<trkpt lat="48.90308380127" lon="2.6508958339691"><ele></ele><time>2025-5-12T8:50:20Z</time></trkpt>
<trkpt lat="48.903030395508" lon="2.6507551670074"><ele></ele><time>2025-5-12T8:50:23Z</time></trkpt>
<trkpt lat="48.902976989746" lon="2.6506354808807"><ele></ele><time>2025-5-12T8:50:26Z</time></trkpt>
<trkpt lat="48.902931213379" lon="2.6505308151245"><ele></ele><time>2025-5-12T8:50:29Z</time></trkpt>
<trkpt lat="48.902931213379" lon="2.6505308151245"><ele></ele><time>2025-5-12T8:50:32Z</time></trkpt>
<trkpt lat="48.902866363525" lon="2.6503841876984"><ele></ele><time>2025-5-12T8:50:35Z</time></trkpt>
<trkpt lat="48.902809143066" lon="2.6502544879913"><ele></ele><time>2025-5-12T8:50:38Z</time></trkpt>
<trkpt lat="48.902744293213" lon="2.6501262187958"><ele></ele><time>2025-5-12T8:50:41Z</time></trkpt>
<trkpt lat="48.902744293213" lon="2.6501262187958"><ele></ele><time>2025-5-12T8:50:44Z</time></trkpt>
<trkpt lat="48.902671813965" lon="2.6500058174133"><ele></ele><time>2025-5-12T8:50:47Z</time></trkpt>
<trkpt lat="48.90259552002" lon="2.6498856544495"><ele></ele><time>2025-5-12T8:50:50Z</time></trkpt>
<trkpt lat="48.902519226074" lon="2.6497824192047"><ele></ele><time>2025-5-12T8:50:53Z</time></trkpt>
<trkpt lat="48.902519226074" lon="2.6497824192047"><ele></ele><time>2025-5-12T8:50:56Z</time></trkpt>
<trkpt lat="48.90242767334" lon="2.649685382843"><ele></ele><time>2025-5-12T8:50:59Z</time></trkpt>
<trkpt lat="48.902336120605" lon="2.6496012210846"><ele></ele><time>2025-5-12T8:51:2Z</time></trkpt>
<trkpt lat="48.902240753174" lon="2.6495101451874"><ele></ele><time>2025-5-12T8:51:5Z</time></trkpt>
<trkpt lat="48.902240753174" lon="2.6495101451874"><ele></ele><time>2025-5-12T8:51:8Z</time></trkpt>
<trkpt lat="48.902141571045" lon="2.6494195461273"><ele></ele><time>2025-5-12T8:51:11Z</time></trkpt>
<trkpt lat="48.902030944824" lon="2.6493182182312"><ele></ele><time>2025-5-12T8:51:14Z</time></trkpt>
<trkpt lat="48.901912689209" lon="2.6492300033569"><ele></ele><time>2025-5-12T8:51:17Z</time></trkpt>
<trkpt lat="48.901912689209" lon="2.6492300033569"><ele></ele><time>2025-5-12T8:51:20Z</time></trkpt>
<trkpt lat="48.901794433594" lon="2.6491439342499"><ele></ele><time>2025-5-12T8:51:23Z</time></trkpt>
<trkpt lat="48.901679992676" lon="2.6490452289581"><ele></ele><time>2025-5-12T8:51:26Z</time></trkpt>
<trkpt lat="48.901561737061" lon="2.6489729881287"><ele></ele><time>2025-5-12T8:51:29Z</time></trkpt>
<trkpt lat="48.901561737061" lon="2.6489729881287"><ele></ele><time>2025-5-12T8:51:32Z</time></trkpt>
<trkpt lat="48.901473999023" lon="2.6489067077637"><ele></ele><time>2025-5-12T8:51:35Z</time></trkpt>
<trkpt lat="48.901424407959" lon="2.6488513946533"><ele></ele><time>2025-5-12T8:51:38Z</time></trkpt>
<trkpt lat="48.901424407959" lon="2.6488513946533"><ele></ele><time>2025-5-12T8:51:41Z</time></trkpt>
<trkpt lat="48.901363372803" lon="2.6487212181091"><ele></ele><time>2025-5-12T8:51:44Z</time></trkpt>
<trkpt lat="48.901294708252" lon="2.648627281189"><ele></ele><time>2025-5-12T8:51:47Z</time></trkpt>
<trkpt lat="48.901222229004" lon="2.6485455036163"><ele></ele><time>2025-5-12T8:51:50Z</time></trkpt>
<trkpt lat="48.901138305664" lon="2.6484668254852"><ele></ele><time>2025-5-12T8:51:53Z</time></trkpt>
<trkpt lat="48.901035308838" lon="2.6483864784241"><ele></ele><time>2025-5-12T8:51:56Z</time></trkpt>
<trkpt lat="48.900928497314" lon="2.6483047008514"><ele></ele><time>2025-5-12T8:51:59Z</time></trkpt>
<trkpt lat="48.900814056396" lon="2.6482326984406"><ele></ele><time>2025-5-12T8:52:2Z</time></trkpt>
<trkpt lat="48.900691986084" lon="2.6481726169586"><ele></ele><time>2025-5-12T8:52:5Z</time></trkpt>
<trkpt lat="48.900577545166" lon="2.6481356620789"><ele></ele><time>2025-5-12T8:52:8Z</time></trkpt>
<trkpt lat="48.900463104248" lon="2.6481199264526"><ele></ele><time>2025-5-12T8:52:11Z</time></trkpt>
<trkpt lat="48.900310516357" lon="2.6480939388275"><ele></ele><time>2025-5-12T8:52:14Z</time></trkpt>
<trkpt lat="48.900161743164" lon="2.6480782032013"><ele></ele><time>2025-5-12T8:52:17Z</time></trkpt>
<trkpt lat="48.900005340576" lon="2.6480703353882"><ele></ele><time>2025-5-12T8:52:20Z</time></trkpt>
<trkpt lat="48.899883270264" lon="2.6480734348297"><ele></ele><time>2025-5-12T8:52:23Z</time></trkpt>
<trkpt lat="48.899757385254" lon="2.6480786800385"><ele></ele><time>2025-5-12T8:52:26Z</time></trkpt>
<trkpt lat="48.899475097656" lon="2.6480600833893"><ele></ele><time>2025-5-12T8:52:29Z</time></trkpt>
<trkpt lat="48.899295806885" lon="2.6480295658112"><ele></ele><time>2025-5-12T8:52:32Z</time></trkpt>
<trkpt lat="48.899295806885" lon="2.6480295658112"><ele></ele><time>2025-5-12T8:52:35Z</time></trkpt>
<trkpt lat="48.899147033691" lon="2.6479258537292"><ele></ele><time>2025-5-12T8:52:38Z</time></trkpt>
<trkpt lat="48.899021148682" lon="2.6478130817413"><ele></ele><time>2025-5-12T8:52:41Z</time></trkpt>
<trkpt lat="48.898906707764" lon="2.647688627243"><ele></ele><time>2025-5-12T8:52:44Z</time></trkpt>
<trkpt lat="48.898906707764" lon="2.647688627243"><ele></ele><time>2025-5-12T8:52:47Z</time></trkpt>
<trkpt lat="48.898807525635" lon="2.6475777626038"><ele></ele><time>2025-5-12T8:52:50Z</time></trkpt>
<trkpt lat="48.898708343506" lon="2.6474595069885"><ele></ele><time>2025-5-12T8:52:53Z</time></trkpt>
<trkpt lat="48.898601531982" lon="2.64732670784"><ele></ele><time>2025-5-12T8:52:56Z</time></trkpt>
<trkpt lat="48.898498535156" lon="2.6472039222717"><ele></ele><time>2025-5-12T8:52:59Z</time></trkpt>
<trkpt lat="48.89839553833" lon="2.6470873355865"><ele></ele><time>2025-5-12T8:53:2Z</time></trkpt>
<trkpt lat="48.89839553833" lon="2.6470873355865"><ele></ele><time>2025-5-12T8:53:5Z</time></trkpt>
<trkpt lat="48.898315429688" lon="2.647002696991"><ele></ele><time>2025-5-12T8:53:8Z</time></trkpt>
<trkpt lat="48.898212432861" lon="2.6468923091888"><ele></ele><time>2025-5-12T8:53:11Z</time></trkpt>
<trkpt lat="48.898109436035" lon="2.6467862129211"><ele></ele><time>2025-5-12T8:53:14Z</time></trkpt>
<trkpt lat="48.898109436035" lon="2.6467862129211"><ele></ele><time>2025-5-12T8:53:17Z</time></trkpt>
<trkpt lat="48.898010253906" lon="2.6466779708862"><ele></ele><time>2025-5-12T8:53:20Z</time></trkpt>
<trkpt lat="48.897922515869" lon="2.6465809345245"><ele></ele><time>2025-5-12T8:53:23Z</time></trkpt>
<trkpt lat="48.897827148438" lon="2.6464779376984"><ele></ele><time>2025-5-12T8:53:26Z</time></trkpt>
<trkpt lat="48.897827148438" lon="2.6464779376984"><ele></ele><time>2025-5-12T8:53:29Z</time></trkpt>
<trkpt lat="48.897727966309" lon="2.6463694572449"><ele></ele><time>2025-5-12T8:53:32Z</time></trkpt>
<trkpt lat="48.897636413574" lon="2.6462695598602"><ele></ele><time>2025-5-12T8:53:35Z</time></trkpt>
<trkpt lat="48.897575378418" lon="2.6461861133575"><ele></ele><time>2025-5-12T8:53:38Z</time></trkpt>
<trkpt lat="48.897575378418" lon="2.6461861133575"><ele></ele><time>2025-5-12T8:53:41Z</time></trkpt>
<trkpt lat="48.897533416748" lon="2.6460790634155"><ele></ele><time>2025-5-12T8:53:44Z</time></trkpt>
<trkpt lat="48.897552490234" lon="2.6459228992462"><ele></ele><time>2025-5-12T8:53:47Z</time></trkpt>
<trkpt lat="48.897552490234" lon="2.6458270549774"><ele></ele><time>2025-5-12T8:53:50Z</time></trkpt>
<trkpt lat="48.897552490234" lon="2.6458270549774"><ele></ele><time>2025-5-12T8:53:53Z</time></trkpt>
<trkpt lat="48.897510528564" lon="2.6457557678223"><ele></ele><time>2025-5-12T8:53:56Z</time></trkpt>
<trkpt lat="48.897510528564" lon="2.6457557678223"><ele></ele><time>2025-5-12T8:53:59Z</time></trkpt>
<trkpt lat="48.897510528564" lon="2.6457557678223"><ele></ele><time>2025-5-12T8:54:2Z</time></trkpt>
<trkpt lat="48.897472381592" lon="2.6456725597382"><ele></ele><time>2025-5-12T8:54:5Z</time></trkpt>
<trkpt lat="48.897472381592" lon="2.6456725597382"><ele></ele><time>2025-5-12T8:54:8Z</time></trkpt>
<trkpt lat="48.897445678711" lon="2.6455781459808"><ele></ele><time>2025-5-12T8:54:11Z</time></trkpt>
<trkpt lat="48.897445678711" lon="2.6455781459808"><ele></ele><time>2025-5-12T8:54:14Z</time></trkpt>
<trkpt lat="48.897411346436" lon="2.6454577445984"><ele></ele><time>2025-5-12T8:54:17Z</time></trkpt>
<trkpt lat="48.897411346436" lon="2.6454577445984"><ele></ele><time>2025-5-12T8:54:20Z</time></trkpt>
<trkpt lat="48.897388458252" lon="2.6453144550323"><ele></ele><time>2025-5-12T8:54:23Z</time></trkpt>
<trkpt lat="48.897380828857" lon="2.6451659202576"><ele></ele><time>2025-5-12T8:54:26Z</time></trkpt>
<trkpt lat="48.897380828857" lon="2.6451659202576"><ele></ele><time>2025-5-12T8:54:29Z</time></trkpt>
<trkpt lat="48.897380828857" lon="2.6450598239899"><ele></ele><time>2025-5-12T8:54:32Z</time></trkpt>
<trkpt lat="48.897384643555" lon="2.6449427604675"><ele></ele><time>2025-5-12T8:54:35Z</time></trkpt>
<trkpt lat="48.897361755371" lon="2.6448571681976"><ele></ele><time>2025-5-12T8:54:38Z</time></trkpt>
<trkpt lat="48.897361755371" lon="2.6448571681976"><ele></ele><time>2025-5-12T8:54:41Z</time></trkpt>
<trkpt lat="48.897361755371" lon="2.6448571681976"><ele></ele><time>2025-5-12T8:54:44Z</time></trkpt>
<trkpt lat="48.897308349609" lon="2.6447737216949"><ele></ele><time>2025-5-12T8:54:47Z</time></trkpt>
<trkpt lat="48.897235870361" lon="2.6447184085846"><ele></ele><time>2025-5-12T8:54:50Z</time></trkpt>
<trkpt lat="48.897235870361" lon="2.6447184085846"><ele></ele><time>2025-5-12T8:54:53Z</time></trkpt>
<trkpt lat="48.897178649902" lon="2.6446685791016"><ele></ele><time>2025-5-12T8:54:56Z</time></trkpt>
<trkpt lat="48.897178649902" lon="2.6446685791016"><ele></ele><time>2025-5-12T8:54:59Z</time></trkpt>
<trkpt lat="48.897117614746" lon="2.6444387435913"><ele></ele><time>2025-5-12T8:55:2Z</time></trkpt>
<trkpt lat="48.897090911865" lon="2.6443338394165"><ele></ele><time>2025-5-12T8:55:5Z</time></trkpt>
<trkpt lat="48.89705657959" lon="2.644232749939"><ele></ele><time>2025-5-12T8:55:8Z</time></trkpt>
<trkpt lat="48.897010803223" lon="2.6441473960876"><ele></ele><time>2025-5-12T8:55:11Z</time></trkpt>
<trkpt lat="48.896942138672" lon="2.6440718173981"><ele></ele><time>2025-5-12T8:55:14Z</time></trkpt>
<trkpt lat="48.896850585938" lon="2.64399933815"><ele></ele><time>2025-5-12T8:55:17Z</time></trkpt>
<trkpt lat="48.8967628479" lon="2.6439328193665"><ele></ele><time>2025-5-12T8:55:20Z</time></trkpt>
<trkpt lat="48.896671295166" lon="2.6438417434692"><ele></ele><time>2025-5-12T8:55:23Z</time></trkpt>
<trkpt lat="48.896583557129" lon="2.6437284946442"><ele></ele><time>2025-5-12T8:55:26Z</time></trkpt>
<trkpt lat="48.89652633667" lon="2.6436176300049"><ele></ele><time>2025-5-12T8:55:29Z</time></trkpt>
<trkpt lat="48.89652633667" lon="2.6436176300049"><ele></ele><time>2025-5-12T8:55:32Z</time></trkpt>
<trkpt lat="48.896484375" lon="2.6434681415558"><ele></ele><time>2025-5-12T8:55:35Z</time></trkpt>
<trkpt lat="48.896507263184" lon="2.6433556079865"><ele></ele><time>2025-5-12T8:55:38Z</time></trkpt>
<trkpt lat="48.896549224854" lon="2.6432671546936"><ele></ele><time>2025-5-12T8:55:41Z</time></trkpt>
<trkpt lat="48.896583557129" lon="2.6431939601898"><ele></ele><time>2025-5-12T8:55:44Z</time></trkpt>
<trkpt lat="48.896583557129" lon="2.6431939601898"><ele></ele><time>2025-5-12T8:55:47Z</time></trkpt>
<trkpt lat="48.896575927734" lon="2.6430678367615"><ele></ele><time>2025-5-12T8:55:50Z</time></trkpt>
<trkpt lat="48.896575927734" lon="2.6430678367615"><ele></ele><time>2025-5-12T8:55:53Z</time></trkpt>
<trkpt lat="48.896530151367" lon="2.6429607868195"><ele></ele><time>2025-5-12T8:55:56Z</time></trkpt>
<trkpt lat="48.896488189697" lon="2.64288854599"><ele></ele><time>2025-5-12T8:55:59Z</time></trkpt>
<trkpt lat="48.896446228027" lon="2.6428141593933"><ele></ele><time>2025-5-12T8:56:2Z</time></trkpt>
<trkpt lat="48.896389007568" lon="2.6427235603333"><ele></ele><time>2025-5-12T8:56:5Z</time></trkpt>
<trkpt lat="48.896305084229" lon="2.6426265239716"><ele></ele><time>2025-5-12T8:56:8Z</time></trkpt>
<trkpt lat="48.896251678467" lon="2.6425521373749"><ele></ele><time>2025-5-12T8:56:11Z</time></trkpt>
<trkpt lat="48.896198272705" lon="2.6424777507782"><ele></ele><time>2025-5-12T8:56:14Z</time></trkpt>
<trkpt lat="48.896137237549" lon="2.6424007415771"><ele></ele><time>2025-5-12T8:56:17Z</time></trkpt>
<trkpt lat="48.89608001709" lon="2.6423363685608"><ele></ele><time>2025-5-12T8:56:20Z</time></trkpt>
<trkpt lat="48.896030426025" lon="2.6422700881958"><ele></ele><time>2025-5-12T8:56:23Z</time></trkpt>
<trkpt lat="48.895965576172" lon="2.6421749591827"><ele></ele><time>2025-5-12T8:56:26Z</time></trkpt>
<trkpt lat="48.895965576172" lon="2.6421749591827"><ele></ele><time>2025-5-12T8:56:29Z</time></trkpt>
<trkpt lat="48.895904541016" lon="2.6420745849609"><ele></ele><time>2025-5-12T8:56:32Z</time></trkpt>
<trkpt lat="48.895847320557" lon="2.6419854164124"><ele></ele><time>2025-5-12T8:56:35Z</time></trkpt>
<trkpt lat="48.895790100098" lon="2.6418964862823"><ele></ele><time>2025-5-12T8:56:38Z</time></trkpt>
<trkpt lat="48.895790100098" lon="2.6418964862823"><ele></ele><time>2025-5-12T8:56:41Z</time></trkpt>
<trkpt lat="48.895755767822" lon="2.6418168544769"><ele></ele><time>2025-5-12T8:56:44Z</time></trkpt>
<trkpt lat="48.895729064941" lon="2.6417274475098"><ele></ele><time>2025-5-12T8:56:47Z</time></trkpt>
<trkpt lat="48.895729064941" lon="2.6417274475098"><ele></ele><time>2025-5-12T8:56:50Z</time></trkpt>
<trkpt lat="48.895729064941" lon="2.6417274475098"><ele></ele><time>2025-5-12T8:56:53Z</time></trkpt>
<trkpt lat="48.895679473877" lon="2.6415610313416"><ele></ele><time>2025-5-12T8:56:56Z</time></trkpt>
<trkpt lat="48.895645141602" lon="2.6414816379547"><ele></ele><time>2025-5-12T8:56:59Z</time></trkpt>
<trkpt lat="48.895584106445" lon="2.64137840271"><ele></ele><time>2025-5-12T8:57:2Z</time></trkpt>
<trkpt lat="48.895584106445" lon="2.64137840271"><ele></ele><time>2025-5-12T8:57:5Z</time></trkpt>
<trkpt lat="48.895534515381" lon="2.641284942627"><ele></ele><time>2025-5-12T8:57:8Z</time></trkpt>
<trkpt lat="48.895473480225" lon="2.6411683559418"><ele></ele><time>2025-5-12T8:57:11Z</time></trkpt>
<trkpt lat="48.895427703857" lon="2.6410965919495"><ele></ele><time>2025-5-12T8:57:14Z</time></trkpt>
<trkpt lat="48.895427703857" lon="2.6410965919495"><ele></ele><time>2025-5-12T8:57:17Z</time></trkpt>
<trkpt lat="48.895374298096" lon="2.6410222053528"><ele></ele><time>2025-5-12T8:57:20Z</time></trkpt>
<trkpt lat="48.895324707031" lon="2.6409380435944"><ele></ele><time>2025-5-12T8:57:23Z</time></trkpt>
<trkpt lat="48.895267486572" lon="2.6408395767212"><ele></ele><time>2025-5-12T8:57:26Z</time></trkpt>
<trkpt lat="48.895267486572" lon="2.6408395767212"><ele></ele><time>2025-5-12T8:57:29Z</time></trkpt>
<trkpt lat="48.895217895508" lon="2.6407427787781"><ele></ele><time>2025-5-12T8:57:32Z</time></trkpt>
<trkpt lat="48.895164489746" lon="2.6406428813934"><ele></ele><time>2025-5-12T8:57:35Z</time></trkpt>
<trkpt lat="48.895118713379" lon="2.6405429840088"><ele></ele><time>2025-5-12T8:57:38Z</time></trkpt>
<trkpt lat="48.895118713379" lon="2.6405429840088"><ele></ele><time>2025-5-12T8:57:41Z</time></trkpt>
<trkpt lat="48.895050048828" lon="2.6404206752777"><ele></ele><time>2025-5-12T8:57:44Z</time></trkpt>
<trkpt lat="48.894989013672" lon="2.6403014659882"><ele></ele><time>2025-5-12T8:57:47Z</time></trkpt>
<trkpt lat="48.894931793213" lon="2.6401958465576"><ele></ele><time>2025-5-12T8:57:50Z</time></trkpt>
<trkpt lat="48.894931793213" lon="2.6401958465576"><ele></ele><time>2025-5-12T8:57:53Z</time></trkpt>
<trkpt lat="48.894870758057" lon="2.6400942802429"><ele></ele><time>2025-5-12T8:57:56Z</time></trkpt>
<trkpt lat="48.894805908203" lon="2.6399791240692"><ele></ele><time>2025-5-12T8:57:59Z</time></trkpt>
<trkpt lat="48.894748687744" lon="2.6398680210114"><ele></ele><time>2025-5-12T8:58:2Z</time></trkpt>
<trkpt lat="48.894748687744" lon="2.6398680210114"><ele></ele><time>2025-5-12T8:58:5Z</time></trkpt>
<trkpt lat="48.894687652588" lon="2.6397528648376"><ele></ele><time>2025-5-12T8:58:8Z</time></trkpt>
<trkpt lat="48.894611358643" lon="2.639607667923"><ele></ele><time>2025-5-12T8:58:11Z</time></trkpt>
<trkpt lat="48.89453125" lon="2.6394670009613"><ele></ele><time>2025-5-12T8:58:14Z</time></trkpt>
<trkpt lat="48.89453125" lon="2.6394670009613"><ele></ele><time>2025-5-12T8:58:17Z</time></trkpt>
<trkpt lat="48.894458770752" lon="2.6393346786499"><ele></ele><time>2025-5-12T8:58:20Z</time></trkpt>
<trkpt lat="48.894382476807" lon="2.639181137085"><ele></ele><time>2025-5-12T8:58:23Z</time></trkpt>
<trkpt lat="48.894298553467" lon="2.639016866684"><ele></ele><time>2025-5-12T8:58:26Z</time></trkpt>
<trkpt lat="48.894298553467" lon="2.639016866684"><ele></ele><time>2025-5-12T8:58:29Z</time></trkpt>
<trkpt lat="48.894229888916" lon="2.6388869285583"><ele></ele><time>2025-5-12T8:58:32Z</time></trkpt>
<trkpt lat="48.894165039062" lon="2.6387820243835"><ele></ele><time>2025-5-12T8:58:35Z</time></trkpt>
<trkpt lat="48.894100189209" lon="2.6386709213257"><ele></ele><time>2025-5-12T8:58:38Z</time></trkpt>
<trkpt lat="48.894100189209" lon="2.6386709213257"><ele></ele><time>2025-5-12T8:58:41Z</time></trkpt>
<trkpt lat="48.894031524658" lon="2.6385769844055"><ele></ele><time>2025-5-12T8:58:44Z</time></trkpt>
<trkpt lat="48.893962860107" lon="2.6385381221771"><ele></ele><time>2025-5-12T8:58:47Z</time></trkpt>
<trkpt lat="48.893882751465" lon="2.638543844223"><ele></ele><time>2025-5-12T8:58:50Z</time></trkpt>
<trkpt lat="48.893882751465" lon="2.638543844223"><ele></ele><time>2025-5-12T8:58:53Z</time></trkpt>
<trkpt lat="48.89380645752" lon="2.6385560035706"><ele></ele><time>2025-5-12T8:58:56Z</time></trkpt>
<trkpt lat="48.893730163574" lon="2.6385700702667"><ele></ele><time>2025-5-12T8:58:59Z</time></trkpt>
<trkpt lat="48.893657684326" lon="2.6385805606842"><ele></ele><time>2025-5-12T8:59:2Z</time></trkpt>
<trkpt lat="48.893657684326" lon="2.6385805606842"><ele></ele><time>2025-5-12T8:59:5Z</time></trkpt>
<trkpt lat="48.893585205078" lon="2.6385898590088"><ele></ele><time>2025-5-12T8:59:8Z</time></trkpt>
<trkpt lat="48.893508911133" lon="2.6385743618011"><ele></ele><time>2025-5-12T8:59:11Z</time></trkpt>
<trkpt lat="48.893451690674" lon="2.6385250091553"><ele></ele><time>2025-5-12T8:59:14Z</time></trkpt>
<trkpt lat="48.893451690674" lon="2.6385250091553"><ele></ele><time>2025-5-12T8:59:17Z</time></trkpt>
<trkpt lat="48.893398284912" lon="2.638423204422"><ele></ele><time>2025-5-12T8:59:20Z</time></trkpt>
<trkpt lat="48.893348693848" lon="2.6383118629456"><ele></ele><time>2025-5-12T8:59:23Z</time></trkpt>
<trkpt lat="48.893310546875" lon="2.6382291316986"><ele></ele><time>2025-5-12T8:59:26Z</time></trkpt>
<trkpt lat="48.893310546875" lon="2.6382291316986"><ele></ele><time>2025-5-12T8:59:29Z</time></trkpt>
<trkpt lat="48.893310546875" lon="2.6382291316986"><ele></ele><time>2025-5-12T8:59:32Z</time></trkpt>
<trkpt lat="48.893238067627" lon="2.6382477283478"><ele></ele><time>2025-5-12T8:59:35Z</time></trkpt>
<trkpt lat="48.893238067627" lon="2.6382477283478"><ele></ele><time>2025-5-12T8:59:38Z</time></trkpt>
<trkpt lat="48.893188476562" lon="2.6382019519806"><ele></ele><time>2025-5-12T8:59:41Z</time></trkpt>
<trkpt lat="48.893135070801" lon="2.6381096839905"><ele></ele><time>2025-5-12T8:59:44Z</time></trkpt>
<trkpt lat="48.893093109131" lon="2.6380176544189"><ele></ele><time>2025-5-12T8:59:47Z</time></trkpt>
<trkpt lat="48.893093109131" lon="2.6380176544189"><ele></ele><time>2025-5-12T8:59:50Z</time></trkpt>
<trkpt lat="48.893058776855" lon="2.6379299163818"><ele></ele><time>2025-5-12T8:59:53Z</time></trkpt>
<trkpt lat="48.893009185791" lon="2.6378304958344"><ele></ele><time>2025-5-12T8:59:56Z</time></trkpt>
<trkpt lat="48.892963409424" lon="2.6377277374268"><ele></ele><time>2025-5-12T8:59:59Z</time></trkpt>
<trkpt lat="48.892921447754" lon="2.6376216411591"><ele></ele><time>2025-5-12T9:0:2Z</time></trkpt>
<trkpt lat="48.892871856689" lon="2.6374995708466"><ele></ele><time>2025-5-12T9:0:5Z</time></trkpt>
<trkpt lat="48.892833709717" lon="2.637387752533"><ele></ele><time>2025-5-12T9:0:8Z</time></trkpt>
<trkpt lat="48.892833709717" lon="2.637387752533"><ele></ele><time>2025-5-12T9:0:11Z</time></trkpt>
<trkpt lat="48.892780303955" lon="2.63729429245"><ele></ele><time>2025-5-12T9:0:14Z</time></trkpt>
<trkpt lat="48.892734527588" lon="2.6372292041779"><ele></ele><time>2025-5-12T9:0:17Z</time></trkpt>
<trkpt lat="48.892688751221" lon="2.637152671814"><ele></ele><time>2025-5-12T9:0:20Z</time></trkpt>
<trkpt lat="48.892688751221" lon="2.637152671814"><ele></ele><time>2025-5-12T9:0:23Z</time></trkpt>
<trkpt lat="48.892642974854" lon="2.6370215415955"><ele></ele><time>2025-5-12T9:0:26Z</time></trkpt>
<trkpt lat="48.892608642578" lon="2.6369395256042"><ele></ele><time>2025-5-12T9:0:29Z</time></trkpt>
<trkpt lat="48.892574310303" lon="2.6368494033813"><ele></ele><time>2025-5-12T9:0:32Z</time></trkpt>
<trkpt lat="48.892574310303" lon="2.6368494033813"><ele></ele><time>2025-5-12T9:0:35Z</time></trkpt>
<trkpt lat="48.892539978027" lon="2.6367526054382"><ele></ele><time>2025-5-12T9:0:38Z</time></trkpt>
<trkpt lat="48.892501831055" lon="2.6366574764252"><ele></ele><time>2025-5-12T9:0:41Z</time></trkpt>
<trkpt lat="48.892475128174" lon="2.6365194320679"><ele></ele><time>2025-5-12T9:0:44Z</time></trkpt>
<trkpt lat="48.892475128174" lon="2.6365194320679"><ele></ele><time>2025-5-12T9:0:47Z</time></trkpt>
<trkpt lat="48.89245223999" lon="2.6364092826843"><ele></ele><time>2025-5-12T9:0:50Z</time></trkpt>
<trkpt lat="48.892417907715" lon="2.6363182067871"><ele></ele><time>2025-5-12T9:0:53Z</time></trkpt>
<trkpt lat="48.892375946045" lon="2.6362106800079"><ele></ele><time>2025-5-12T9:0:56Z</time></trkpt>
<trkpt lat="48.892375946045" lon="2.6362106800079"><ele></ele><time>2025-5-12T9:0:59Z</time></trkpt>
<trkpt lat="48.892375946045" lon="2.6362106800079"><ele></ele><time>2025-5-12T9:1:2Z</time></trkpt>
<trkpt lat="48.892375946045" lon="2.6362106800079"><ele></ele><time>2025-5-12T9:1:5Z</time></trkpt>
<trkpt lat="48.892280578613" lon="2.6358852386475"><ele></ele><time>2025-5-12T9:1:8Z</time></trkpt>
<trkpt lat="48.892280578613" lon="2.6358852386475"><ele></ele><time>2025-5-12T9:1:11Z</time></trkpt>
<trkpt lat="48.892139434814" lon="2.6356272697449"><ele></ele><time>2025-5-12T9:1:14Z</time></trkpt>
<trkpt lat="48.892139434814" lon="2.6356272697449"><ele></ele><time>2025-5-12T9:1:17Z</time></trkpt>
<trkpt lat="48.892066955566" lon="2.6355006694794"><ele></ele><time>2025-5-12T9:1:20Z</time></trkpt>
<trkpt lat="48.891986846924" lon="2.6353485584259"><ele></ele><time>2025-5-12T9:1:23Z</time></trkpt>
<trkpt lat="48.891914367676" lon="2.6351888179779"><ele></ele><time>2025-5-12T9:1:26Z</time></trkpt>
<trkpt lat="48.891914367676" lon="2.6351888179779"><ele></ele><time>2025-5-12T9:1:29Z</time></trkpt>
<trkpt lat="48.891845703125" lon="2.6350374221802"><ele></ele><time>2025-5-12T9:1:32Z</time></trkpt>
<trkpt lat="48.891773223877" lon="2.6348683834076"><ele></ele><time>2025-5-12T9:1:35Z</time></trkpt>
<trkpt lat="48.891689300537" lon="2.6347372531891"><ele></ele><time>2025-5-12T9:1:38Z</time></trkpt>
<trkpt lat="48.891689300537" lon="2.6347372531891"><ele></ele><time>2025-5-12T9:1:41Z</time></trkpt>
<trkpt lat="48.891613006592" lon="2.6346235275269"><ele></ele><time>2025-5-12T9:1:44Z</time></trkpt>
<trkpt lat="48.891563415527" lon="2.63449883461"><ele></ele><time>2025-5-12T9:1:47Z</time></trkpt>
<trkpt lat="48.891529083252" lon="2.6343555450439"><ele></ele><time>2025-5-12T9:1:50Z</time></trkpt>
<trkpt lat="48.891529083252" lon="2.6343555450439"><ele></ele><time>2025-5-12T9:1:53Z</time></trkpt>
<trkpt lat="48.891494750977" lon="2.6342022418976"><ele></ele><time>2025-5-12T9:1:56Z</time></trkpt>
<trkpt lat="48.891452789307" lon="2.6340923309326"><ele></ele><time>2025-5-12T9:1:59Z</time></trkpt>
<trkpt lat="48.891414642334" lon="2.6339929103851"><ele></ele><time>2025-5-12T9:2:2Z</time></trkpt>
<trkpt lat="48.891414642334" lon="2.6339929103851"><ele></ele><time>2025-5-12T9:2:5Z</time></trkpt>
<trkpt lat="48.891368865967" lon="2.6338846683502"><ele></ele><time>2025-5-12T9:2:8Z</time></trkpt>
<trkpt lat="48.891319274902" lon="2.6337828636169"><ele></ele><time>2025-5-12T9:2:11Z</time></trkpt>
<trkpt lat="48.891269683838" lon="2.6337056159973"><ele></ele><time>2025-5-12T9:2:14Z</time></trkpt>
<trkpt lat="48.891269683838" lon="2.6337056159973"><ele></ele><time>2025-5-12T9:2:17Z</time></trkpt>
<trkpt lat="48.891216278076" lon="2.6336333751678"><ele></ele><time>2025-5-12T9:2:20Z</time></trkpt>
<trkpt lat="48.891216278076" lon="2.6336333751678"><ele></ele><time>2025-5-12T9:2:23Z</time></trkpt>
<trkpt lat="48.891147613525" lon="2.6335320472717"><ele></ele><time>2025-5-12T9:2:26Z</time></trkpt>
<trkpt lat="48.891147613525" lon="2.6335320472717"><ele></ele><time>2025-5-12T9:2:29Z</time></trkpt>
<trkpt lat="48.891147613525" lon="2.6335320472717"><ele></ele><time>2025-5-12T9:2:32Z</time></trkpt>
<trkpt lat="48.891075134277" lon="2.6334252357483"><ele></ele><time>2025-5-12T9:2:35Z</time></trkpt>
<trkpt lat="48.891075134277" lon="2.6334252357483"><ele></ele><time>2025-5-12T9:2:38Z</time></trkpt>
<trkpt lat="48.891075134277" lon="2.6334252357483"><ele></ele><time>2025-5-12T9:2:41Z</time></trkpt>
<trkpt lat="48.891025543213" lon="2.6333422660828"><ele></ele><time>2025-5-12T9:2:44Z</time></trkpt>
<trkpt lat="48.891025543213" lon="2.6333422660828"><ele></ele><time>2025-5-12T9:2:47Z</time></trkpt>
<trkpt lat="48.890964508057" lon="2.6332762241364"><ele></ele><time>2025-5-12T9:2:50Z</time></trkpt>
<trkpt lat="48.890964508057" lon="2.6332762241364"><ele></ele><time>2025-5-12T9:2:53Z</time></trkpt>
<trkpt lat="48.890907287598" lon="2.6331565380096"><ele></ele><time>2025-5-12T9:2:56Z</time></trkpt>
<trkpt lat="48.890907287598" lon="2.6331565380096"><ele></ele><time>2025-5-12T9:2:59Z</time></trkpt>
<trkpt lat="48.890884399414" lon="2.6330606937408"><ele></ele><time>2025-5-12T9:3:2Z</time></trkpt>
<trkpt lat="48.890892028809" lon="2.6329076290131"><ele></ele><time>2025-5-12T9:3:5Z</time></trkpt>
<trkpt lat="48.890892028809" lon="2.6329076290131"><ele></ele><time>2025-5-12T9:3:8Z</time></trkpt>
<trkpt lat="48.890853881836" lon="2.6327607631683"><ele></ele><time>2025-5-12T9:3:11Z</time></trkpt>
<trkpt lat="48.890808105469" lon="2.6326901912689"><ele></ele><time>2025-5-12T9:3:14Z</time></trkpt>
<trkpt lat="48.890808105469" lon="2.6326901912689"><ele></ele><time>2025-5-12T9:3:17Z</time></trkpt>
<trkpt lat="48.890735626221" lon="2.6325211524963"><ele></ele><time>2025-5-12T9:3:20Z</time></trkpt>
<trkpt lat="48.890701293945" lon="2.6323990821838"><ele></ele><time>2025-5-12T9:3:23Z</time></trkpt>
<trkpt lat="48.890701293945" lon="2.6323990821838"><ele></ele><time>2025-5-12T9:3:26Z</time></trkpt>
<trkpt lat="48.890655517578" lon="2.6322844028473"><ele></ele><time>2025-5-12T9:3:29Z</time></trkpt>
<trkpt lat="48.890602111816" lon="2.6321425437927"><ele></ele><time>2025-5-12T9:3:32Z</time></trkpt>
<trkpt lat="48.890537261963" lon="2.6320033073425"><ele></ele><time>2025-5-12T9:3:35Z</time></trkpt>
<trkpt lat="48.890537261963" lon="2.6320033073425"><ele></ele><time>2025-5-12T9:3:38Z</time></trkpt>
<trkpt lat="48.890468597412" lon="2.6318738460541"><ele></ele><time>2025-5-12T9:3:41Z</time></trkpt>
<trkpt lat="48.890380859375" lon="2.6317055225372"><ele></ele><time>2025-5-12T9:3:44Z</time></trkpt>
<trkpt lat="48.890281677246" lon="2.6315286159515"><ele></ele><time>2025-5-12T9:3:47Z</time></trkpt>
<trkpt lat="48.890281677246" lon="2.6315286159515"><ele></ele><time>2025-5-12T9:3:50Z</time></trkpt>
<trkpt lat="48.890174865723" lon="2.6313369274139"><ele></ele><time>2025-5-12T9:3:53Z</time></trkpt>
<trkpt lat="48.890079498291" lon="2.6311781406403"><ele></ele><time>2025-5-12T9:3:56Z</time></trkpt>
<trkpt lat="48.889991760254" lon="2.6310141086578"><ele></ele><time>2025-5-12T9:3:59Z</time></trkpt>
<trkpt lat="48.889991760254" lon="2.6310141086578"><ele></ele><time>2025-5-12T9:4:2Z</time></trkpt>
<trkpt lat="48.889911651611" lon="2.6308591365814"><ele></ele><time>2025-5-12T9:4:5Z</time></trkpt>
<trkpt lat="48.889835357666" lon="2.6307303905487"><ele></ele><time>2025-5-12T9:4:8Z</time></trkpt>
<trkpt lat="48.889759063721" lon="2.6305959224701"><ele></ele><time>2025-5-12T9:4:11Z</time></trkpt>
<trkpt lat="48.889759063721" lon="2.6305959224701"><ele></ele><time>2025-5-12T9:4:14Z</time></trkpt>
<trkpt lat="48.88969039917" lon="2.6304671764374"><ele></ele><time>2025-5-12T9:4:17Z</time></trkpt>
<trkpt lat="48.889621734619" lon="2.6303467750549"><ele></ele><time>2025-5-12T9:4:20Z</time></trkpt>
<trkpt lat="48.88956451416" lon="2.6302447319031"><ele></ele><time>2025-5-12T9:4:23Z</time></trkpt>
<trkpt lat="48.88956451416" lon="2.6302447319031"><ele></ele><time>2025-5-12T9:4:26Z</time></trkpt>
<trkpt lat="48.889511108398" lon="2.6301507949829"><ele></ele><time>2025-5-12T9:4:29Z</time></trkpt>
<trkpt lat="48.889461517334" lon="2.6300601959229"><ele></ele><time>2025-5-12T9:4:32Z</time></trkpt>
<trkpt lat="48.889419555664" lon="2.6299571990967"><ele></ele><time>2025-5-12T9:4:35Z</time></trkpt>
<trkpt lat="48.889419555664" lon="2.6299571990967"><ele></ele><time>2025-5-12T9:4:38Z</time></trkpt>
<trkpt lat="48.889389038086" lon="2.6298656463623"><ele></ele><time>2025-5-12T9:4:41Z</time></trkpt>
<trkpt lat="48.889347076416" lon="2.6297705173492"><ele></ele><time>2025-5-12T9:4:44Z</time></trkpt>
<trkpt lat="48.889301300049" lon="2.6296725273132"><ele></ele><time>2025-5-12T9:4:47Z</time></trkpt>
<trkpt lat="48.889301300049" lon="2.6296725273132"><ele></ele><time>2025-5-12T9:4:50Z</time></trkpt>
<trkpt lat="48.889255523682" lon="2.6295783519745"><ele></ele><time>2025-5-12T9:4:53Z</time></trkpt>
<trkpt lat="48.889205932617" lon="2.6294841766357"><ele></ele><time>2025-5-12T9:4:56Z</time></trkpt>
<trkpt lat="48.88916015625" lon="2.6294002532959"><ele></ele><time>2025-5-12T9:4:59Z</time></trkpt>
<trkpt lat="48.88916015625" lon="2.6294002532959"><ele></ele><time>2025-5-12T9:5:2Z</time></trkpt>
<trkpt lat="48.88911819458" lon="2.6293163299561"><ele></ele><time>2025-5-12T9:5:5Z</time></trkpt>
<trkpt lat="48.88907623291" lon="2.6292333602905"><ele></ele><time>2025-5-12T9:5:8Z</time></trkpt>
<trkpt lat="48.88903427124" lon="2.6291477680206"><ele></ele><time>2025-5-12T9:5:11Z</time></trkpt>
<trkpt lat="48.888988494873" lon="2.6290600299835"><ele></ele><time>2025-5-12T9:5:14Z</time></trkpt>
<trkpt lat="48.888942718506" lon="2.6289753913879"><ele></ele><time>2025-5-12T9:5:17Z</time></trkpt>
<trkpt lat="48.888942718506" lon="2.6289753913879"><ele></ele><time>2025-5-12T9:5:20Z</time></trkpt>
<trkpt lat="48.888896942139" lon="2.6288907527924"><ele></ele><time>2025-5-12T9:5:23Z</time></trkpt>
<trkpt lat="48.888851165771" lon="2.6288073062897"><ele></ele><time>2025-5-12T9:5:26Z</time></trkpt>
<trkpt lat="48.888805389404" lon="2.6287212371826"><ele></ele><time>2025-5-12T9:5:29Z</time></trkpt>
<trkpt lat="48.888805389404" lon="2.6287212371826"><ele></ele><time>2025-5-12T9:5:32Z</time></trkpt>
<trkpt lat="48.888759613037" lon="2.6286375522614"><ele></ele><time>2025-5-12T9:5:35Z</time></trkpt>
<trkpt lat="48.888710021973" lon="2.6285536289215"><ele></ele><time>2025-5-12T9:5:38Z</time></trkpt>
<trkpt lat="48.888664245605" lon="2.6284651756287"><ele></ele><time>2025-5-12T9:5:41Z</time></trkpt>
<trkpt lat="48.888664245605" lon="2.6284651756287"><ele></ele><time>2025-5-12T9:5:44Z</time></trkpt>
<trkpt lat="48.888622283936" lon="2.6283872127533"><ele></ele><time>2025-5-12T9:5:47Z</time></trkpt>
<trkpt lat="48.888572692871" lon="2.6282920837402"><ele></ele><time>2025-5-12T9:5:50Z</time></trkpt>
<trkpt lat="48.888523101807" lon="2.6282002925873"><ele></ele><time>2025-5-12T9:5:53Z</time></trkpt>
<trkpt lat="48.888473510742" lon="2.6281096935272"><ele></ele><time>2025-5-12T9:5:56Z</time></trkpt>
<trkpt lat="48.888423919678" lon="2.6280221939087"><ele></ele><time>2025-5-12T9:5:59Z</time></trkpt>
<trkpt lat="48.888423919678" lon="2.6280221939087"><ele></ele><time>2025-5-12T9:6:2Z</time></trkpt>
<trkpt lat="48.888374328613" lon="2.6279368400574"><ele></ele><time>2025-5-12T9:6:5Z</time></trkpt>
<trkpt lat="48.888324737549" lon="2.6278345584869"><ele></ele><time>2025-5-12T9:6:8Z</time></trkpt>
<trkpt lat="48.888271331787" lon="2.6277346611023"><ele></ele><time>2025-5-12T9:6:11Z</time></trkpt>
<trkpt lat="48.888271331787" lon="2.6277346611023"><ele></ele><time>2025-5-12T9:6:14Z</time></trkpt>
<trkpt lat="48.888221740723" lon="2.6276416778564"><ele></ele><time>2025-5-12T9:6:17Z</time></trkpt>
<trkpt lat="48.888164520264" lon="2.627539396286"><ele></ele><time>2025-5-12T9:6:20Z</time></trkpt>
<trkpt lat="48.888103485107" lon="2.6274285316467"><ele></ele><time>2025-5-12T9:6:23Z</time></trkpt>
<trkpt lat="48.888103485107" lon="2.6274285316467"><ele></ele><time>2025-5-12T9:6:26Z</time></trkpt>
<trkpt lat="48.888031005859" lon="2.6273000240326"><ele></ele><time>2025-5-12T9:6:29Z</time></trkpt>
<trkpt lat="48.887966156006" lon="2.6271908283234"><ele></ele><time>2025-5-12T9:6:32Z</time></trkpt>
<trkpt lat="48.887916564941" lon="2.6271002292633"><ele></ele><time>2025-5-12T9:6:35Z</time></trkpt>
<trkpt lat="48.887916564941" lon="2.6271002292633"><ele></ele><time>2025-5-12T9:6:38Z</time></trkpt>
<trkpt lat="48.887859344482" lon="2.6270048618317"><ele></ele><time>2025-5-12T9:6:41Z</time></trkpt>
<trkpt lat="48.887794494629" lon="2.6269192695618"><ele></ele><time>2025-5-12T9:6:44Z</time></trkpt>
<trkpt lat="48.887718200684" lon="2.6268327236176"><ele></ele><time>2025-5-12T9:6:47Z</time></trkpt>
<trkpt lat="48.887718200684" lon="2.6268327236176"><ele></ele><time>2025-5-12T9:6:50Z</time></trkpt>
<trkpt lat="48.887630462646" lon="2.6268157958984"><ele></ele><time>2025-5-12T9:6:53Z</time></trkpt>
<trkpt lat="48.887542724609" lon="2.6268999576569"><ele></ele><time>2025-5-12T9:6:56Z</time></trkpt>
<trkpt lat="48.887462615967" lon="2.6270260810852"><ele></ele><time>2025-5-12T9:6:59Z</time></trkpt>
<trkpt lat="48.887462615967" lon="2.6270260810852"><ele></ele><time>2025-5-12T9:7:2Z</time></trkpt>
<trkpt lat="48.887386322021" lon="2.6271693706512"><ele></ele><time>2025-5-12T9:7:5Z</time></trkpt>
<trkpt lat="48.887313842773" lon="2.6272633075714"><ele></ele><time>2025-5-12T9:7:8Z</time></trkpt>
<trkpt lat="48.887226104736" lon="2.6273519992828"><ele></ele><time>2025-5-12T9:7:11Z</time></trkpt>
<trkpt lat="48.887226104736" lon="2.6273519992828"><ele></ele><time>2025-5-12T9:7:14Z</time></trkpt>
<trkpt lat="48.887145996094" lon="2.6274337768555"><ele></ele><time>2025-5-12T9:7:17Z</time></trkpt>
<trkpt lat="48.887065887451" lon="2.6275269985199"><ele></ele><time>2025-5-12T9:7:20Z</time></trkpt>
<trkpt lat="48.886989593506" lon="2.62761926651"><ele></ele><time>2025-5-12T9:7:23Z</time></trkpt>
<trkpt lat="48.886989593506" lon="2.62761926651"><ele></ele><time>2025-5-12T9:7:26Z</time></trkpt>
<trkpt lat="48.886905670166" lon="2.6277122497559"><ele></ele><time>2025-5-12T9:7:29Z</time></trkpt>
<trkpt lat="48.886833190918" lon="2.6277945041656"><ele></ele><time>2025-5-12T9:7:32Z</time></trkpt>
<trkpt lat="48.886749267578" lon="2.6278870105743"><ele></ele><time>2025-5-12T9:7:35Z</time></trkpt>
<trkpt lat="48.886672973633" lon="2.6279537677765"><ele></ele><time>2025-5-12T9:7:38Z</time></trkpt>
<trkpt lat="48.886615753174" lon="2.6279706954956"><ele></ele><time>2025-5-12T9:7:41Z</time></trkpt>
<trkpt lat="48.886615753174" lon="2.6279706954956"><ele></ele><time>2025-5-12T9:7:44Z</time></trkpt>
<trkpt lat="48.886554718018" lon="2.6280038356781"><ele></ele><time>2025-5-12T9:7:47Z</time></trkpt>
<trkpt lat="48.886497497559" lon="2.6280815601349"><ele></ele><time>2025-5-12T9:7:50Z</time></trkpt>
<trkpt lat="48.886432647705" lon="2.628169298172"><ele></ele><time>2025-5-12T9:7:53Z</time></trkpt>
<trkpt lat="48.886432647705" lon="2.628169298172"><ele></ele><time>2025-5-12T9:7:56Z</time></trkpt>
<trkpt lat="48.886371612549" lon="2.6282606124878"><ele></ele><time>2025-5-12T9:7:59Z</time></trkpt>
<trkpt lat="48.88631439209" lon="2.6283450126648"><ele></ele><time>2025-5-12T9:8:2Z</time></trkpt>
<trkpt lat="48.886257171631" lon="2.628422498703"><ele></ele><time>2025-5-12T9:8:5Z</time></trkpt>
<trkpt lat="48.886257171631" lon="2.628422498703"><ele></ele><time>2025-5-12T9:8:8Z</time></trkpt>
<trkpt lat="48.886192321777" lon="2.6284964084625"><ele></ele><time>2025-5-12T9:8:11Z</time></trkpt>
<trkpt lat="48.886127471924" lon="2.6285750865936"><ele></ele><time>2025-5-12T9:8:14Z</time></trkpt>
<trkpt lat="48.886074066162" lon="2.6286633014679"><ele></ele><time>2025-5-12T9:8:17Z</time></trkpt>
<trkpt lat="48.886074066162" lon="2.6286633014679"><ele></ele><time>2025-5-12T9:8:20Z</time></trkpt>
<trkpt lat="48.886032104492" lon="2.628762960434"><ele></ele><time>2025-5-12T9:8:23Z</time></trkpt>
<trkpt lat="48.885990142822" lon="2.628865480423"><ele></ele><time>2025-5-12T9:8:26Z</time></trkpt>
<trkpt lat="48.885936737061" lon="2.6289410591125"><ele></ele><time>2025-5-12T9:8:29Z</time></trkpt>
<trkpt lat="48.885936737061" lon="2.6289410591125"><ele></ele><time>2025-5-12T9:8:32Z</time></trkpt>
<trkpt lat="48.885856628418" lon="2.6290256977081"><ele></ele><time>2025-5-12T9:8:35Z</time></trkpt>
<trkpt lat="48.885795593262" lon="2.6290793418884"><ele></ele><time>2025-5-12T9:8:38Z</time></trkpt>
<trkpt lat="48.885711669922" lon="2.629029750824"><ele></ele><time>2025-5-12T9:8:41Z</time></trkpt>
<trkpt lat="48.885711669922" lon="2.629029750824"><ele></ele><time>2025-5-12T9:8:44Z</time></trkpt>
<trkpt lat="48.885654449463" lon="2.6289720535278"><ele></ele><time>2025-5-12T9:8:47Z</time></trkpt>
<trkpt lat="48.885654449463" lon="2.6289720535278"><ele></ele><time>2025-5-12T9:8:50Z</time></trkpt>
<trkpt lat="48.885562896729" lon="2.6290266513824"><ele></ele><time>2025-5-12T9:8:53Z</time></trkpt>
<trkpt lat="48.885501861572" lon="2.6291229724884"><ele></ele><time>2025-5-12T9:8:56Z</time></trkpt>
<trkpt lat="48.88542175293" lon="2.6292331218719"><ele></ele><time>2025-5-12T9:8:59Z</time></trkpt>
<trkpt lat="48.885353088379" lon="2.6293170452118"><ele></ele><time>2025-5-12T9:9:2Z</time></trkpt>
<trkpt lat="48.885280609131" lon="2.6293957233429"><ele></ele><time>2025-5-12T9:9:5Z</time></trkpt>
<trkpt lat="48.885200500488" lon="2.6294655799866"><ele></ele><time>2025-5-12T9:9:8Z</time></trkpt>
<trkpt lat="48.885120391846" lon="2.6295292377472"><ele></ele><time>2025-5-12T9:9:11Z</time></trkpt>
<trkpt lat="48.885051727295" lon="2.629622220993"><ele></ele><time>2025-5-12T9:9:14Z</time></trkpt>
<trkpt lat="48.88497543335" lon="2.6297180652618"><ele></ele><time>2025-5-12T9:9:17Z</time></trkpt>
<trkpt lat="48.884880065918" lon="2.6298222541809"><ele></ele><time>2025-5-12T9:9:20Z</time></trkpt>
<trkpt lat="48.884880065918" lon="2.6298222541809"><ele></ele><time>2025-5-12T9:9:23Z</time></trkpt>
<trkpt lat="48.884784698486" lon="2.6299276351929"><ele></ele><time>2025-5-12T9:9:26Z</time></trkpt>
<trkpt lat="48.884696960449" lon="2.6300299167633"><ele></ele><time>2025-5-12T9:9:29Z</time></trkpt>
<trkpt lat="48.884601593018" lon="2.6301403045654"><ele></ele><time>2025-5-12T9:9:32Z</time></trkpt>
<trkpt lat="48.884498596191" lon="2.6302621364594"><ele></ele><time>2025-5-12T9:9:35Z</time></trkpt>
<trkpt lat="48.884387969971" lon="2.6303811073303"><ele></ele><time>2025-5-12T9:9:38Z</time></trkpt>
<trkpt lat="48.884284973145" lon="2.6305046081543"><ele></ele><time>2025-5-12T9:9:41Z</time></trkpt>
<trkpt lat="48.884185791016" lon="2.6306142807007"><ele></ele><time>2025-5-12T9:9:44Z</time></trkpt>
<trkpt lat="48.884098052979" lon="2.6307077407837"><ele></ele><time>2025-5-12T9:9:47Z</time></trkpt>
<trkpt lat="48.884098052979" lon="2.6307077407837"><ele></ele><time>2025-5-12T9:9:50Z</time></trkpt>
<trkpt lat="48.884098052979" lon="2.6307077407837"><ele></ele><time>2025-5-12T9:9:53Z</time></trkpt>
<trkpt lat="48.884098052979" lon="2.6307077407837"><ele></ele><time>2025-5-12T9:9:56Z</time></trkpt>
<trkpt lat="48.884098052979" lon="2.6307077407837"><ele></ele><time>2025-5-12T9:9:59Z</time></trkpt>
</trkseg></trk></gpx>